Provisional Data: Lititz Run near Lititz, PA


Please select a monitoring station.
Please select start date.
Please select start date.

Toggle Unit: C/F Toggle Unit: C/F
Sample Time Temperature (C) Temperature (F) Specific Conductivity (mS/cm) pH   Turbidity (NTU+) DO (mg/L)
10/22/2021 12:00:00 AM 14.9 58.82 0.908 7.6 8.78 8.39
10/22/2021 12:15:00 AM 14.86 58.748 0.912 7.6 9.04 8.4
10/22/2021 12:30:00 AM 14.83 58.694 0.915 7.6 9.65 8.4
10/22/2021 12:45:00 AM 14.81 58.658 0.919 7.59 9.65 8.4
10/22/2021 1:00:00 AM 14.79 58.622 0.921 7.6 9.09 8.4
10/22/2021 1:15:00 AM 14.78 58.604 0.922 7.6 8.74 8.4
10/22/2021 1:30:00 AM 14.77 58.586 0.923 7.6 7.75 8.4
10/22/2021 1:45:00 AM 14.77 58.586 0.921 7.6 7.86 8.4
10/22/2021 2:00:00 AM 14.77 58.586 0.919 7.6 7.84 8.39
10/22/2021 2:15:00 AM 14.76 58.568 0.916 7.59 7.78 8.4
10/22/2021 2:30:00 AM 14.75 58.55 0.913 7.6 8.95 8.41
10/22/2021 2:45:00 AM 14.74 58.532 0.91 7.59 7.86 8.4
10/22/2021 3:00:00 AM 14.73 58.514 0.907 7.59 9.07 8.41
10/22/2021 3:15:00 AM 14.7 58.46 0.902 7.59 9.03 8.4
10/22/2021 3:30:00 AM 14.67 58.406 0.897 7.6 8.61 8.43
10/22/2021 3:45:00 AM 14.64 58.352 0.89 7.6 8.55 8.43
10/22/2021 4:00:00 AM 14.61 58.298 0.885 7.59 8.18 8.45
10/22/2021 4:15:00 AM 14.58 58.244 0.879 7.59 8.29 8.46
10/22/2021 4:30:00 AM 14.55 58.19 0.873 7.6 8.62 8.46
10/22/2021 4:45:00 AM 14.52 58.136 0.867 7.6 8.96 8.48
10/22/2021 5:00:00 AM 14.48 58.064 0.86 7.6 8.76 8.5
10/22/2021 5:15:00 AM 14.45 58.01 0.854 7.6 9.53 8.51
10/22/2021 5:30:00 AM 14.42 57.956 0.848 7.61 10.87 8.51
10/22/2021 5:45:00 AM 14.38 57.884 0.842 7.61 11.17 8.54
10/22/2021 6:00:00 AM 14.35 57.83 0.837 7.61 9.99 8.56
10/22/2021 6:15:00 AM 14.31 57.758 0.832 7.61 10.31 8.58
10/22/2021 6:30:00 AM 14.26 57.668 0.827 7.62 9.69 8.6
10/22/2021 6:45:00 AM 14.22 57.596 0.822 7.61 9.93 8.61
10/22/2021 7:00:00 AM 14.17 57.506 0.818 7.62 9.36 8.63
10/22/2021 7:15:00 AM 14.12 57.416 0.814 7.61 9.05 8.66
10/22/2021 7:30:00 AM 14.07 57.326 0.811 7.61 8.98 8.68
10/22/2021 7:45:00 AM 14.02 57.236 0.808 7.61 8.64 8.7
10/22/2021 8:00:00 AM 13.98 57.164 0.806 7.62 8.02 8.76
10/22/2021 8:15:00 AM 13.95 57.11 0.805 7.61 8.05 8.8
10/22/2021 8:30:00 AM 13.93 57.074 0.806 7.63 7.95 8.87
10/22/2021 8:45:00 AM 13.91 57.038 0.807 7.63 7.57 8.95
10/22/2021 9:00:00 AM 13.91 57.038 0.81 7.64 6.97 9.04
10/22/2021 9:15:00 AM 13.91 57.038 0.812 7.65 7.12 9.11
10/22/2021 9:30:00 AM 13.93 57.074 0.813 7.65 6.99 9.22
10/22/2021 9:45:00 AM 13.96 57.128 0.814 7.66 7.03 9.33
10/22/2021 10:00:00 AM 13.98 57.164 0.814 7.67 7.51 9.4
10/22/2021 10:15:00 AM 14.01 57.218 0.813 7.67 7.16 9.51
10/22/2021 10:30:00 AM 14.04 57.272 0.812 7.68 6.82 9.6
10/22/2021 10:45:00 AM 14.09 57.362 0.813 7.69 7.1 9.69
10/22/2021 11:00:00 AM 14.16 57.488 0.816 7.7 7.29 9.82
10/22/2021 11:15:00 AM 14.22 57.596 0.821 7.7 7.35 9.9
10/22/2021 11:30:00 AM 14.27 57.686 0.828 7.7 7.17 9.88
10/22/2021 11:45:00 AM 14.34 57.812 0.838 7.7 7.11 9.84
10/22/2021 12:00:00 PM 14.41 57.938 0.849 7.7 7.46 9.87
10/22/2021 12:15:00 PM 14.48 58.064 0.862 7.7 7.45 9.85
10/22/2021 12:30:00 PM 14.57 58.226 0.873 7.7 7.19 9.92
10/22/2021 12:45:00 PM 14.65 58.37 0.884 7.71 6.58 9.89
10/22/2021 1:00:00 PM 14.74 58.532 0.891 7.71 6.59 9.92
10/22/2021 1:15:00 PM 14.84 58.712 0.899 7.72 6.17 10.03
10/22/2021 1:30:00 PM 14.95 58.91 0.907 7.72 6.46 10.13
10/22/2021 1:45:00 PM 15.06 59.108 0.914 7.74 6.83 10.2
10/22/2021 2:00:00 PM 15.15 59.27 0.916 7.74 6.36 10.21
10/22/2021 2:15:00 PM 15.22 59.396 0.914 7.74 7.38 10.21
10/22/2021 2:30:00 PM 15.26 59.468 0.908 7.74 6.78 10.17
10/22/2021 2:45:00 PM 15.29 59.522 0.902 7.75 6.66 10.2
10/22/2021 3:00:00 PM 15.3 59.54 0.897 7.75 6.79 10.19
10/22/2021 3:15:00 PM 15.32 59.576 0.893 7.74 6.93 10.12
10/22/2021 3:30:00 PM 15.33 59.594 0.891 7.75 6.48 10.07
10/22/2021 3:45:00 PM 15.35 59.63 0.89 7.75 6.47 10.07
10/22/2021 4:00:00 PM 15.38 59.684 0.889 7.75 6.37 10.06
10/22/2021 4:15:00 PM 15.39 59.702 0.889 7.74 6.15 9.97
10/22/2021 4:30:00 PM 15.38 59.684 0.89 7.73 6.19 9.86
10/22/2021 4:45:00 PM 15.39 59.702 0.891 7.73 6.34 9.8
10/22/2021 5:00:00 PM 15.4 59.72 0.891 7.72 6.44 9.73
10/22/2021 5:15:00 PM 15.38 59.684 0.89 7.72 6.23 9.64
10/22/2021 5:30:00 PM 15.35 59.63 0.889 7.71 6.44 9.55
10/22/2021 5:45:00 PM 15.31 59.558 0.889 7.7 6.1 9.48
10/22/2021 6:00:00 PM 15.28 59.504 0.888 7.7 5.97 9.41
10/22/2021 6:15:00 PM 15.24 59.432 0.888 7.7 6.44 9.33
10/22/2021 6:30:00 PM 15.22 59.396 0.888 7.69 6.56 9.26
10/22/2021 6:45:00 PM 15.18 59.324 0.887 7.68 6.73 9.19
10/22/2021 7:00:00 PM 15.15 59.27 0.885 7.68 6.95 9.13
10/22/2021 7:15:00 PM 15.11 59.198 0.884 7.68 7.18 9.08
10/22/2021 7:30:00 PM 15.08 59.144 0.882 7.67 7.9 9.05
10/22/2021 7:45:00 PM 15.05 59.09 0.88 7.67 7.58 9.01
10/22/2021 8:00:00 PM 15.01 59.018 0.878 7.67 7.26 8.99
10/22/2021 8:15:00 PM 14.96 58.928 0.875 7.66 6.85 8.96
10/22/2021 8:30:00 PM 14.91 58.838 0.873 7.66 7.3 8.92
10/22/2021 8:45:00 PM 14.85 58.73 0.872 7.65 7.2 8.87
10/22/2021 9:00:00 PM 14.78 58.604 0.873 7.65 6.93 8.83
10/22/2021 9:15:00 PM 14.72 58.496 0.873 7.64 7.02 8.79
10/22/2021 9:30:00 PM 14.65 58.37 0.874 7.64 6.86 8.75
10/22/2021 9:45:00 PM 14.6 58.28 0.875 7.63 7.38 8.72
10/22/2021 10:00:00 PM 14.55 58.19 0.876 7.63 7.26 8.69
10/22/2021 10:15:00 PM 14.51 58.118 0.876 7.62 6.91 8.66
10/22/2021 10:30:00 PM 14.47 58.046 0.876 7.62 7.36 8.64
10/22/2021 10:45:00 PM 14.43 57.974 0.877 7.61 6.86 8.63
10/22/2021 11:00:00 PM 14.38 57.884 0.878 7.61 7.42 8.62
10/22/2021 11:15:00 PM 14.34 57.812 0.879 7.61 6.8 8.61
10/22/2021 11:30:00 PM 14.29 57.722 0.881 7.61 6.19 8.61
10/22/2021 11:45:00 PM 14.25 57.65 0.882 7.6 7.21 8.6
10/23/2021 12:00:00 AM 14.2 57.56 0.883 7.61 7.26 8.61
10/23/2021 12:15:00 AM 14.15 57.47 0.883 7.6 6.75 8.61
10/23/2021 12:30:00 AM 14.1 57.38 0.884 7.6 7.12 8.62
10/23/2021 12:45:00 AM 14.06 57.308 0.885 7.6 6.25 8.62
10/23/2021 1:00:00 AM 14.02 57.236 0.886 7.6 6.33 8.62
10/23/2021 1:15:00 AM 13.98 57.164 0.886 7.6 6.72 8.62
10/23/2021 1:30:00 AM 13.94 57.092 0.885 7.6 6.3 8.63
10/23/2021 1:45:00 AM 13.91 57.038 0.883 7.61 6.29 8.64
10/23/2021 2:00:00 AM 13.88 56.984 0.882 7.61 5.63 8.65
10/23/2021 2:15:00 AM 13.86 56.948 0.881 7.6 6.77 8.65
10/23/2021 2:30:00 AM 13.84 56.912 0.88 7.6 6.54 8.65
10/23/2021 2:45:00 AM 13.81 56.858 0.879 7.6 6.73 8.66
10/23/2021 3:00:00 AM 13.79 56.822 0.877 7.61 6.65 8.68
10/23/2021 3:15:00 AM 13.76 56.768 0.874 7.6 6.28 8.69
10/23/2021 3:30:00 AM 13.73 56.714 0.871 7.61 7.15 8.71
10/23/2021 3:45:00 AM 13.7 56.66 0.868 7.6 7.35 8.7
10/23/2021 4:00:00 AM 13.68 56.624 0.867 7.61 7.93 8.72
10/23/2021 4:15:00 AM 13.66 56.588 0.865 7.61 8.43 8.73
10/23/2021 4:30:00 AM 13.64 56.552 0.864 7.61 7.98 8.74
10/23/2021 4:45:00 AM 13.63 56.534 0.861 7.61 7.53 8.74
10/23/2021 5:00:00 AM 13.61 56.498 0.859 7.61 8.3 8.75
10/23/2021 5:15:00 AM 13.6 56.48 0.856 7.61 7.59 8.76
10/23/2021 5:30:00 AM 13.58 56.444 0.852 7.61 8.54 8.77
10/23/2021 5:45:00 AM 13.56 56.408 0.848 7.61 7.83 8.78
10/23/2021 6:00:00 AM 13.55 56.39 0.844 7.61 8.27 8.79
10/23/2021 6:15:00 AM 13.53 56.354 0.84 7.61 9.87 8.8
10/23/2021 6:30:00 AM 13.51 56.318 0.836 7.61 9.64 8.81
10/23/2021 6:45:00 AM 13.5 56.3 0.834 7.61 9 8.82
10/23/2021 7:00:00 AM 13.49 56.282 0.831 7.61 8.47 8.82
10/23/2021 7:15:00 AM 13.47 56.246 0.829 7.62 9.18 8.83
10/23/2021 7:30:00 AM 13.46 56.228 0.826 7.62 9.63 8.84
10/23/2021 7:45:00 AM 13.45 56.21 0.824 7.61 8.4 8.85
10/23/2021 8:00:00 AM 13.44 56.192 0.822 7.62 7.51 8.87
10/23/2021 8:15:00 AM 13.44 56.192 0.821 7.62 7.85 8.89
10/23/2021 8:30:00 AM 13.44 56.192 0.82 7.62 6.71 8.92
10/23/2021 8:45:00 AM 13.45 56.21 0.821 7.63 6.72 8.95
10/23/2021 9:00:00 AM 13.46 56.228 0.822 7.61 6.88 8.98
10/23/2021 9:15:00 AM 13.47 56.246 0.823 7.63 6.7 9.03
10/23/2021 9:30:00 AM 13.49 56.282 0.824 7.63 6.44 9.08
10/23/2021 9:45:00 AM 13.5 56.3 0.825 7.64 6.15 9.11
10/23/2021 10:00:00 AM 13.53 56.354 0.825 7.64 5.37 9.22
10/23/2021 10:15:00 AM 13.56 56.408 0.824 7.64 6.3 9.34
10/23/2021 10:30:00 AM 13.59 56.462 0.823 7.66 6.35 9.44
10/23/2021 10:45:00 AM 13.62 56.516 0.821 7.66 6.68 9.52
10/23/2021 11:00:00 AM 13.65 56.57 0.819 7.67 6.76 9.58
10/23/2021 11:15:00 AM 13.67 56.606 0.818 7.68 6 9.64
10/23/2021 11:30:00 AM 13.71 56.678 0.818 7.69 5.39 9.73
10/23/2021 11:45:00 AM 13.73 56.714 0.823 7.67 5.39 9.7
10/23/2021 12:00:00 PM 13.79 56.822 0.834 7.67 5.58 9.68
10/23/2021 12:15:00 PM 13.87 56.966 0.849 7.68 6.16 9.73
10/23/2021 12:30:00 PM 13.99 57.182 0.862 7.68 6.51 9.89
10/23/2021 12:45:00 PM 14.1 57.38 0.871 7.7 6.34 9.99
10/23/2021 1:00:00 PM 14.25 57.65 0.876 7.71 6.52 10.15
10/23/2021 1:15:00 PM 14.38 57.884 0.879 7.72 6.52 10.27
10/23/2021 1:30:00 PM 14.47 58.046 0.884 7.72 6.87 10.25
10/23/2021 1:45:00 PM 14.53 58.154 0.892 7.72 7.01 10.15
10/23/2021 2:00:00 PM 14.62 58.316 0.899 7.72 6.74 10.16
10/23/2021 2:15:00 PM 14.68 58.424 0.907 7.71 6.25 10.13
10/23/2021 2:30:00 PM 14.73 58.514 0.914 7.73 6.05 10.16
10/23/2021 2:45:00 PM 14.8 58.64 0.92 7.73 6.41 10.2
10/23/2021 3:00:00 PM 14.85 58.73 0.926 7.73 6.81 10.15
10/23/2021 3:15:00 PM 14.9 58.82 0.93 7.72 6 10.03
10/23/2021 3:30:00 PM 14.95 58.91 0.932 7.71 6.12 9.92
10/23/2021 3:45:00 PM 14.99 58.982 0.931 7.71 6.54 9.95
10/23/2021 4:00:00 PM 15.02 59.036 0.928 7.71 6.09 9.97
10/23/2021 4:15:00 PM 15.04 59.072 0.925 7.72 6.01 9.91
10/23/2021 4:30:00 PM 15.07 59.126 0.924 7.72 6.09 9.92
10/23/2021 4:45:00 PM 15.09 59.162 0.922 7.73 6.08 9.92
10/23/2021 5:00:00 PM 15.1 59.18 0.92 7.72 6.28 9.86
10/23/2021 5:15:00 PM 15.1 59.18 0.918 7.72 5.74 9.81
10/23/2021 5:30:00 PM 15.08 59.144 0.916 7.72 5.62 9.72
10/23/2021 5:45:00 PM 15.06 59.108 0.914 7.71 6.23 9.62
10/23/2021 6:00:00 PM 15.03 59.054 0.911 7.7 6.47 9.52
10/23/2021 6:15:00 PM 14.98 58.964 0.909 7.7 6.09 9.42
10/23/2021 6:30:00 PM 14.93 58.874 0.908 7.69 6.91 9.33
10/23/2021 6:45:00 PM 14.87 58.766 0.908 7.68 6.7 9.26
10/23/2021 7:00:00 PM 14.82 58.676 0.908 7.67 7.1 9.18
10/23/2021 7:15:00 PM 14.77 58.586 0.909 7.67 7.87 9.13
10/23/2021 7:30:00 PM 14.72 58.496 0.909 7.67 7.7 9.07
10/23/2021 7:45:00 PM 14.67 58.406 0.908 7.66 7.86 9.03
10/23/2021 8:00:00 PM 14.62 58.316 0.906 7.64 7.61 8.99
10/23/2021 8:15:00 PM 14.56 58.208 0.905 7.65 8.44 8.96
10/23/2021 8:30:00 PM 14.51 58.118 0.905 7.65 7.57 8.93
10/23/2021 8:45:00 PM 14.46 58.028 0.906 7.64 7.13 8.91
10/23/2021 9:00:00 PM 14.41 57.938 0.905 7.64 7.82 8.88
10/23/2021 9:15:00 PM 14.36 57.848 0.903 7.63 8.36 8.85
10/23/2021 9:30:00 PM 14.31 57.758 0.901 7.63 7.83 8.83
10/23/2021 9:45:00 PM 14.25 57.65 0.899 7.63 8.07 8.81
10/23/2021 10:00:00 PM 14.18 57.524 0.898 7.63 8.06 8.78
10/23/2021 10:15:00 PM 14.11 57.398 0.899 7.62 7.68 8.76
10/23/2021 10:30:00 PM 14.04 57.272 0.9 7.62 8.41 8.73
10/23/2021 10:45:00 PM 13.97 57.146 0.902 7.62 7.4 8.71
10/23/2021 11:00:00 PM 13.9 57.02 0.904 7.62 7.72 8.7
10/23/2021 11:15:00 PM 13.83 56.894 0.905 7.61 7.56 8.71
10/23/2021 11:30:00 PM 13.77 56.786 0.905 7.61 7.41 8.71
10/23/2021 11:45:00 PM 13.72 56.696 0.906 7.61 7.39 8.71
10/24/2021 12:00:00 AM 13.66 56.588 0.905 7.61 6.72 8.72
10/24/2021 12:15:00 AM 13.61 56.498 0.904 7.61 6.66 8.72
10/24/2021 12:30:00 AM 13.55 56.39 0.903 7.6 6.6 8.73
10/24/2021 12:45:00 AM 13.49 56.282 0.902 7.6 7.13 8.74
10/24/2021 1:00:00 AM 13.44 56.192 0.902 7.61 6.46 8.75
10/24/2021 1:15:00 AM 13.39 56.102 0.902 7.61 6.82 8.75
10/24/2021 1:30:00 AM 13.34 56.012 0.902 7.61 6.98 8.77
10/24/2021 1:45:00 AM 13.28 55.904 0.901 7.61 8.14 8.78
10/24/2021 2:00:00 AM 13.23 55.814 0.9 7.61 8.3 8.79
10/24/2021 2:15:00 AM 13.18 55.724 0.899 7.61 7.74 8.81
10/24/2021 2:30:00 AM 13.12 55.616 0.899 7.61 10.26 8.82
10/24/2021 2:45:00 AM 13.07 55.526 0.898 7.6 7.68 8.84
10/24/2021 3:00:00 AM 13.02 55.436 0.896 7.62 6.61 8.85
10/24/2021 3:15:00 AM 12.96 55.328 0.894 7.62 6.64 8.84
10/24/2021 3:30:00 AM 12.91 55.238 0.892 7.6 6.49 8.87
10/24/2021 3:45:00 AM 12.85 55.13 0.889 7.62 5.38 8.88
10/24/2021 4:00:00 AM 12.81 55.058 0.887 7.62 5.57 8.91
10/24/2021 4:15:00 AM 12.77 54.986 0.885 7.62 6.3 8.91
10/24/2021 4:30:00 AM 12.75 54.95 0.883 7.62 6.02 8.93
10/24/2021 4:45:00 AM 12.73 54.914 0.881 7.62 5.62 8.94
10/24/2021 5:00:00 AM 12.7 54.86 0.879 7.63 7.04 8.95
10/24/2021 5:15:00 AM 12.67 54.806 0.874 7.64 6.43 8.98
10/24/2021 5:30:00 AM 12.63 54.734 0.869 7.63 6.23 8.99
10/24/2021 5:45:00 AM 12.6 54.68 0.863 7.63 6.34 9.01
10/24/2021 6:00:00 AM 12.56 54.608 0.857 7.63 7.75 9.02
10/24/2021 6:15:00 AM 12.52 54.536 0.852 7.63 7.53 9.06
10/24/2021 6:30:00 AM 12.49 54.482 0.846 7.63 6.98 9.08
10/24/2021 6:45:00 AM 12.44 54.392 0.841 7.63 9.08 9.09
10/24/2021 7:00:00 AM 12.41 54.338 0.837 7.64 8.09 9.1
10/24/2021 7:15:00 AM 12.37 54.266 0.832 7.62 7.63 9.13
10/24/2021 7:30:00 AM 12.33 54.194 0.828 7.64 7.49 9.14
10/24/2021 7:45:00 AM 12.31 54.158 0.825 7.65 7.03 9.17
10/24/2021 8:00:00 AM 12.29 54.122 0.824 7.65 6.95 9.21
10/24/2021 8:15:00 AM 12.28 54.104 0.823 7.66 6.38 9.26
10/24/2021 8:30:00 AM 12.29 54.122 0.824 7.65 5.36 9.32
10/24/2021 8:45:00 AM 12.31 54.158 0.826 7.66 5.59 9.4
10/24/2021 9:00:00 AM 12.34 54.212 0.827 7.65 5.15 9.48
10/24/2021 9:15:00 AM 12.37 54.266 0.828 7.67 5.25 9.51
10/24/2021 9:30:00 AM 12.41 54.338 0.829 7.69 4.67 9.64
10/24/2021 9:45:00 AM 12.44 54.392 0.829 7.68 5.36 9.69
10/24/2021 10:00:00 AM 12.47 54.446 0.83 7.68 5.13 9.68
10/24/2021 10:15:00 AM 12.52 54.536 0.831 7.69 4.79 9.74
10/24/2021 10:30:00 AM 12.54 54.572 0.831 7.69 4.66 9.75
10/24/2021 10:45:00 AM 12.57 54.626 0.83 7.69 4.86 9.78
10/24/2021 11:00:00 AM 12.61 54.698 0.829 7.69 4.59 9.8
10/24/2021 11:15:00 AM 12.64 54.752 0.829 7.68 4.64 9.84
10/24/2021 11:30:00 AM 12.67 54.806 0.828 7.69 4.83 9.83
10/24/2021 11:45:00 AM 12.73 54.914 0.83 7.7 5.13 9.94
10/24/2021 12:00:00 PM 12.82 55.076 0.835 7.7 5.09 10.08
10/24/2021 12:15:00 PM 12.91 55.238 0.846 7.71 5.59 10.14
10/24/2021 12:30:00 PM 13.02 55.436 0.863 7.71 4.88 10.13
10/24/2021 12:45:00 PM 13.15 55.67 0.882 7.71 5.1 10.15
10/24/2021 1:00:00 PM 13.28 55.904 0.899 7.71 5.14 10.2
10/24/2021 1:15:00 PM 13.39 56.102 0.91 7.72 5.18 10.19
10/24/2021 1:30:00 PM 13.49 56.282 0.916 7.72 5.28 10.17
10/24/2021 1:45:00 PM 13.58 56.444 0.921 7.73 4.86 10.22
10/24/2021 2:00:00 PM 13.69 56.642 0.926 7.73 5.17 10.31
10/24/2021 2:15:00 PM 13.79 56.822 0.931 7.74 5.68 10.36
10/24/2021 2:30:00 PM 13.89 57.002 0.936 7.73 5.35 10.39
10/24/2021 2:45:00 PM 14.02 57.236 0.941 7.75 5.11 10.46
10/24/2021 3:00:00 PM 14.09 57.362 0.945 7.75 5.36 10.41
10/24/2021 3:15:00 PM 14.17 57.506 0.949 7.75 5.14 10.43
10/24/2021 3:30:00 PM 14.25 57.65 0.953 7.73 5.25 10.39
10/24/2021 3:45:00 PM 14.33 57.794 0.955 7.74 5.32 10.35
10/24/2021 4:00:00 PM 14.37 57.866 0.954 7.74 4.66 10.32
10/24/2021 4:15:00 PM 14.39 57.902 0.952 7.74 5.16 10.24
10/24/2021 4:30:00 PM 14.43 57.974 0.949 7.74 4.9 10.21
10/24/2021 4:45:00 PM 14.47 58.046 0.945 7.74 5.11 10.19
10/24/2021 5:00:00 PM 14.49 58.082 0.942 7.74 5.43 10.14
10/24/2021 5:15:00 PM 14.49 58.082 0.94 7.73 5.05 10.03
10/24/2021 5:30:00 PM 14.49 58.082 0.938 7.73 5.87 9.94
10/24/2021 5:45:00 PM 14.48 58.064 0.937 7.72 5.21 9.84
10/24/2021 6:00:00 PM 14.49 58.082 0.936 7.72 5.86 9.73
10/24/2021 6:15:00 PM 14.51 58.118 0.936 7.7 5.05 9.65
10/24/2021 6:30:00 PM 14.53 58.154 0.938 7.7 5.53 9.57
10/24/2021 6:45:00 PM 14.55 58.19 0.94 7.69 5.85 9.51
10/24/2021 7:00:00 PM 14.57 58.226 0.942 7.69 6.09 9.45
10/24/2021 7:15:00 PM 14.59 58.262 0.942 7.69 5.75 9.4
10/24/2021 7:30:00 PM 14.6 58.28 0.941 7.69 6.98 9.34
10/24/2021 7:45:00 PM 14.59 58.262 0.939 7.68 6.92 9.28
10/24/2021 8:00:00 PM 14.57 58.226 0.937 7.67 6.51 9.23
10/24/2021 8:15:00 PM 14.55 58.19 0.935 7.67 6.81 9.16
10/24/2021 8:30:00 PM 14.51 58.118 0.932 7.66 7.45 9.1
10/24/2021 8:45:00 PM 14.47 58.046 0.929 7.66 8.58 9.03
10/24/2021 9:00:00 PM 14.43 57.974 0.925 7.65 7.79 9
10/24/2021 9:15:00 PM 14.39 57.902 0.922 7.65 8.46 8.94
10/24/2021 9:30:00 PM 14.36 57.848 0.919 7.64 7.68 8.89
10/24/2021 9:45:00 PM 14.33 57.794 0.917 7.64 7.34 8.83
10/24/2021 10:00:00 PM 14.3 57.74 0.915 7.63 6.84 8.78
10/24/2021 10:15:00 PM 14.27 57.686 0.914 7.61 6.66 8.75
10/24/2021 10:30:00 PM 14.25 57.65 0.912 7.62 6.89 8.72
10/24/2021 10:45:00 PM 14.22 57.596 0.911 7.61 7.52 8.7
10/24/2021 11:00:00 PM 14.2 57.56 0.911 7.61 7.47 8.68
10/24/2021 11:15:00 PM 14.18 57.524 0.912 7.61 6.88 8.65
10/24/2021 11:30:00 PM 14.17 57.506 0.913 7.6 7.51 8.66
10/24/2021 11:45:00 PM 14.15 57.47 0.914 7.61 6.29 8.64
10/25/2021 12:00:00 AM 14.14 57.452 0.916 7.6 7.15 8.63
10/25/2021 12:15:00 AM 14.14 57.452 0.919 7.6 7.4 8.61
10/25/2021 12:30:00 AM 14.13 57.434 0.922 7.6 6.59 8.61
10/25/2021 12:45:00 AM 14.13 57.434 0.925 7.6 6.84 8.61
10/25/2021 1:00:00 AM 14.13 57.434 0.928 7.59 6.8 8.59
10/25/2021 1:15:00 AM 14.13 57.434 0.929 7.6 7.34 8.59
10/25/2021 1:30:00 AM 14.13 57.434 0.93 7.59 7.06 8.58
10/25/2021 1:45:00 AM 14.13 57.434 0.93 7.59 6.67 8.58
10/25/2021 2:00:00 AM 14.12 57.416 0.928 7.59 6.73 8.57
10/25/2021 2:15:00 AM 14.11 57.398 0.926 7.59 6.06 8.57
10/25/2021 2:30:00 AM 14.1 57.38 0.923 7.59 5.96 8.56
10/25/2021 2:45:00 AM 14.08 57.344 0.92 7.59 5.89 8.56
10/25/2021 3:00:00 AM 14.06 57.308 0.916 7.59 6.19 8.57
10/25/2021 3:15:00 AM 14.03 57.254 0.912 7.59 6.79 8.58
10/25/2021 3:30:00 AM 14 57.2 0.907 7.59 6.52 8.59
10/25/2021 3:45:00 AM 13.98 57.164 0.902 7.6 10.48 8.58
10/25/2021 4:00:00 AM 13.95 57.11 0.898 7.6 7.3 8.6
10/25/2021 4:15:00 AM 13.92 57.056 0.893 7.59 6.8 8.61
10/25/2021 4:30:00 AM 13.89 57.002 0.888 7.61 6.9 8.62
10/25/2021 4:45:00 AM 13.87 56.966 0.883 7.61 6.87 8.63
10/25/2021 5:00:00 AM 13.85 56.93 0.877 7.6 7.97 8.64
10/25/2021 5:15:00 AM 13.82 56.876 0.871 7.61 6.62 8.66
10/25/2021 5:30:00 AM 13.8 56.84 0.864 7.61 7.56 8.67
10/25/2021 5:45:00 AM 13.77 56.786 0.859 7.61 7.32 8.69
10/25/2021 6:00:00 AM 13.75 56.75 0.854 7.61 7.29 8.69
10/25/2021 6:15:00 AM 13.72 56.696 0.85 7.61 7.22 8.71
10/25/2021 6:30:00 AM 13.69 56.642 0.845 7.61 7.01 8.72
10/25/2021 6:45:00 AM 13.65 56.57 0.839 7.62 7.78 8.73
10/25/2021 7:00:00 AM 13.62 56.516 0.834 7.61 7.64 8.75
10/25/2021 7:15:00 AM 13.58 56.444 0.829 7.62 7.22 8.77
10/25/2021 7:30:00 AM 13.54 56.372 0.826 7.62 6.41 8.79
10/25/2021 7:45:00 AM 13.51 56.318 0.823 7.62 6.23 8.81
10/25/2021 8:00:00 AM 13.49 56.282 0.821 7.62 5.77 8.84
10/25/2021 8:15:00 AM 13.48 56.264 0.822 7.62 6.72 8.89
10/25/2021 8:30:00 AM 13.48 56.264 0.823 7.63 5.34 8.97
10/25/2021 8:45:00 AM 13.5 56.3 0.825 7.63 5.28 9.05
10/25/2021 9:00:00 AM 13.53 56.354 0.827 7.64 6.28 9.18
10/25/2021 9:15:00 AM 13.58 56.444 0.83 7.65 5.28 9.29
10/25/2021 9:30:00 AM 13.64 56.552 0.832 7.65 5.33 9.42
10/25/2021 9:45:00 AM 13.69 56.642 0.832 7.66 4.93 9.48
10/25/2021 10:00:00 AM 13.73 56.714 0.833 7.66 5.08 9.53
10/25/2021 10:15:00 AM 13.78 56.804 0.832 7.66 5.04 9.58
10/25/2021 10:30:00 AM 13.83 56.894 0.832 7.68 5.05 9.66
10/25/2021 10:45:00 AM 13.89 57.002 0.834 7.68 5.01 9.73
10/25/2021 11:00:00 AM 13.98 57.164 0.837 7.69 5.59 9.79
10/25/2021 11:15:00 AM 14.07 57.326 0.842 7.68 4.56 9.84
10/25/2021 11:30:00 AM 14.19 57.542 0.85 7.69 5.86 9.9
10/25/2021 11:45:00 AM 14.32 57.776 0.86 7.7 4.43 9.94
10/25/2021 12:00:00 PM 14.47 58.046 0.872 7.7 5.5 10
10/25/2021 12:15:00 PM 14.63 58.334 0.884 7.71 4.53 10.04
10/25/2021 12:30:00 PM 14.82 58.676 0.897 7.71 4.57 10.12
10/25/2021 12:45:00 PM 15 59 0.91 7.72 4.51 10.16
10/25/2021 1:00:00 PM 15.18 59.324 0.919 7.72 5.14 10.2
10/25/2021 1:15:00 PM 15.35 59.63 0.926 7.73 4.59 10.21
10/25/2021 1:30:00 PM 15.51 59.918 0.931 7.73 5.15 10.21
10/25/2021 1:45:00 PM 15.67 60.206 0.935 7.73 4.9 10.21
10/25/2021 2:00:00 PM 15.8 60.44 0.938 7.73 5.51 10.25
10/25/2021 2:15:00 PM 15.92 60.656 0.941 7.74 5.26 10.22
10/25/2021 2:30:00 PM 16.03 60.854 0.942 7.74 5.42 10.21
10/25/2021 2:45:00 PM 16.1 60.98 0.941 7.75 5.96 10.15
10/25/2021 3:00:00 PM 16.19 61.142 0.939 7.74 5.42 10.15
10/25/2021 3:15:00 PM 16.21 61.178 0.937 7.74 5.56 9.99
10/25/2021 3:30:00 PM 16.24 61.232 0.935 7.73 5.41 9.91
10/25/2021 3:45:00 PM 16.3 61.34 0.933 7.73 5.17 9.95
10/25/2021 4:00:00 PM 16.33 61.394 0.931 7.74 5 9.88
10/25/2021 4:15:00 PM 16.36 61.448 0.929 7.73 4.82 9.81
10/25/2021 4:30:00 PM 16.39 61.502 0.927 7.72 5 9.77
10/25/2021 4:45:00 PM 16.44 61.592 0.925 7.73 5.22 9.71
10/25/2021 5:00:00 PM 16.49 61.682 0.923 7.73 4.94 9.69
10/25/2021 5:15:00 PM 16.52 61.736 0.921 7.72 5.43 9.56
10/25/2021 5:30:00 PM 16.54 61.772 0.919 7.77 5.98 9.41
10/25/2021 5:45:00 PM 16.54 61.772 0.917 7.73 5.22 9.32
10/25/2021 6:00:00 PM 16.53 61.754 0.915 7.76 5.26 9.18
10/25/2021 6:15:00 PM 16.51 61.718 0.914 7.69 6.41 9.08
10/25/2021 6:30:00 PM 16.49 61.682 0.913 7.72 5.1 8.99
10/25/2021 6:45:00 PM 16.46 61.628 0.912 7.7 5.92 8.89
10/25/2021 7:00:00 PM 16.42 61.556 0.911 7.69 5.86 8.81
10/25/2021 7:15:00 PM 16.38 61.484 0.91 7.69 7.3 8.72
10/25/2021 7:30:00 PM 16.34 61.412 0.909 7.67 6.92 8.7
10/25/2021 7:45:00 PM 16.29 61.322 0.904 7.65 7.6 8.67
10/25/2021 8:00:00 PM 16.26 61.268 0.896 7.65 7.96 8.62
10/25/2021 8:15:00 PM 16.22 61.196 0.886 7.67 11.02 8.57
10/25/2021 8:30:00 PM 16.18 61.124 0.88 7.66 9.18 8.49
10/25/2021 8:45:00 PM 16.13 61.034 0.879 7.65 9.03 8.44
10/25/2021 9:00:00 PM 16.07 60.926 0.882 7.64 9.08 8.38
10/25/2021 9:15:00 PM 16.01 60.818 0.881 7.64 8.73 8.36
10/25/2021 9:30:00 PM 15.95 60.71 0.877 7.64 9.48 8.32
10/25/2021 9:45:00 PM 15.88 60.584 0.875 7.62 18.79 8.32
10/25/2021 10:00:00 PM 15.79 60.422 0.879 7.6 75.92 8.3
10/25/2021 10:15:00 PM 15.68 60.224 0.879 7.57 55.63 8.29
10/25/2021 10:30:00 PM 15.58 60.044 0.872 7.58 66.52 8.33
10/25/2021 10:45:00 PM 15.48 59.864 0.829 7.54 59.15 8.38
10/25/2021 11:00:00 PM 15.31 59.558 0.743 7.49 71.44 8.36
10/25/2021 11:15:00 PM 15.33 59.594 0.632 7.43 47.27 8.23
10/25/2021 11:30:00 PM 15.56 60.008 0.534 7.36 50.4 8.1
10/25/2021 11:45:00 PM 15.87 60.566 0.47 7.29 46.09 8.01
10/26/2021 12:00:00 AM 16.12 61.016 0.442 7.25 43.28 7.92
10/26/2021 12:15:00 AM 16.29 61.322 0.434 7.25 39.22 7.89
10/26/2021 12:30:00 AM 16.36 61.448 0.434 7.25 37.64 7.86
10/26/2021 12:45:00 AM 16.35 61.43 0.435 7.23 35.78 7.86
10/26/2021 1:00:00 AM 16.29 61.322 0.442 7.24 34.07 7.87
10/26/2021 1:15:00 AM 16.22 61.196 0.446 7.24 30.8 7.87
10/26/2021 1:30:00 AM 16.15 61.07 0.445 7.21 29.07 7.88
10/26/2021 1:45:00 AM 16.09 60.962 0.443 7.22 26.47 7.89
10/26/2021 2:00:00 AM 16.02 60.836 0.446 7.21 25.5 7.9
10/26/2021 2:15:00 AM 15.96 60.728 0.455 7.22 29.73 7.9
10/26/2021 2:30:00 AM 15.9 60.62 0.466 7.23 24.46 7.91
10/26/2021 2:45:00 AM 15.84 60.512 0.477 7.24 22.96 7.92
10/26/2021 3:00:00 AM 15.78 60.404 0.487 7.24 22.01 7.94
10/26/2021 3:15:00 AM 15.7 60.26 0.495 7.24 19.21 7.95
10/26/2021 3:30:00 AM 15.63 60.134 0.501 7.24 20.58 7.97
10/26/2021 3:45:00 AM 15.56 60.008 0.506 7.24 19.48 7.97
10/26/2021 4:00:00 AM 15.49 59.882 0.509 7.28 18.18 7.98
10/26/2021 4:15:00 AM 15.44 59.792 0.511 7.3 17.82 7.99
10/26/2021 4:30:00 AM 15.4 59.72 0.515 7.3 17.67 7.99
10/26/2021 4:45:00 AM 15.37 59.666 0.519 7.29 17.2 8
10/26/2021 5:00:00 AM 15.35 59.63 0.522 7.29 16.05 8.01
10/26/2021 5:15:00 AM 15.33 59.594 0.526 7.28 16.75 8.01
10/26/2021 5:30:00 AM 15.3 59.54 0.531 7.27 16.03 8.03
10/26/2021 5:45:00 AM 15.27 59.486 0.539 7.27 16.22 8.03
10/26/2021 6:00:00 AM 15.25 59.45 0.548 7.3 15.08 8.04
10/26/2021 6:15:00 AM 15.23 59.414 0.559 7.28 14.43 8.05
10/26/2021 6:30:00 AM 15.21 59.378 0.569 7.29 14.21 8.05
10/26/2021 6:45:00 AM 15.18 59.324 0.581 7.3 13.85 8.06
10/26/2021 7:00:00 AM 15.15 59.27 0.592 7.31 13.88 8.07
10/26/2021 7:15:00 AM 15.11 59.198 0.605 7.32 13.19 8.09
10/26/2021 7:30:00 AM 15.08 59.144 0.617 7.33 13.13 8.1
10/26/2021 7:45:00 AM 15.04 59.072 0.629 7.34 11.42 8.12
10/26/2021 8:00:00 AM 15.01 59.018 0.639 7.35 11.79 8.14
10/26/2021 8:15:00 AM 14.97 58.946 0.649 7.36 11.2 8.16
10/26/2021 8:30:00 AM 14.94 58.892 0.658 7.37 10.9 8.2
10/26/2021 8:45:00 AM 14.9 58.82 0.666 7.38 10.54 8.25
10/26/2021 9:00:00 AM 14.88 58.784 0.674 7.4 9.3 8.31
10/26/2021 9:15:00 AM 14.87 58.766 0.681 7.41 8.57 8.41
10/26/2021 9:30:00 AM 14.87 58.766 0.688 7.42 8.93 8.49
10/26/2021 9:45:00 AM 14.87 58.766 0.695 7.43 8.29 8.58
10/26/2021 10:00:00 AM 14.87 58.766 0.701 7.43 7.79 8.62
10/26/2021 10:15:00 AM 14.87 58.766 0.709 7.44 7.86 8.59
10/26/2021 10:30:00 AM 14.87 58.766 0.719 7.45 7.46 8.59
10/26/2021 10:45:00 AM 14.91 58.838 0.729 7.45 7.37 8.68
10/26/2021 11:00:00 AM 14.96 58.928 0.74 7.47 7.65 8.81
10/26/2021 11:15:00 AM 15.08 59.144 0.751 7.48 7.56 9
10/26/2021 11:30:00 AM 15.17 59.306 0.761 7.5 6.89 9.1
10/26/2021 11:45:00 AM 15.24 59.432 0.771 7.5 6.92 9.12
10/26/2021 12:00:00 PM 15.3 59.54 0.778 7.51 7.65 9.18
10/26/2021 12:15:00 PM 15.35 59.63 0.782 7.52 7.42 9.17
10/26/2021 12:30:00 PM 15.36 59.648 0.784 7.52 7.35 9.06
10/26/2021 12:45:00 PM 15.36 59.648 0.785 7.51 7.04 8.95
10/26/2021 1:00:00 PM 15.36 59.648 0.784 7.51 6.89 8.94
10/26/2021 1:15:00 PM 15.34 59.612 0.783 7.5 6.36 8.86
10/26/2021 1:30:00 PM 15.34 59.612 0.781 7.51 7.46 8.95
10/26/2021 1:45:00 PM 15.33 59.594 0.781 7.52 6.28 8.98
10/26/2021 2:00:00 PM 15.33 59.594 0.782 7.53 7.04 9.02
10/26/2021 2:15:00 PM 15.33 59.594 0.783 7.54 7.71 9.1
10/26/2021 2:30:00 PM 15.32 59.576 0.784 7.53 6.75 9.07
10/26/2021 2:45:00 PM 15.3 59.54 0.786 7.54 7.68 9.06
10/26/2021 3:00:00 PM 15.28 59.504 0.788 7.54 8.18 9.04
10/26/2021 3:15:00 PM 15.25 59.45 0.792 7.54 7.74 9.01
10/26/2021 3:30:00 PM 15.22 59.396 0.796 7.54 7.65 8.99
10/26/2021 3:45:00 PM 15.19 59.342 0.802 7.53 6.7 8.99
10/26/2021 4:00:00 PM 15.15 59.27 0.81 7.54 6.79 8.91
10/26/2021 4:15:00 PM 15.11 59.198 0.818 7.54 6.71 8.84
10/26/2021 4:30:00 PM 15.08 59.144 0.825 7.53 6.13 8.79
10/26/2021 4:45:00 PM 15.05 59.09 0.829 7.54 6.85 8.78
10/26/2021 5:00:00 PM 15 59 0.83 7.54 6.86 8.77
10/26/2021 5:15:00 PM 14.94 58.892 0.83 7.55 6.99 8.74
10/26/2021 5:30:00 PM 14.88 58.784 0.83 7.54 6.82 8.72
10/26/2021 5:45:00 PM 14.81 58.658 0.83 7.54 6.34 8.69
10/26/2021 6:00:00 PM 14.75 58.55 0.83 7.54 6.73 8.66
10/26/2021 6:15:00 PM 14.68 58.424 0.83 7.54 7.2 8.64
10/26/2021 6:30:00 PM 14.61 58.298 0.829 7.54 7.6 8.63
10/26/2021 6:45:00 PM 14.54 58.172 0.827 7.54 7.7 8.62
10/26/2021 7:00:00 PM 14.46 58.028 0.824 7.54 8.81 8.62
10/26/2021 7:15:00 PM 14.38 57.884 0.818 7.55 8.78 8.63
10/26/2021 7:30:00 PM 14.29 57.722 0.812 7.55 9.18 8.63
10/26/2021 7:45:00 PM 14.2 57.56 0.807 7.53 8.81 8.63
10/26/2021 8:00:00 PM 14.11 57.398 0.805 7.54 9.07 8.63
10/26/2021 8:15:00 PM 14.03 57.254 0.803 7.55 9.34 8.63
10/26/2021 8:30:00 PM 13.95 57.11 0.801 7.55 9.1 8.64
10/26/2021 8:45:00 PM 13.89 57.002 0.801 7.54 8.92 8.63
10/26/2021 9:00:00 PM 13.84 56.912 0.801 7.54 9.44 8.62
10/26/2021 9:15:00 PM 13.79 56.822 0.801 7.54 9.8 8.62
10/26/2021 9:30:00 PM 13.74 56.732 0.801 7.54 9.48 8.61
10/26/2021 9:45:00 PM 13.69 56.642 0.803 7.54 9.76 8.6
10/26/2021 10:00:00 PM 13.65 56.57 0.804 7.53 9.8 8.58
10/26/2021 10:15:00 PM 13.61 56.498 0.805 7.52 8.96 8.56
10/26/2021 10:30:00 PM 13.58 56.444 0.806 7.51 9.24 8.54
10/26/2021 10:45:00 PM 13.56 56.408 0.806 7.52 9.42 8.52
10/26/2021 11:00:00 PM 13.55 56.39 0.808 7.5 9.1 8.5
10/26/2021 11:15:00 PM 13.53 56.354 0.81 7.5 9.18 8.49
10/26/2021 11:30:00 PM 13.52 56.336 0.812 7.49 9.23 8.48
10/26/2021 11:45:00 PM 13.51 56.318 0.815 7.49 10.36 8.48
10/27/2021 12:00:00 AM 13.49 56.282 0.816 7.48 9.89 8.49
10/27/2021 12:15:00 AM 13.47 56.246 0.818 7.5 9.91 8.51
10/27/2021 12:30:00 AM 13.45 56.21 0.82 7.51 9.19 8.52
10/27/2021 12:45:00 AM 13.44 56.192 0.823 7.51 8.94 8.53
10/27/2021 1:00:00 AM 13.43 56.174 0.825 7.51 9.06 8.54
10/27/2021 1:15:00 AM 13.41 56.138 0.826 7.51 9.85 8.56
10/27/2021 1:30:00 AM 13.39 56.102 0.827 7.51 9.24 8.57
10/27/2021 1:45:00 AM 13.37 56.066 0.827 7.52 8.97 8.59
10/27/2021 2:00:00 AM 13.36 56.048 0.826 7.53 8.88 8.61
10/27/2021 2:15:00 AM 13.35 56.03 0.824 7.53 8.12 8.61
10/27/2021 2:30:00 AM 13.34 56.012 0.823 7.54 9.79 8.62
10/27/2021 2:45:00 AM 13.32 55.976 0.82 7.54 8.31 8.61
10/27/2021 3:00:00 AM 13.31 55.958 0.818 7.54 8.38 8.65
10/27/2021 3:15:00 AM 13.3 55.94 0.815 7.55 8.63 8.66
10/27/2021 3:30:00 AM 13.29 55.922 0.813 7.55 9.03 8.67
10/27/2021 3:45:00 AM 13.28 55.904 0.81 7.55 8.66 8.67
10/27/2021 4:00:00 AM 13.27 55.886 0.808 7.56 8.78 8.69
10/27/2021 4:15:00 AM 13.25 55.85 0.804 7.56 8.01 8.68
10/27/2021 4:30:00 AM 13.23 55.814 0.799 7.56 8.26 8.71
10/27/2021 4:45:00 AM 13.22 55.796 0.794 7.56 8.9 8.71
10/27/2021 5:00:00 AM 13.2 55.76 0.789 7.56 7.95 8.73
10/27/2021 5:15:00 AM 13.19 55.742 0.784 7.55 8.68 8.74
10/27/2021 5:30:00 AM 13.18 55.724 0.78 7.56 8.09 8.75
10/27/2021 5:45:00 AM 13.17 55.706 0.776 7.57 9.01 8.77
10/27/2021 6:00:00 AM 13.17 55.706 0.773 7.57 8.31 8.78
10/27/2021 6:15:00 AM 13.17 55.706 0.771 7.57 10.3 8.77
10/27/2021 6:30:00 AM 13.17 55.706 0.769 7.57 8.98 8.78
10/27/2021 6:45:00 AM 13.17 55.706 0.767 7.57 9.03 8.79
10/27/2021 7:00:00 AM 13.18 55.724 0.765 7.57 8.14 8.79
10/27/2021 7:15:00 AM 13.17 55.706 0.764 7.57 7.87 8.8
10/27/2021 7:30:00 AM 13.17 55.706 0.763 7.57 7.29 8.81
10/27/2021 7:45:00 AM 13.16 55.688 0.763 7.58 7.26 8.82
10/27/2021 8:00:00 AM 13.18 55.724 0.764 7.58 6.66 8.86
10/27/2021 8:15:00 AM 13.21 55.778 0.767 7.58 6.66 8.92
10/27/2021 8:30:00 AM 13.23 55.814 0.77 7.58 6.48 8.92
10/27/2021 8:45:00 AM 13.26 55.868 0.773 7.59 6.18 8.96
10/27/2021 9:00:00 AM 13.29 55.922 0.774 7.59 6.04 9.01
10/27/2021 9:15:00 AM 13.34 56.012 0.774 7.6 6.08 9.16
10/27/2021 9:30:00 AM 13.41 56.138 0.774 7.61 5.81 9.29
10/27/2021 9:45:00 AM 13.47 56.246 0.774 7.61 5.62 9.37
10/27/2021 10:00:00 AM 13.56 56.408 0.775 7.62 5.96 9.5
10/27/2021 10:15:00 AM 13.62 56.516 0.777 7.63 5.77 9.57
10/27/2021 10:30:00 AM 13.69 56.642 0.781 7.63 5.73 9.6
10/27/2021 10:45:00 AM 13.82 56.876 0.801 7.68 3.19 9.89
10/27/2021 11:00:00 AM 13.9 57.02 0.806 7.77 3.25 9.94
10/27/2021 11:15:00 AM 13.97 57.146 0.815 7.79 3.12 9.93
10/27/2021 11:30:00 AM 14.05 57.29 0.826 7.8 3.2 9.91
10/27/2021 11:45:00 AM 14.17 57.506 0.838 7.82 3.15 9.96
10/27/2021 12:00:00 PM 14.3 57.74 0.849 7.82 3.22 10
10/27/2021 12:15:00 PM 14.43 57.974 0.859 7.84 3.13 10.05
10/27/2021 12:30:00 PM 14.56 58.208 0.865 7.85 3.08 10.09
10/27/2021 12:45:00 PM 14.7 58.46 0.87 7.86 3.11 10.14
10/27/2021 1:00:00 PM 14.82 58.676 0.874 7.86 3.3 10.16
10/27/2021 1:15:00 PM 14.92 58.856 0.876 7.87 3.17 10.17
10/27/2021 1:30:00 PM 15.02 59.036 0.878 7.88 3.03 10.18
10/27/2021 1:45:00 PM 15.1 59.18 0.879 7.88 3.29 10.19
10/27/2021 2:00:00 PM 15.18 59.324 0.877 7.89 3.05 10.2
10/27/2021 2:15:00 PM 15.26 59.468 0.873 7.9 3.23 10.21
10/27/2021 2:30:00 PM 15.33 59.594 0.869 7.9 3.36 10.22
10/27/2021 2:45:00 PM 15.39 59.702 0.865 7.91 3.44 10.21
10/27/2021 3:00:00 PM 15.45 59.81 0.862 7.91 3.26 10.23
10/27/2021 3:15:00 PM 15.49 59.882 0.859 7.92 3.27 10.2
10/27/2021 3:30:00 PM 15.52 59.936 0.855 7.92 3.29 10.13
10/27/2021 3:45:00 PM 15.54 59.972 0.852 7.91 3.32 10.07
10/27/2021 4:00:00 PM 15.56 60.008 0.851 7.91 3.3 9.98
10/27/2021 4:15:00 PM 15.58 60.044 0.85 7.91 3.09 9.89
10/27/2021 4:30:00 PM 15.61 60.098 0.85 7.9 3.25 9.82
10/27/2021 4:45:00 PM 15.63 60.134 0.849 7.89 3.21 9.73
10/27/2021 5:00:00 PM 15.65 60.17 0.848 7.89 2.99 9.65
10/27/2021 5:15:00 PM 15.66 60.188 0.848 7.88 2.98 9.57
10/27/2021 5:30:00 PM 15.66 60.188 0.847 7.88 3.3 9.48
10/27/2021 5:45:00 PM 15.64 60.152 0.846 7.87 3.11 9.42
10/27/2021 6:00:00 PM 15.63 60.134 0.847 7.87 3.08 9.36
10/27/2021 6:15:00 PM 15.62 60.116 0.85 7.86 3.19 9.3
10/27/2021 6:30:00 PM 15.6 60.08 0.856 7.85 3.3 9.23
10/27/2021 6:45:00 PM 15.59 60.062 0.863 7.84 3.57 9.15
10/27/2021 7:00:00 PM 15.57 60.026 0.871 7.84 3.93 9.09
10/27/2021 7:15:00 PM 15.54 59.972 0.877 7.82 4.12 9.04
10/27/2021 7:30:00 PM 15.51 59.918 0.882 7.81 4.62 8.99
10/27/2021 7:45:00 PM 15.46 59.828 0.885 7.81 4.64 8.94
10/27/2021 8:00:00 PM 15.41 59.738 0.887 7.8 5.05 8.89
10/27/2021 8:15:00 PM 15.35 59.63 0.888 7.79 4.81 8.85
10/27/2021 8:30:00 PM 15.28 59.504 0.887 7.79 5.21 8.81
10/27/2021 8:45:00 PM 15.21 59.378 0.886 7.78 5.45 8.76
10/27/2021 9:00:00 PM 15.13 59.234 0.885 7.78 5.68 8.73
10/27/2021 9:15:00 PM 15.05 59.09 0.883 7.77 5.67 8.7
10/27/2021 9:30:00 PM 14.97 58.946 0.88 7.77 5.45 8.68
10/27/2021 9:45:00 PM 14.89 58.802 0.875 7.76 5.4 8.67
10/27/2021 10:00:00 PM 14.8 58.64 0.869 7.76 5.68 8.67
10/27/2021 10:15:00 PM 14.71 58.478 0.866 7.76 5.47 8.67
10/27/2021 10:30:00 PM 14.63 58.334 0.866 7.76 5.59 8.68
10/27/2021 10:45:00 PM 14.56 58.208 0.868 7.75 5.48 8.68
10/27/2021 11:00:00 PM 14.49 58.082 0.87 7.75 5.25 8.68
10/27/2021 11:15:00 PM 14.43 57.974 0.872 7.75 5.22 8.68
10/27/2021 11:30:00 PM 14.37 57.866 0.874 7.75 5.2 8.69
10/27/2021 11:45:00 PM 14.31 57.758 0.875 7.75 5.11 8.7
10/28/2021 12:00:00 AM 14.25 57.65 0.877 7.75 5.4 8.7
10/28/2021 12:15:00 AM 14.2 57.56 0.879 7.75 5.74 8.71
10/28/2021 12:30:00 AM 14.15 57.47 0.88 7.75 5.77 8.71
10/28/2021 12:45:00 AM 14.1 57.38 0.879 7.75 5.59 8.73
10/28/2021 1:00:00 AM 14.05 57.29 0.877 7.75 6.11 8.74
10/28/2021 1:15:00 AM 14 57.2 0.876 7.75 5.53 8.75
10/28/2021 1:30:00 AM 13.95 57.11 0.874 7.75 5.42 8.76
10/28/2021 1:45:00 AM 13.89 57.002 0.871 7.75 5.46 8.77
10/28/2021 2:00:00 AM 13.84 56.912 0.869 7.75 5.09 8.79
10/28/2021 2:15:00 AM 13.79 56.822 0.866 7.75 5.32 8.8
10/28/2021 2:30:00 AM 13.75 56.75 0.863 7.75 4.52 8.81
10/28/2021 2:45:00 AM 13.7 56.66 0.86 7.75 4.65 8.83
10/28/2021 3:00:00 AM 13.65 56.57 0.857 7.75 4.69 8.84
10/28/2021 3:15:00 AM 13.6 56.48 0.855 7.76 4.58 8.85
10/28/2021 3:30:00 AM 13.55 56.39 0.852 7.76 4.16 8.87
10/28/2021 3:45:00 AM 13.5 56.3 0.848 7.76 4.42 8.88
10/28/2021 4:00:00 AM 13.45 56.21 0.844 7.76 4.56 8.89
10/28/2021 4:15:00 AM 13.4 56.12 0.84 7.76 4.57 8.91
10/28/2021 4:30:00 AM 13.35 56.03 0.835 7.76 4.39 8.93
10/28/2021 4:45:00 AM 13.29 55.922 0.829 7.76 4.32 8.94
10/28/2021 5:00:00 AM 13.23 55.814 0.823 7.77 4.22 8.97
10/28/2021 5:15:00 AM 13.18 55.724 0.818 7.77 4.71 8.99
10/28/2021 5:30:00 AM 13.12 55.616 0.814 7.77 4.97 9.01
10/28/2021 5:45:00 AM 13.07 55.526 0.809 7.77 5.5 9.03
10/28/2021 6:00:00 AM 13.02 55.436 0.805 7.77 5.43 9.05
10/28/2021 6:15:00 AM 12.97 55.346 0.802 7.77 5.24 9.07
10/28/2021 6:30:00 AM 12.92 55.256 0.799 7.77 4.59 9.09
10/28/2021 6:45:00 AM 12.87 55.166 0.796 7.78 4.24 9.11
10/28/2021 7:00:00 AM 12.83 55.094 0.794 7.78 4.01 9.13
10/28/2021 7:15:00 AM 12.78 55.004 0.791 7.78 4.47 9.15
10/28/2021 7:30:00 AM 12.73 54.914 0.789 7.78 3.82 9.17
10/28/2021 7:45:00 AM 12.69 54.842 0.788 7.78 3.82 9.2
10/28/2021 8:00:00 AM 12.65 54.77 0.788 7.78 4.85 9.23
10/28/2021 8:15:00 AM 12.63 54.734 0.788 7.79 3.56 9.27
10/28/2021 8:30:00 AM 12.61 54.698 0.789 7.79 3.47 9.32
10/28/2021 8:45:00 AM 12.6 54.68 0.79 7.8 3.23 9.37
10/28/2021 9:00:00 AM 12.6 54.68 0.791 7.8 3.24 9.41
10/28/2021 9:15:00 AM 12.61 54.698 0.792 7.81 3.27 9.47
10/28/2021 9:30:00 AM 12.62 54.716 0.794 7.81 3.15 9.53
10/28/2021 9:45:00 AM 12.66 54.788 0.795 7.82 3.21 9.62
10/28/2021 10:00:00 AM 12.7 54.86 0.795 7.83 3.3 9.73
10/28/2021 10:15:00 AM 12.74 54.932 0.796 7.83 3.32 9.82
10/28/2021 10:30:00 AM 12.81 55.058 0.798 7.84 3.23 9.9
10/28/2021 10:45:00 AM 12.89 55.202 0.802 7.85 2.96 9.97
10/28/2021 11:00:00 AM 12.98 55.364 0.807 7.85 3.11 10.04
10/28/2021 11:15:00 AM 13.08 55.544 0.815 7.86 3.11 10.09
10/28/2021 11:30:00 AM 13.2 55.76 0.824 7.86 3.04 10.13
10/28/2021 11:45:00 AM 13.34 56.012 0.835 7.87 3.03 10.16
10/28/2021 12:00:00 PM 13.49 56.282 0.847 7.87 3.11 10.19
10/28/2021 12:15:00 PM 13.64 56.552 0.859 7.88 3.13 10.21
10/28/2021 12:30:00 PM 13.79 56.822 0.87 7.88 2.94 10.25
10/28/2021 12:45:00 PM 13.94 57.092 0.878 7.89 2.97 10.29
10/28/2021 1:00:00 PM 14.09 57.362 0.884 7.9 2.95 10.33
10/28/2021 1:15:00 PM 14.23 57.614 0.886 7.9 3.07 10.37
10/28/2021 1:30:00 PM 14.35 57.83 0.886 7.91 3.14 10.39
10/28/2021 1:45:00 PM 14.46 58.028 0.885 7.92 3.24 10.42
10/28/2021 2:00:00 PM 14.56 58.208 0.884 7.92 3.27 10.43
10/28/2021 2:15:00 PM 14.62 58.316 0.883 7.93 3.13 10.4
10/28/2021 2:30:00 PM 14.68 58.424 0.881 7.93 3.26 10.39
10/28/2021 2:45:00 PM 14.73 58.514 0.88 7.93 3.24 10.36
10/28/2021 3:00:00 PM 14.78 58.604 0.878 7.94 2.98 10.38
10/28/2021 3:15:00 PM 14.83 58.694 0.877 7.94 3.16 10.38
10/28/2021 3:30:00 PM 14.88 58.784 0.877 7.94 3.29 10.36
10/28/2021 3:45:00 PM 14.94 58.892 0.878 7.95 3.25 10.34
10/28/2021 4:00:00 PM 14.98 58.964 0.879 7.94 3.22 10.24
10/28/2021 4:15:00 PM 15.02 59.036 0.879 7.94 3.46 10.16
10/28/2021 4:30:00 PM 15.06 59.108 0.879 7.93 3.36 10.09
10/28/2021 4:45:00 PM 15.09 59.162 0.88 7.93 3.16 10.02
10/28/2021 5:00:00 PM 15.11 59.198 0.883 7.92 3.31 9.93
10/28/2021 5:15:00 PM 15.14 59.252 0.889 7.91 3.31 9.85
10/28/2021 5:30:00 PM 15.17 59.306 0.896 7.91 3.09 9.79
10/28/2021 5:45:00 PM 15.2 59.36 0.905 7.9 3.22 9.75
10/28/2021 6:00:00 PM 15.2 59.36 0.914 7.89 3.11 9.63
10/28/2021 6:15:00 PM 15.2 59.36 0.92 7.88 3.4 9.52
10/28/2021 6:30:00 PM 15.18 59.324 0.922 7.87 3.27 9.43
10/28/2021 6:45:00 PM 15.14 59.252 0.921 7.87 3.79 9.34
10/28/2021 7:00:00 PM 15.09 59.162 0.918 7.86 3.98 9.26
10/28/2021 7:15:00 PM 15.04 59.072 0.914 7.85 4.3 9.21
10/28/2021 7:30:00 PM 14.98 58.964 0.91 7.85 4.38 9.17
10/28/2021 7:45:00 PM 14.92 58.856 0.907 7.84 4.66 9.13
10/28/2021 8:00:00 PM 14.86 58.748 0.902 7.84 5.13 9.09
10/28/2021 8:15:00 PM 14.79 58.622 0.897 7.84 4.86 9.06
10/28/2021 8:30:00 PM 14.72 58.496 0.891 7.83 4.45 9.02
10/28/2021 8:45:00 PM 14.65 58.37 0.886 7.82 4.79 8.99
10/28/2021 9:00:00 PM 14.58 58.244 0.883 7.82 5.2 8.96
10/28/2021 9:15:00 PM 14.52 58.136 0.881 7.82 5.29 8.94
10/28/2021 9:30:00 PM 14.47 58.046 0.88 7.81 5.77 8.91
10/28/2021 9:45:00 PM 14.42 57.956 0.881 7.81 5.13 8.88
10/28/2021 10:00:00 PM 14.38 57.884 0.882 7.8 4.93 8.86
10/28/2021 10:15:00 PM 14.34 57.812 0.884 7.8 5.26 8.83
10/28/2021 10:30:00 PM 14.3 57.74 0.886 7.79 5.16 8.81
10/28/2021 10:45:00 PM 14.26 57.668 0.888 7.79 5.06 8.8
10/28/2021 11:00:00 PM 14.23 57.614 0.889 7.78 5.08 8.79
10/28/2021 11:15:00 PM 14.19 57.542 0.888 7.78 5.28 8.78
10/28/2021 11:30:00 PM 14.16 57.488 0.889 7.78 5.03 8.78
10/28/2021 11:45:00 PM 14.14 57.452 0.89 7.78 4.94 8.77
10/29/2021 12:00:00 AM 14.12 57.416 0.893 7.77 4.59 8.77
10/29/2021 12:15:00 AM 14.1 57.38 0.896 7.77 4.68 8.77
10/29/2021 12:30:00 AM 14.09 57.362 0.899 7.77 4.89 8.76
10/29/2021 12:45:00 AM 14.09 57.362 0.902 7.77 4.85 8.76
10/29/2021 1:00:00 AM 14.08 57.344 0.904 7.77 4.58 8.75
10/29/2021 1:15:00 AM 14.09 57.362 0.905 7.77 4.5 8.75
10/29/2021 1:30:00 AM 14.09 57.362 0.905 7.77 4.59 8.74
10/29/2021 1:45:00 AM 14.09 57.362 0.904 7.77 4.45 8.74
10/29/2021 2:00:00 AM 14.09 57.362 0.902 7.77 4.39 8.73
10/29/2021 2:15:00 AM 14.08 57.344 0.899 7.77 4.81 8.74
10/29/2021 2:30:00 AM 14.07 57.326 0.896 7.77 4.53 8.74
10/29/2021 2:45:00 AM 14.06 57.308 0.894 7.77 4.2 8.74
10/29/2021 3:00:00 AM 14.04 57.272 0.892 7.78 4.61 8.74
10/29/2021 3:15:00 AM 14.03 57.254 0.89 7.77 4.47 8.74
10/29/2021 3:30:00 AM 14.02 57.236 0.887 7.78 4.45 8.75
10/29/2021 3:45:00 AM 14 57.2 0.884 7.78 4.26 8.75
10/29/2021 4:00:00 AM 13.97 57.146 0.88 7.78 4.66 8.75
10/29/2021 4:15:00 AM 13.95 57.11 0.875 7.78 4.91 8.76
10/29/2021 4:30:00 AM 13.92 57.056 0.871 7.78 4.52 8.77
10/29/2021 4:45:00 AM 13.9 57.02 0.867 7.78 4.27 8.78
10/29/2021 5:00:00 AM 13.87 56.966 0.862 7.78 5.23 8.79
10/29/2021 5:15:00 AM 13.84 56.912 0.857 7.79 5.4 8.8
10/29/2021 5:30:00 AM 13.8 56.84 0.852 7.79 5.3 8.81
10/29/2021 5:45:00 AM 13.77 56.786 0.847 7.79 5.24 8.82
10/29/2021 6:00:00 AM 13.74 56.732 0.842 7.79 5.25 8.84
10/29/2021 6:15:00 AM 13.71 56.678 0.838 7.8 5.04 8.86
10/29/2021 6:30:00 AM 13.68 56.624 0.833 7.79 5.53 8.87
10/29/2021 6:45:00 AM 13.64 56.552 0.829 7.8 5.57 8.88
10/29/2021 7:00:00 AM 13.61 56.498 0.825 7.8 5.26 8.9
10/29/2021 7:15:00 AM 13.56 56.408 0.82 7.8 4.69 8.92
10/29/2021 7:30:00 AM 13.51 56.318 0.816 7.8 4.89 8.93
10/29/2021 7:45:00 AM 13.47 56.246 0.813 7.81 4.28 8.96
10/29/2021 8:00:00 AM 13.44 56.192 0.811 7.8 4.06 8.98
10/29/2021 8:15:00 AM 13.41 56.138 0.811 7.81 3.74 9.01
10/29/2021 8:30:00 AM 13.38 56.084 0.812 7.81 3.77 9.03
10/29/2021 8:45:00 AM 13.37 56.066 0.815 7.81 3.79 9.09
10/29/2021 9:00:00 AM 13.37 56.066 0.817 7.82 3.46 9.16
10/29/2021 9:15:00 AM 13.36 56.048 0.819 7.82 3.56 9.2
10/29/2021 9:30:00 AM 13.36 56.048 0.82 7.83 3.78 9.3
10/29/2021 9:45:00 AM 13.36 56.048 0.82 7.84 3.45 9.4
10/29/2021 10:00:00 AM 13.35 56.03 0.819 7.84 3.22 9.42
10/29/2021 10:15:00 AM 13.33 55.994 0.819 7.84 3.27 9.42
10/29/2021 10:30:00 AM 13.32 55.976 0.819 7.84 3.13 9.44
10/29/2021 10:45:00 AM 13.33 55.994 0.821 7.85 3.17 9.55
10/29/2021 11:00:00 AM 13.33 55.994 0.824 7.85 3.13 9.59
10/29/2021 11:15:00 AM 13.34 56.012 0.829 7.85 3.04 9.59
10/29/2021 11:30:00 AM 13.38 56.084 0.836 7.86 2.84 9.71
10/29/2021 11:45:00 AM 13.43 56.174 0.847 7.87 3.17 9.77
10/29/2021 12:00:00 PM 13.48 56.264 0.86 7.87 2.98 9.75
10/29/2021 12:15:00 PM 13.53 56.354 0.874 7.87 3.03 9.73
10/29/2021 12:30:00 PM 13.59 56.462 0.887 7.87 3.04 9.71
10/29/2021 12:45:00 PM 13.66 56.588 0.897 7.87 3.02 9.79
10/29/2021 1:00:00 PM 13.73 56.714 0.903 7.88 2.9 9.9
10/29/2021 1:15:00 PM 13.79 56.822 0.906 7.89 3.08 9.92
10/29/2021 1:30:00 PM 13.84 56.912 0.908 7.89 3.1 9.92
10/29/2021 1:45:00 PM 13.88 56.984 0.908 7.89 3.1 9.93
10/29/2021 2:00:00 PM 13.89 57.002 0.907 7.89 3.33 9.88
10/29/2021 2:15:00 PM 13.88 56.984 0.906 7.89 3.37 9.79
10/29/2021 2:30:00 PM 13.88 56.984 0.904 7.89 3.35 9.75
10/29/2021 2:45:00 PM 13.87 56.966 0.901 7.88 3.51 9.71
10/29/2021 3:00:00 PM 13.87 56.966 0.901 7.88 3.47 9.7
10/29/2021 3:15:00 PM 13.89 57.002 0.899 7.89 4.03 9.68
10/29/2021 3:30:00 PM 13.9 57.02 0.901 7.88 3.46 9.64
10/29/2021 3:45:00 PM 13.91 57.038 0.902 7.88 3.37 9.6
10/29/2021 4:00:00 PM 13.91 57.038 0.9 7.88 3.32 9.55
10/29/2021 4:15:00 PM 13.9 57.02 0.898 7.88 3.64 9.51
10/29/2021 4:30:00 PM 13.89 57.002 0.894 7.87 4.5 9.48
10/29/2021 4:45:00 PM 13.89 57.002 0.895 7.87 3.96 9.44
10/29/2021 5:00:00 PM 13.9 57.02 0.895 7.87 3.86 9.42
10/29/2021 5:15:00 PM 13.88 56.984 0.888 7.86 4.48 9.39
10/29/2021 5:30:00 PM 13.86 56.948 0.876 7.86 6.43 9.36
10/29/2021 5:45:00 PM 13.83 56.894 0.856 7.85 7.24 9.31
10/29/2021 6:00:00 PM 13.78 56.804 0.839 7.84 7.77 9.28
10/29/2021 6:15:00 PM 13.72 56.696 0.808 7.83 10.99 9.25
10/29/2021 6:30:00 PM 13.68 56.624 0.792 7.82 13.3 9.21
10/29/2021 6:45:00 PM 13.64 56.552 0.78 7.8 18.54 9.17
10/29/2021 7:00:00 PM 13.61 56.498 0.764 7.77 22.4 9.12
10/29/2021 7:15:00 PM 13.56 56.408 0.744 7.74 32.32 9.14
10/29/2021 7:30:00 PM 13.51 56.318 0.71 7.71 48.8 9.12
10/29/2021 7:45:00 PM 13.48 56.264 0.659 7.66 60.12 9.06
10/29/2021 8:00:00 PM 13.45 56.21 0.608 7.62 60.1 9.05
10/29/2021 8:15:00 PM 13.35 56.03 0.538 7.59 55.04 9.12
10/29/2021 8:30:00 PM 13.22 55.796 0.462 7.57 47.85 9.16
10/29/2021 8:45:00 PM 13.14 55.652 0.402 7.55 40.75 9.21
10/29/2021 9:00:00 PM 13.09 55.562 0.363 7.53 35.49 9.24
10/29/2021 9:15:00 PM 13.05 55.49 0.344 7.52 30.26 9.29
10/29/2021 9:30:00 PM 13.05 55.49 0.343 7.51 28.17 9.29
10/29/2021 9:45:00 PM 13.06 55.508 0.35 7.51 25.22 9.27
10/29/2021 10:00:00 PM 13.06 55.508 0.359 7.5 26.76 9.27
10/29/2021 10:15:00 PM 13.06 55.508 0.37 7.49 32.48 9.26
10/29/2021 10:30:00 PM 13.08 55.544 0.386 7.48 35.16 9.25
10/29/2021 10:45:00 PM 13.07 55.526 0.383 7.48 44.1 9.28
10/29/2021 11:00:00 PM 13.06 55.508 0.379 7.47 50.87 9.29
10/29/2021 11:15:00 PM 13.04 55.472 0.372 7.46 51.02 9.31
10/29/2021 11:30:00 PM 12.97 55.346 0.355 7.45 49.92 9.3
10/29/2021 11:45:00 PM 12.89 55.202 0.336 7.44 45.08 9.32
10/30/2021 12:00:00 AM 12.84 55.112 0.323 7.43 38.5 9.34
10/30/2021 12:15:00 AM 12.82 55.076 0.318 7.43 35.45 9.35
10/30/2021 12:30:00 AM 12.83 55.094 0.321 7.43 31.52 9.34
10/30/2021 12:45:00 AM 12.84 55.112 0.326 7.43 31.47 9.3
10/30/2021 1:00:00 AM 12.85 55.13 0.334 7.43 31.62 9.26
10/30/2021 1:15:00 AM 12.87 55.166 0.344 7.43 31.83 9.22
10/30/2021 1:30:00 AM 12.88 55.184 0.352 7.42 29.37 9.18
10/30/2021 1:45:00 AM 12.91 55.238 0.357 7.42 28.2 9.15
10/30/2021 2:00:00 AM 12.93 55.274 0.361 7.41 26.21 9.12
10/30/2021 2:15:00 AM 12.94 55.292 0.365 7.41 25.23 9.1
10/30/2021 2:30:00 AM 12.96 55.328 0.374 7.41 24.9 9.09
10/30/2021 2:45:00 AM 12.97 55.346 0.384 7.41 245.35 9.07
10/30/2021 3:00:00 AM 12.98 55.364 0.398 7.41 24.51 9.06
10/30/2021 3:15:00 AM 13 55.4 0.411 7.42 20.32 9.05
10/30/2021 3:30:00 AM 13.01 55.418 0.423 7.42 20.25 9.04
10/30/2021 3:45:00 AM 13.03 55.454 0.437 7.43 20.37 9.04
10/30/2021 4:00:00 AM 13.04 55.472 0.451 7.44 18.05 9.03
10/30/2021 4:15:00 AM 13.06 55.508 0.462 7.45 17.21 9.02
10/30/2021 4:30:00 AM 13.07 55.526 0.47 7.45 17.17 9.01
10/30/2021 4:45:00 AM 13.09 55.562 0.478 7.45 16.38 9
10/30/2021 5:00:00 AM 13.1 55.58 0.482 7.46 15.69 8.99
10/30/2021 5:15:00 AM 13.11 55.598 0.485 7.46 15.89 8.99
10/30/2021 5:30:00 AM 13.12 55.616 0.489 7.47 15.73 8.99
10/30/2021 5:45:00 AM 13.13 55.634 0.492 7.47 15.44 8.98
10/30/2021 6:00:00 AM 13.14 55.652 0.497 7.47 15.35 8.99
10/30/2021 6:15:00 AM 13.16 55.688 0.503 7.48 15.36 8.98
10/30/2021 6:30:00 AM 13.18 55.724 0.51 7.48 14.61 8.98
10/30/2021 6:45:00 AM 13.2 55.76 0.516 7.48 14.6 8.97
10/30/2021 7:00:00 AM 13.22 55.796 0.523 7.49 14.42 8.96
10/30/2021 7:15:00 AM 13.24 55.832 0.529 7.49 15.52 8.94
10/30/2021 7:30:00 AM 13.26 55.868 0.534 7.5 15.17 8.93
10/30/2021 7:45:00 AM 13.28 55.904 0.539 7.5 13.57 8.93
10/30/2021 8:00:00 AM 13.29 55.922 0.545 7.48 22.15 8.91
10/30/2021 8:15:00 AM 13.31 55.958 0.532 7.5 12.94 8.91
10/30/2021 8:30:00 AM 13.33 55.994 0.557 7.5 13.23 8.91
10/30/2021 8:45:00 AM 13.35 56.03 0.562 7.51 24.14 8.91
10/30/2021 9:00:00 AM 13.37 56.066 0.561 7.52 11.33 8.93
10/30/2021 9:15:00 AM 13.38 56.084 0.572 7.52 11.22 8.94
10/30/2021 9:30:00 AM 13.4 56.12 0.577 7.53 10.65 8.94
10/30/2021 9:45:00 AM 13.42 56.156 0.583 7.53 10.35 8.94
10/30/2021 10:00:00 AM 13.45 56.21 0.589 7.54 9.98 8.99
10/30/2021 10:15:00 AM 13.51 56.318 0.596 7.55 9.29 9.09
10/30/2021 10:30:00 AM 13.56 56.408 0.606 7.56 9.22 9.07
10/30/2021 10:45:00 AM 13.61 56.498 0.616 7.56 8.67 9.04
10/30/2021 11:00:00 AM 13.67 56.606 0.626 7.57 8.95 9.09
10/30/2021 11:15:00 AM 13.72 56.696 0.635 7.57 8.24 9.1
10/30/2021 11:30:00 AM 13.79 56.822 0.641 7.58 8.11 9.13
10/30/2021 11:45:00 AM 13.89 57.002 0.65 7.59 7.9 9.29
10/30/2021 12:00:00 PM 13.95 57.11 0.658 7.6 7.94 9.25
10/30/2021 12:15:00 PM 14.04 57.272 0.665 7.61 7.49 9.34
10/30/2021 12:30:00 PM 14.12 57.416 0.672 7.62 7.55 9.41
10/30/2021 12:45:00 PM 14.21 57.578 0.679 7.63 7.29 9.45
10/30/2021 1:00:00 PM 14.3 57.74 0.684 7.64 7.23 9.52
10/30/2021 1:15:00 PM 14.4 57.92 0.689 7.65 7.11 9.58
10/30/2021 1:30:00 PM 14.48 58.064 0.693 7.65 7 9.6
10/30/2021 1:45:00 PM 14.55 58.19 0.696 7.66 6.75 9.63
10/30/2021 2:00:00 PM 14.63 58.334 0.697 7.66 6.74 9.67
10/30/2021 2:15:00 PM 14.68 58.424 0.696 7.67 6.51 9.65
10/30/2021 2:30:00 PM 14.73 58.514 0.694 7.68 6.45 9.68
10/30/2021 2:45:00 PM 14.75 58.55 0.698 7.68 6.31 9.64
10/30/2021 3:00:00 PM 14.8 58.64 0.703 7.68 6.07 9.65
10/30/2021 3:15:00 PM 14.84 58.712 0.705 7.68 5.96 9.67
10/30/2021 3:30:00 PM 14.89 58.802 0.708 7.69 5.74 9.7
10/30/2021 3:45:00 PM 14.93 58.874 0.711 7.69 5.74 9.68
10/30/2021 4:00:00 PM 14.96 58.928 0.712 7.69 5.53 9.65
10/30/2021 4:15:00 PM 14.97 58.946 0.713 7.69 5.49 9.59
10/30/2021 4:30:00 PM 14.97 58.946 0.713 7.69 5.45 9.56
10/30/2021 4:45:00 PM 14.97 58.946 0.714 7.69 5.18 9.54
10/30/2021 5:00:00 PM 14.93 58.874 0.716 7.69 5.37 9.45
10/30/2021 5:15:00 PM 14.9 58.82 0.717 7.69 5.18 9.38
10/30/2021 5:30:00 PM 14.87 58.766 0.718 7.69 5.05 9.32
10/30/2021 5:45:00 PM 14.84 58.712 0.719 7.68 4.95 9.27
10/30/2021 6:00:00 PM 14.81 58.658 0.719 7.68 4.9 9.24
10/30/2021 6:15:00 PM 14.77 58.586 0.72 7.68 5.03 9.2
10/30/2021 6:30:00 PM 14.74 58.532 0.721 7.68 4.95 9.17
10/30/2021 6:45:00 PM 14.7 58.46 0.722 7.68 5.47 9.14
10/30/2021 7:00:00 PM 14.66 58.388 0.723 7.68 5.69 9.11
10/30/2021 7:15:00 PM 14.61 58.298 0.722 7.67 6.27 9.08
10/30/2021 7:30:00 PM 14.56 58.208 0.722 7.67 6.07 9.05
10/30/2021 7:45:00 PM 14.5 58.1 0.721 7.67 6.26 9.01
10/30/2021 8:00:00 PM 14.45 58.01 0.721 7.66 6.46 8.97
10/30/2021 8:15:00 PM 14.4 57.92 0.721 7.66 6.09 8.94
10/30/2021 8:30:00 PM 14.36 57.848 0.722 7.66 6.75 8.91
10/30/2021 8:45:00 PM 14.3 57.74 0.721 7.65 6.36 8.88
10/30/2021 9:00:00 PM 14.24 57.632 0.721 7.65 6.58 8.87
10/30/2021 9:15:00 PM 14.18 57.524 0.722 7.65 6.25 8.85
10/30/2021 9:30:00 PM 14.13 57.434 0.722 7.64 6.43 8.84
10/30/2021 9:45:00 PM 14.1 57.38 0.722 7.65 6.07 8.84
10/30/2021 10:00:00 PM 14.07 57.326 0.723 7.64 6.1 8.83
10/30/2021 10:15:00 PM 14.03 57.254 0.724 7.64 6.32 8.83
10/30/2021 10:30:00 PM 13.99 57.182 0.725 7.64 5.97 8.83
10/30/2021 10:45:00 PM 13.94 57.092 0.726 7.64 6.47 8.83
10/30/2021 11:00:00 PM 13.9 57.02 0.727 7.64 6.2 8.84
10/30/2021 11:15:00 PM 13.86 56.948 0.727 7.64 6.17 8.84
10/30/2021 11:30:00 PM 13.82 56.876 0.726 7.64 6.28 8.85
10/30/2021 11:45:00 PM 13.78 56.804 0.725 7.64 6.35 8.85
10/31/2021 12:00:00 AM 13.74 56.732 0.724 7.64 6.09 8.87
10/31/2021 12:15:00 AM 13.7 56.66 0.723 7.64 6.33 8.88
10/31/2021 12:30:00 AM 13.66 56.588 0.721 7.64 6.18 8.89
10/31/2021 12:45:00 AM 13.62 56.516 0.72 7.65 6.11 8.89
10/31/2021 1:00:00 AM 13.58 56.444 0.718 7.64 5.99 8.9
10/31/2021 1:15:00 AM 13.53 56.354 0.716 7.65 5.78 8.92
10/31/2021 1:30:00 AM 13.48 56.264 0.715 7.65 6.31 8.93
10/31/2021 1:45:00 AM 13.44 56.192 0.714 7.65 6 8.94
10/31/2021 2:00:00 AM 13.4 56.12 0.714 7.65 5.86 8.96
10/31/2021 2:15:00 AM 13.36 56.048 0.714 7.65 5.88 8.96
10/31/2021 2:30:00 AM 13.32 55.976 0.713 7.65 5.93 8.98
10/31/2021 2:45:00 AM 13.27 55.886 0.711 7.65 6.27 8.98
10/31/2021 3:00:00 AM 13.23 55.814 0.71 7.66 6.26 9
10/31/2021 3:15:00 AM 13.19 55.742 0.709 7.66 6.09 9.01
10/31/2021 3:30:00 AM 13.15 55.67 0.709 7.66 5.86 9.02
10/31/2021 3:45:00 AM 13.12 55.616 0.709 7.66 6.2 9.03
10/31/2021 4:00:00 AM 13.08 55.544 0.709 7.66 6.19 9.04
10/31/2021 4:15:00 AM 13.04 55.472 0.707 7.66 6.48 9.05
10/31/2021 4:30:00 AM 13 55.4 0.705 7.66 5.85 9.07
10/31/2021 4:45:00 AM 12.96 55.328 0.704 7.66 6.16 9.08
10/31/2021 5:00:00 AM 12.93 55.274 0.702 7.66 6.08 9.09
10/31/2021 5:15:00 AM 12.9 55.22 0.7 7.67 5.96 9.11
10/31/2021 5:30:00 AM 12.87 55.166 0.698 7.67 5.87 9.12
10/31/2021 5:45:00 AM 12.84 55.112 0.696 7.67 5.72 9.14
10/31/2021 6:00:00 AM 12.81 55.058 0.694 7.67 5.87 9.15
10/31/2021 6:15:00 AM 12.78 55.004 0.692 7.67 6.18 9.17
10/31/2021 6:30:00 AM 12.76 54.968 0.691 7.68 5.86 9.18
10/31/2021 6:45:00 AM 12.74 54.932 0.69 7.67 6.08 9.19
10/31/2021 7:00:00 AM 12.71 54.878 0.69 7.68 5.52 9.2
10/31/2021 7:15:00 AM 12.69 54.842 0.69 7.67 5.27 9.21
10/31/2021 7:30:00 AM 12.68 54.824 0.691 7.68 5.04 9.21
10/31/2021 7:45:00 AM 12.68 54.824 0.692 7.68 4.9 9.22
10/31/2021 8:00:00 AM 12.69 54.842 0.693 7.69 4.58 9.24
10/31/2021 8:15:00 AM 12.72 54.896 0.693 7.69 4.29 9.3
10/31/2021 8:30:00 AM 12.74 54.932 0.693 7.69 4.21 9.32
10/31/2021 8:45:00 AM 12.78 55.004 0.693 7.7 4.22 9.42
10/31/2021 9:00:00 AM 12.83 55.094 0.693 7.71 3.87 9.53
10/31/2021 9:15:00 AM 12.86 55.148 0.693 7.71 3.66 9.51
10/31/2021 9:30:00 AM 12.9 55.22 0.692 7.72 3.79 9.58
10/31/2021 9:45:00 AM 12.92 55.256 0.692 7.72 3.56 9.53
10/31/2021 10:00:00 AM 12.96 55.328 0.692 7.72 3.56 9.58
10/31/2021 10:15:00 AM 13.01 55.418 0.692 7.73 3.5 9.66
10/31/2021 10:30:00 AM 13.04 55.472 0.693 7.73 3.45 9.65
10/31/2021 10:45:00 AM 13.08 55.544 0.694 7.73 3.68 9.65
10/31/2021 11:00:00 AM 13.14 55.652 0.698 7.74 3.76 9.69
10/31/2021 11:15:00 AM 13.23 55.814 0.704 7.75 3.59 9.8
10/31/2021 11:30:00 AM 13.32 55.976 0.709 7.76 3.64 9.89
10/31/2021 11:45:00 AM 13.43 56.174 0.712 7.77 3.62 9.97
10/31/2021 12:00:00 PM 13.55 56.39 0.716 7.77 3.78 10.06
10/31/2021 12:15:00 PM 13.67 56.606 0.72 7.78 3.93 10.12
10/31/2021 12:30:00 PM 13.79 56.822 0.724 7.79 3.74 10.12
10/31/2021 12:45:00 PM 13.92 57.056 0.73 7.79 3.87 10.13
10/31/2021 1:00:00 PM 14.02 57.236 0.736 7.79 3.51 10.1
10/31/2021 1:15:00 PM 14.12 57.416 0.74 7.79 3.69 10.08
10/31/2021 1:30:00 PM 14.2 57.56 0.744 7.79 3.5 10.08
10/31/2021 1:45:00 PM 14.3 57.74 0.747 7.79 3.66 10.11
10/31/2021 2:00:00 PM 14.38 57.884 0.75 7.8 3.77 10.09
10/31/2021 2:15:00 PM 14.45 58.01 0.754 7.8 4 10.09
10/31/2021 2:30:00 PM 14.61 58.298 0.758 7.81 3.95 10.22
10/31/2021 2:45:00 PM 14.65 58.37 0.762 7.8 3.9 10.04
10/31/2021 3:00:00 PM 14.71 58.478 0.763 7.8 3.69 9.99
10/31/2021 3:15:00 PM 14.73 58.514 0.761 7.8 3.74 9.98
10/31/2021 3:30:00 PM 14.74 58.532 0.758 7.8 3.89 9.96
10/31/2021 3:45:00 PM 14.74 58.532 0.757 7.8 3.71 9.95
10/31/2021 4:00:00 PM 14.75 58.55 0.756 7.8 3.66 9.89
10/31/2021 4:15:00 PM 14.78 58.604 0.755 7.79 3.66 9.81
10/31/2021 4:30:00 PM 14.78 58.604 0.755 7.78 3.65 9.71
10/31/2021 4:45:00 PM 14.78 58.604 0.755 7.77 3.61 9.64
10/31/2021 5:00:00 PM 14.77 58.586 0.755 7.76 3.65 9.57
10/31/2021 5:15:00 PM 14.76 58.568 0.756 7.76 3.69 9.51
10/31/2021 5:30:00 PM 14.76 58.568 0.758 7.75 3.54 9.45
10/31/2021 5:45:00 PM 14.74 58.532 0.759 7.75 3.56 9.38
10/31/2021 6:00:00 PM 14.7 58.46 0.761 7.75 3.53 9.33
10/31/2021 6:15:00 PM 14.65 58.37 0.759 7.74 3.55 9.29
10/31/2021 6:30:00 PM 14.6 58.28 0.752 7.74 3.62 9.25
10/31/2021 6:45:00 PM 14.55 58.19 0.748 7.74 3.8 9.21
10/31/2021 7:00:00 PM 14.52 58.136 0.746 7.73 4.12 9.18
10/31/2021 7:15:00 PM 14.49 58.082 0.746 7.73 4.71 9.15
10/31/2021 7:30:00 PM 14.44 57.992 0.746 7.73 4.93 9.11
10/31/2021 7:45:00 PM 14.38 57.884 0.746 7.73 4.92 9.09
10/31/2021 8:00:00 PM 14.32 57.776 0.745 7.73 4.71 9.07
10/31/2021 8:15:00 PM 14.26 57.668 0.746 7.72 5.22 9.04
10/31/2021 8:30:00 PM 14.2 57.56 0.747 7.72 4.91 9.02
10/31/2021 8:45:00 PM 14.15 57.47 0.746 7.72 5.05 9.01
10/31/2021 9:00:00 PM 14.1 57.38 0.746 7.71 5.19 8.99
10/31/2021 9:15:00 PM 14.04 57.272 0.746 7.71 5.56 8.99
10/31/2021 9:30:00 PM 13.99 57.182 0.747 7.71 5.42 8.98
10/31/2021 9:45:00 PM 13.94 57.092 0.749 7.71 5.57 8.98
10/31/2021 10:00:00 PM 13.9 57.02 0.75 7.7 5.55 8.97
10/31/2021 10:15:00 PM 13.86 56.948 0.75 7.7 5.79 8.97
10/31/2021 10:30:00 PM 13.81 56.858 0.75 7.7 5.27 8.98
10/31/2021 10:45:00 PM 13.77 56.786 0.751 7.7 5.4 8.98
10/31/2021 11:00:00 PM 13.73 56.714 0.753 7.7 5.57 8.99
10/31/2021 11:15:00 PM 13.69 56.642 0.754 7.7 5.6 9
10/31/2021 11:30:00 PM 13.65 56.57 0.754 7.7 5.41 9.01
10/31/2021 11:45:00 PM 13.61 56.498 0.753 7.7 5.46 9.01
11/1/2021 12:00:00 AM 13.57 56.426 0.753 7.7 5.23 9.02
11/1/2021 12:15:00 AM 13.54 56.372 0.754 7.7 5.34 9.03
11/1/2021 12:30:00 AM 13.52 56.336 0.756 7.7 5.24 9.03
11/1/2021 12:45:00 AM 13.49 56.282 0.756 7.7 5.17 9.04
11/1/2021 1:00:00 AM 13.45 56.21 0.757 7.7 5.12 9.04
11/1/2021 1:15:00 AM 13.41 56.138 0.756 7.7 5.3 9.05
11/1/2021 1:30:00 AM 13.37 56.066 0.756 7.7 5.22 9.06
11/1/2021 1:45:00 AM 13.33 55.994 0.755 7.7 5.25 9.07
11/1/2021 2:00:00 AM 13.29 55.922 0.754 7.7 4.94 9.09
11/1/2021 2:15:00 AM 13.25 55.85 0.751 7.7 5.07 9.09
11/1/2021 2:30:00 AM 13.21 55.778 0.748 7.7 4.93 9.11
11/1/2021 2:45:00 AM 13.17 55.706 0.746 7.7 5.08 9.13
11/1/2021 3:00:00 AM 13.13 55.634 0.744 7.7 5 9.14
11/1/2021 3:15:00 AM 13.09 55.562 0.741 7.7 4.95 9.15
11/1/2021 3:30:00 AM 13.05 55.49 0.739 7.7 4.9 9.16
11/1/2021 3:45:00 AM 13 55.4 0.736 7.71 4.76 9.18
11/1/2021 4:00:00 AM 12.96 55.328 0.733 7.7 4.92 9.19
11/1/2021 4:15:00 AM 12.91 55.238 0.73 7.71 4.89 9.21
11/1/2021 4:30:00 AM 12.86 55.148 0.727 7.71 4.86 9.23
11/1/2021 4:45:00 AM 12.81 55.058 0.725 7.71 4.99 9.24
11/1/2021 5:00:00 AM 12.77 54.986 0.723 7.71 4.96 9.26
11/1/2021 5:15:00 AM 12.73 54.914 0.721 7.71 5.19 9.28
11/1/2021 5:30:00 AM 12.68 54.824 0.719 7.71 5.5 9.29
11/1/2021 5:45:00 AM 12.65 54.77 0.717 7.72 4.96 9.31
11/1/2021 6:00:00 AM 12.61 54.698 0.716 7.72 4.95 9.33
11/1/2021 6:15:00 AM 12.56 54.608 0.714 7.72 5.19 9.34
11/1/2021 6:30:00 AM 12.53 54.554 0.713 7.72 5.28 9.35
11/1/2021 6:45:00 AM 12.5 54.5 0.712 7.72 5.28 9.37
11/1/2021 7:00:00 AM 12.46 54.428 0.712 7.72 5.38 9.38
11/1/2021 7:15:00 AM 12.43 54.374 0.712 7.72 5.54 9.39
11/1/2021 7:30:00 AM 12.41 54.338 0.713 7.72 5.21 9.4
11/1/2021 7:45:00 AM 12.39 54.302 0.715 7.72 4.7 9.42
11/1/2021 8:00:00 AM 12.37 54.266 0.716 7.72 4.35 9.45
11/1/2021 8:15:00 AM 12.35 54.23 0.717 7.72 4.01 9.47
11/1/2021 8:30:00 AM 12.34 54.212 0.718 7.73 4.01 9.51
11/1/2021 8:45:00 AM 12.33 54.194 0.718 7.73 3.76 9.56
11/1/2021 9:00:00 AM 12.32 54.176 0.718 7.73 3.76 9.6
11/1/2021 9:15:00 AM 12.32 54.176 0.717 7.74 3.67 9.66
11/1/2021 9:30:00 AM 12.34 54.212 0.717 7.74 3.59 9.72
11/1/2021 9:45:00 AM 12.36 54.248 0.719 7.75 3.57 9.79
11/1/2021 10:00:00 AM 12.38 54.284 0.72 7.76 3.57 9.87
11/1/2021 10:15:00 AM 12.42 54.356 0.723 7.77 3.52 9.94
11/1/2021 10:30:00 AM 12.5 54.5 0.727 7.77 3.46 10
11/1/2021 10:45:00 AM 12.59 54.662 0.732 7.78 3.48 10.06
11/1/2021 11:00:00 AM 12.67 54.806 0.739 7.79 3.28 10.1
11/1/2021 11:15:00 AM 12.77 54.986 0.747 7.79 3.3 10.13
11/1/2021 11:30:00 AM 12.88 55.184 0.756 7.79 3.28 10.16
11/1/2021 11:45:00 AM 13 55.4 0.763 7.8 3.28 10.2
11/1/2021 12:00:00 PM 13.1 55.58 0.768 7.8 3.37 10.23
11/1/2021 12:15:00 PM 13.2 55.76 0.77 7.81 3.41 10.28
11/1/2021 12:30:00 PM 13.3 55.94 0.77 7.82 3.52 10.32
11/1/2021 12:45:00 PM 13.38 56.084 0.767 7.83 3.34 10.38
11/1/2021 1:00:00 PM 13.46 56.228 0.766 7.84 3.41 10.43
11/1/2021 1:15:00 PM 13.54 56.372 0.767 7.84 3.34 10.47
11/1/2021 1:30:00 PM 13.64 56.552 0.77 7.85 3.5 10.5
11/1/2021 1:45:00 PM 13.73 56.714 0.772 7.85 3.51 10.5
11/1/2021 2:00:00 PM 13.8 56.84 0.774 7.86 3.44 10.5
11/1/2021 2:15:00 PM 13.86 56.948 0.775 7.86 3.61 10.5
11/1/2021 2:30:00 PM 13.9 57.02 0.775 7.86 3.78 10.49
11/1/2021 2:45:00 PM 13.93 57.074 0.774 7.86 3.44 10.46
11/1/2021 3:00:00 PM 13.96 57.128 0.774 7.86 3.35 10.43
11/1/2021 3:15:00 PM 13.96 57.128 0.774 7.87 3.49 10.4
11/1/2021 3:30:00 PM 13.98 57.164 0.775 7.86 3.53 10.35
11/1/2021 3:45:00 PM 13.98 57.164 0.776 7.86 3.44 10.29
11/1/2021 4:00:00 PM 13.98 57.164 0.778 7.85 3.29 10.22
11/1/2021 4:15:00 PM 13.97 57.146 0.779 7.85 3.48 10.16
11/1/2021 4:30:00 PM 13.97 57.146 0.78 7.85 3.46 10.12
11/1/2021 4:45:00 PM 13.97 57.146 0.781 7.83 3.51 10.07
11/1/2021 5:00:00 PM 13.94 57.092 0.783 7.84 3.32 9.99
11/1/2021 5:15:00 PM 13.91 57.038 0.784 7.83 3.39 9.92
11/1/2021 5:30:00 PM 13.89 57.002 0.786 7.83 3.29 9.84
11/1/2021 5:45:00 PM 13.86 56.948 0.787 7.82 3.41 9.78
11/1/2021 6:00:00 PM 13.83 56.894 0.787 7.81 3.19 9.72
11/1/2021 6:15:00 PM 13.78 56.804 0.785 7.81 3.4 9.68
11/1/2021 6:30:00 PM 13.73 56.714 0.783 7.81 3.4 9.65
11/1/2021 6:45:00 PM 13.68 56.624 0.781 7.8 3.58 9.63
11/1/2021 7:00:00 PM 13.62 56.516 0.781 7.8 3.95 9.61
11/1/2021 7:15:00 PM 13.56 56.408 0.781 7.8 4.05 9.59
11/1/2021 7:30:00 PM 13.5 56.3 0.782 7.79 4.06 9.56
11/1/2021 7:45:00 PM 13.45 56.21 0.783 7.79 4.28 9.53
11/1/2021 8:00:00 PM 13.38 56.084 0.784 7.78 4.61 9.5
11/1/2021 8:15:00 PM 13.31 55.958 0.784 7.78 4.66 9.47
11/1/2021 8:30:00 PM 13.25 55.85 0.785 7.78 4.45 9.44
11/1/2021 8:45:00 PM 13.18 55.724 0.787 7.77 4.31 9.41
11/1/2021 9:00:00 PM 13.12 55.616 0.789 7.76 4.54 9.39
11/1/2021 9:15:00 PM 13.06 55.508 0.791 7.76 4.72 9.37
11/1/2021 9:30:00 PM 13.01 55.418 0.793 7.75 4.62 9.35
11/1/2021 9:45:00 PM 12.96 55.328 0.795 7.75 4.74 9.34
11/1/2021 10:00:00 PM 12.92 55.256 0.797 7.74 4.55 9.33
11/1/2021 10:15:00 PM 12.87 55.166 0.798 7.74 4.44 9.33
11/1/2021 10:30:00 PM 12.83 55.094 0.8 7.73 4.71 9.33
11/1/2021 10:45:00 PM 12.8 55.04 0.802 7.72 4.49 9.33
11/1/2021 11:00:00 PM 12.76 54.968 0.804 7.73 4.46 9.34
11/1/2021 11:15:00 PM 12.73 54.914 0.807 7.73 4.46 9.34
11/1/2021 11:30:00 PM 12.7 54.86 0.809 7.73 4.26 9.34
11/1/2021 11:45:00 PM 12.67 54.806 0.812 7.73 4.36 9.34
11/2/2021 12:00:00 AM 12.64 54.752 0.815 7.73 4.47 9.34
11/2/2021 12:15:00 AM 12.61 54.698 0.818 7.73 4.46 9.34
11/2/2021 12:30:00 AM 12.58 54.644 0.819 7.73 4.34 9.34
11/2/2021 12:45:00 AM 12.55 54.59 0.819 7.73 4.22 9.35
11/2/2021 1:00:00 AM 12.51 54.518 0.818 7.73 4.34 9.36
11/2/2021 1:15:00 AM 12.47 54.446 0.817 7.73 4.39 9.37
11/2/2021 1:30:00 AM 12.44 54.392 0.814 7.73 4.22 9.37
11/2/2021 1:45:00 AM 12.41 54.338 0.812 7.73 4.41 9.38
11/2/2021 2:00:00 AM 12.38 54.284 0.811 7.73 4.74 9.39
11/2/2021 2:15:00 AM 12.35 54.23 0.809 7.74 4.33 9.4
11/2/2021 2:30:00 AM 12.32 54.176 0.806 7.74 4.37 9.41
11/2/2021 2:45:00 AM 12.29 54.122 0.803 7.73 4.24 9.42
11/2/2021 3:00:00 AM 12.26 54.068 0.8 7.74 4.16 9.43
11/2/2021 3:15:00 AM 12.23 54.014 0.797 7.73 4.27 9.45
11/2/2021 3:30:00 AM 12.2 53.96 0.793 7.74 4.35 9.46
11/2/2021 3:45:00 AM 12.17 53.906 0.79 7.74 4.48 9.47
11/2/2021 4:00:00 AM 12.14 53.852 0.786 7.74 4.47 9.49
11/2/2021 4:15:00 AM 12.12 53.816 0.782 7.74 4.39 9.5
11/2/2021 4:30:00 AM 12.09 53.762 0.778 7.74 4.41 9.51
11/2/2021 4:45:00 AM 12.06 53.708 0.774 7.75 4.49 9.52
11/2/2021 5:00:00 AM 12.04 53.672 0.771 7.74 4.4 9.53
11/2/2021 5:15:00 AM 12.03 53.654 0.768 7.75 4.48 9.54
11/2/2021 5:30:00 AM 12.01 53.618 0.765 7.75 4.08 9.55
11/2/2021 5:45:00 AM 12 53.6 0.762 7.75 4.18 9.56
11/2/2021 6:00:00 AM 11.99 53.582 0.76 7.75 4.41 9.57
11/2/2021 6:15:00 AM 11.98 53.564 0.759 7.75 4.06 9.57
11/2/2021 6:30:00 AM 11.98 53.564 0.758 7.75 4.16 9.58
11/2/2021 6:45:00 AM 11.98 53.564 0.756 7.75 4.1 9.58
11/2/2021 7:00:00 AM 11.97 53.546 0.755 7.75 4.13 9.59
11/2/2021 7:15:00 AM 11.97 53.546 0.754 7.75 4.02 9.6
11/2/2021 7:30:00 AM 11.97 53.546 0.755 7.75 3.93 9.6
11/2/2021 7:45:00 AM 11.98 53.564 0.756 7.75 3.9 9.6
11/2/2021 8:00:00 AM 12 53.6 0.757 7.75 3.73 9.61
11/2/2021 8:15:00 AM 12.02 53.636 0.759 7.76 3.56 9.65
11/2/2021 8:30:00 AM 12.05 53.69 0.76 7.76 3.6 9.71
11/2/2021 8:45:00 AM 12.08 53.744 0.761 7.77 3.56 9.77
11/2/2021 9:00:00 AM 12.11 53.798 0.761 7.77 3.44 9.79
11/2/2021 9:15:00 AM 12.13 53.834 0.76 7.77 3.61 9.8
11/2/2021 9:30:00 AM 12.15 53.87 0.759 7.77 3.32 9.82
11/2/2021 9:45:00 AM 12.17 53.906 0.759 7.78 3.4 9.87
11/2/2021 10:00:00 AM 12.2 53.96 0.76 7.78 3.14 9.92
11/2/2021 10:15:00 AM 12.25 54.05 0.763 7.79 3.12 9.98
11/2/2021 10:30:00 AM 12.3 54.14 0.766 7.79 3.13 10.03
11/2/2021 10:45:00 AM 12.35 54.23 0.77 7.79 3.27 10.05
11/2/2021 11:00:00 AM 12.4 54.32 0.778 7.79 3.11 10.05
11/2/2021 11:15:00 AM 12.47 54.446 0.787 7.8 3.08 10.08
11/2/2021 11:30:00 AM 12.55 54.59 0.797 7.8 3.26 10.11
11/2/2021 11:45:00 AM 12.63 54.734 0.805 7.81 3.1 10.17
11/2/2021 12:00:00 PM 12.7 54.86 0.811 7.81 3.11 10.18
11/2/2021 12:15:00 PM 12.76 54.968 0.812 7.81 3.07 10.2
11/2/2021 12:30:00 PM 12.8 55.04 0.812 7.82 3.11 10.23
11/2/2021 12:45:00 PM 12.85 55.13 0.812 7.83 3.2 10.28
11/2/2021 1:00:00 PM 12.88 55.184 0.811 7.83 3.07 10.31
11/2/2021 1:15:00 PM 12.91 55.238 0.809 7.83 3.26 10.34
11/2/2021 1:30:00 PM 12.94 55.292 0.808 7.84 3.31 10.38
11/2/2021 1:45:00 PM 12.97 55.346 0.806 7.85 3.26 10.43
11/2/2021 2:00:00 PM 12.99 55.382 0.804 7.85 3.36 10.44
11/2/2021 2:15:00 PM 13.01 55.418 0.801 7.86 3.31 10.45
11/2/2021 2:30:00 PM 13.02 55.436 0.801 7.86 3.18 10.45
11/2/2021 2:45:00 PM 13.03 55.454 0.803 7.86 3.17 10.41
11/2/2021 3:00:00 PM 13.06 55.508 0.807 7.86 3.29 10.38
11/2/2021 3:15:00 PM 13.09 55.562 0.813 7.85 3.29 10.35
11/2/2021 3:30:00 PM 13.11 55.598 0.818 7.85 3.39 10.31
11/2/2021 3:45:00 PM 13.14 55.652 0.821 7.85 3.44 10.28
11/2/2021 4:00:00 PM 13.14 55.652 0.823 7.85 3.19 10.25
11/2/2021 4:15:00 PM 13.15 55.67 0.824 7.84 3.34 10.19
11/2/2021 4:30:00 PM 13.15 55.67 0.825 7.84 3.57 10.16
11/2/2021 4:45:00 PM 13.15 55.67 0.826 7.84 3.37 10.12
11/2/2021 5:00:00 PM 13.14 55.652 0.827 7.84 3.37 10.09
11/2/2021 5:15:00 PM 13.13 55.634 0.829 7.83 3.14 10.04
11/2/2021 5:30:00 PM 13.12 55.616 0.83 7.83 3.29 9.99
11/2/2021 5:45:00 PM 13.09 55.562 0.831 7.82 3.45 9.93
11/2/2021 6:00:00 PM 13.06 55.508 0.83 7.82 3.19 9.88
11/2/2021 6:15:00 PM 13.02 55.436 0.827 7.82 3.37 9.83
11/2/2021 6:30:00 PM 12.97 55.346 0.823 7.81 3.4 9.79
11/2/2021 6:45:00 PM 12.91 55.238 0.82 7.81 3.61 9.75
11/2/2021 7:00:00 PM 12.86 55.148 0.819 7.81 3.77 9.72
11/2/2021 7:15:00 PM 12.8 55.04 0.82 7.8 3.82 9.69
11/2/2021 7:30:00 PM 12.75 54.95 0.82 7.8 3.88 9.67
11/2/2021 7:45:00 PM 12.7 54.86 0.822 7.79 3.89 9.64
11/2/2021 8:00:00 PM 12.65 54.77 0.823 7.79 4.16 9.62
11/2/2021 8:15:00 PM 12.61 54.698 0.824 7.78 4.26 9.59
11/2/2021 8:30:00 PM 12.56 54.608 0.824 7.78 4.22 9.58
11/2/2021 8:45:00 PM 12.51 54.518 0.825 7.78 4.32 9.56
11/2/2021 9:00:00 PM 12.46 54.428 0.826 7.77 4.21 9.55
11/2/2021 9:15:00 PM 12.42 54.356 0.829 7.77 4.13 9.53
11/2/2021 9:30:00 PM 12.38 54.284 0.832 7.77 4.08 9.52
11/2/2021 9:45:00 PM 12.33 54.194 0.834 7.77 4.23 9.51
11/2/2021 10:00:00 PM 12.29 54.122 0.836 7.77 4.33 9.5
11/2/2021 10:15:00 PM 12.25 54.05 0.84 7.76 4.43 9.49
11/2/2021 10:30:00 PM 12.22 53.996 0.844 7.76 4.48 9.49
11/2/2021 10:45:00 PM 12.19 53.942 0.847 7.76 4.49 9.49
11/2/2021 11:00:00 PM 12.15 53.87 0.85 7.75 4.27 9.49
11/2/2021 11:15:00 PM 12.12 53.816 0.851 7.75 4.41 9.49
11/2/2021 11:30:00 PM 12.08 53.744 0.851 7.74 4.37 9.5
11/2/2021 11:45:00 PM 12.05 53.69 0.852 7.75 4.62 9.5
11/3/2021 12:00:00 AM 12.02 53.636 0.854 7.75 4.82 9.51
11/3/2021 12:15:00 AM 11.99 53.582 0.856 7.75 4.42 9.51
11/3/2021 12:30:00 AM 11.95 53.51 0.857 7.75 4.39 9.51
11/3/2021 12:45:00 AM 11.91 53.438 0.858 7.75 4.07 9.52
11/3/2021 1:00:00 AM 11.87 53.366 0.858 7.75 4.23 9.53
11/3/2021 1:15:00 AM 11.83 53.294 0.857 7.75 4.47 9.53
11/3/2021 1:30:00 AM 11.79 53.222 0.855 7.75 4.26 9.54
11/3/2021 1:45:00 AM 11.74 53.132 0.853 7.75 4.12 9.55
11/3/2021 2:00:00 AM 11.69 53.042 0.851 7.75 4.17 9.57
11/3/2021 2:15:00 AM 11.64 52.952 0.849 7.75 4.27 9.58
11/3/2021 2:30:00 AM 11.59 52.862 0.848 7.75 4.26 9.6
11/3/2021 2:45:00 AM 11.55 52.79 0.845 7.75 4.25 9.61
11/3/2021 3:00:00 AM 11.5 52.7 0.842 7.76 4.29 9.62
11/3/2021 3:15:00 AM 11.46 52.628 0.838 7.75 4.38 9.64
11/3/2021 3:30:00 AM 11.41 52.538 0.833 7.76 4.54 9.65
11/3/2021 3:45:00 AM 11.35 52.43 0.828 7.76 4.29 9.67
11/3/2021 4:00:00 AM 11.29 52.322 0.822 7.76 4.45 9.69
11/3/2021 4:15:00 AM 11.23 52.214 0.816 7.76 4.49 9.71
11/3/2021 4:30:00 AM 11.17 52.106 0.811 7.76 4.34 9.73
11/3/2021 4:45:00 AM 11.12 52.016 0.807 7.76 4.15 9.74
11/3/2021 5:00:00 AM 11.07 51.926 0.804 7.76 4.42 9.76
11/3/2021 5:15:00 AM 11.02 51.836 0.8 7.76 4.44 9.78
11/3/2021 5:30:00 AM 10.97 51.746 0.797 7.77 4.19 9.8
11/3/2021 5:45:00 AM 10.93 51.674 0.794 7.77 4.07 9.81
11/3/2021 6:00:00 AM 10.88 51.584 0.79 7.77 4.1 9.83
11/3/2021 6:15:00 AM 10.84 51.512 0.788 7.77 4.17 9.85
11/3/2021 6:30:00 AM 10.8 51.44 0.785 7.77 3.93 9.87
11/3/2021 6:45:00 AM 10.76 51.368 0.784 7.77 4.17 9.88
11/3/2021 7:00:00 AM 10.73 51.314 0.783 7.78 4.37 9.89
11/3/2021 7:15:00 AM 10.71 51.278 0.784 7.77 4.25 9.9
11/3/2021 7:30:00 AM 10.69 51.242 0.786 7.77 4.07 9.9
11/3/2021 7:45:00 AM 10.67 51.206 0.789 7.77 4.18 9.91
11/3/2021 8:00:00 AM 10.65 51.17 0.791 7.78 3.96 9.94
11/3/2021 8:15:00 AM 10.64 51.152 0.793 7.78 3.85 9.97
11/3/2021 8:30:00 AM 10.64 51.152 0.793 7.78 3.55 10.01
11/3/2021 8:45:00 AM 10.64 51.152 0.794 7.78 3.47 10.05
11/3/2021 9:00:00 AM 10.64 51.152 0.794 7.79 3.49 10.1
11/3/2021 9:15:00 AM 10.66 51.188 0.793 7.79 3.58 10.15
11/3/2021 9:30:00 AM 10.68 51.224 0.791 7.8 3.54 10.21
11/3/2021 9:45:00 AM 10.7 51.26 0.787 7.8 3.51 10.29
11/3/2021 10:00:00 AM 10.74 51.332 0.786 7.81 3.44 10.37
11/3/2021 10:15:00 AM 10.79 51.422 0.786 7.82 3.36 10.45
11/3/2021 10:30:00 AM 10.86 51.548 0.79 7.83 3.43 10.52
11/3/2021 10:45:00 AM 10.96 51.728 0.796 7.83 3.45 10.57
11/3/2021 11:00:00 AM 11.07 51.926 0.803 7.84 3.4 10.61
11/3/2021 11:15:00 AM 11.19 52.142 0.811 7.84 3.45 10.64
11/3/2021 11:30:00 AM 11.33 52.394 0.821 7.84 3.31 10.66
11/3/2021 11:45:00 AM 11.47 52.646 0.832 7.85 3.4 10.68
11/3/2021 12:00:00 PM 11.62 52.916 0.841 7.85 3.25 10.7
11/3/2021 12:15:00 PM 11.76 53.168 0.848 7.85 3.33 10.73
11/3/2021 12:30:00 PM 11.89 53.402 0.852 7.86 3.34 10.76
11/3/2021 12:45:00 PM 12.02 53.636 0.854 7.86 3.4 10.79
11/3/2021 1:00:00 PM 12.14 53.852 0.857 7.87 3.48 10.82
11/3/2021 1:15:00 PM 12.25 54.05 0.859 7.88 3.37 10.84
11/3/2021 1:30:00 PM 12.32 54.176 0.861 7.88 3.61 10.79
11/3/2021 1:45:00 PM 12.44 54.392 0.86 7.89 3.51 10.88
11/3/2021 2:00:00 PM 12.48 54.464 0.86 7.89 3.57 10.81
11/3/2021 2:15:00 PM 12.49 54.482 0.858 7.89 3.41 10.73
11/3/2021 2:30:00 PM 12.61 54.698 0.858 7.9 3.7 10.87
11/3/2021 2:45:00 PM 12.63 54.734 0.86 7.9 3.57 10.82
11/3/2021 3:00:00 PM 12.63 54.734 0.863 7.9 3.6 10.7
11/3/2021 3:15:00 PM 12.7 54.86 0.867 7.9 3.62 10.69
11/3/2021 3:30:00 PM 12.71 54.878 0.871 7.89 3.57 10.6
11/3/2021 3:45:00 PM 12.73 54.914 0.876 7.89 3.36 10.55
11/3/2021 4:00:00 PM 12.78 55.004 0.883 7.89 3.3 10.55
11/3/2021 4:15:00 PM 12.86 55.148 0.894 7.89 3.28 10.57
11/3/2021 4:30:00 PM 12.89 55.202 0.901 7.89 3.53 10.48
11/3/2021 4:45:00 PM 12.92 55.256 0.907 7.88 3.44 10.38
11/3/2021 5:00:00 PM 12.91 55.238 0.911 7.87 3.27 10.28
11/3/2021 5:15:00 PM 12.89 55.202 0.914 7.87 3.31 10.18
11/3/2021 5:30:00 PM 12.86 55.148 0.917 7.86 3.53 10.09
11/3/2021 5:45:00 PM 12.82 55.076 0.917 7.85 3.33 10.03
11/3/2021 6:00:00 PM 12.79 55.022 0.915 7.85 3.52 9.97
11/3/2021 6:15:00 PM 12.75 54.95 0.913 7.84 3.82 9.92
11/3/2021 6:30:00 PM 12.71 54.878 0.911 7.83 3.63 9.89
11/3/2021 6:45:00 PM 12.67 54.806 0.91 7.83 3.63 9.85
11/3/2021 7:00:00 PM 12.62 54.716 0.907 7.83 3.84 9.82
11/3/2021 7:15:00 PM 12.57 54.626 0.901 7.82 3.81 9.81
11/3/2021 7:30:00 PM 12.5 54.5 0.895 7.82 3.84 9.79
11/3/2021 7:45:00 PM 12.43 54.374 0.888 7.82 4.04 9.77
11/3/2021 8:00:00 PM 12.36 54.248 0.884 7.81 4.26 9.74
11/3/2021 8:15:00 PM 12.3 54.14 0.88 7.81 4.25 9.72
11/3/2021 8:30:00 PM 12.23 54.014 0.879 7.81 4.11 9.69
11/3/2021 8:45:00 PM 12.17 53.906 0.879 7.8 4.16 9.66
11/3/2021 9:00:00 PM 12.11 53.798 0.877 7.79 4.05 9.64
11/3/2021 9:15:00 PM 12.05 53.69 0.875 7.79 4.04 9.62
11/3/2021 9:30:00 PM 11.99 53.582 0.872 7.79 3.93 9.61
11/3/2021 9:45:00 PM 11.93 53.474 0.872 7.78 3.96 9.59
11/3/2021 10:00:00 PM 11.89 53.402 0.873 7.78 4.01 9.58
11/3/2021 10:15:00 PM 11.85 53.33 0.876 7.77 3.94 9.57
11/3/2021 10:30:00 PM 11.82 53.276 0.878 7.77 3.89 9.56
11/3/2021 10:45:00 PM 11.79 53.222 0.881 7.77 3.89 9.55
11/3/2021 11:00:00 PM 11.76 53.168 0.884 7.76 3.85 9.54
11/3/2021 11:15:00 PM 11.75 53.15 0.886 7.76 3.83 9.55
11/3/2021 11:30:00 PM 11.73 53.114 0.887 7.76 3.81 9.55
11/3/2021 11:45:00 PM 11.71 53.078 0.888 7.76 3.75 9.54
11/4/2021 12:00:00 AM 11.69 53.042 0.889 7.76 3.91 9.55
11/4/2021 12:15:00 AM 11.66 52.988 0.891 7.76 4.09 9.54
11/4/2021 12:30:00 AM 11.63 52.934 0.889 7.75 3.83 9.55
11/4/2021 12:45:00 AM 11.6 52.88 0.889 7.75 3.86 9.55
11/4/2021 1:00:00 AM 11.58 52.844 0.889 7.75 4.06 9.55
11/4/2021 1:15:00 AM 11.55 52.79 0.888 7.75 4.11 9.56
11/4/2021 1:30:00 AM 11.51 52.718 0.885 7.75 3.63 9.57
11/4/2021 1:45:00 AM 11.47 52.646 0.881 7.75 3.37 9.58
11/4/2021 2:00:00 AM 11.43 52.574 0.877 7.76 3.43 9.59
11/4/2021 2:15:00 AM 11.38 52.484 0.872 7.75 3.68 9.6
11/4/2021 2:30:00 AM 11.34 52.412 0.868 7.76 3.7 9.62
11/4/2021 2:45:00 AM 11.29 52.322 0.863 7.76 3.51 9.63
11/4/2021 3:00:00 AM 11.24 52.232 0.858 7.76 3.44 9.65
11/4/2021 3:15:00 AM 11.19 52.142 0.852 7.76 3.53 9.66
11/4/2021 3:30:00 AM 11.13 52.034 0.846 7.76 3.58 9.68
11/4/2021 3:45:00 AM 11.08 51.944 0.841 7.75 4.29 9.7
11/4/2021 4:00:00 AM 11.02 51.836 0.836 7.76 3.61 9.72
11/4/2021 4:15:00 AM 10.97 51.746 0.831 7.76 3.66 9.74
11/4/2021 4:30:00 AM 10.91 51.638 0.827 7.76 3.6 9.76
11/4/2021 4:45:00 AM 10.86 51.548 0.822 7.77 4.23 9.78
11/4/2021 5:00:00 AM 10.8 51.44 0.816 7.76 4.7 9.8
11/4/2021 5:15:00 AM 10.74 51.332 0.809 7.77 5.22 9.82
11/4/2021 5:30:00 AM 10.68 51.224 0.804 7.77 5.39 9.85
11/4/2021 5:45:00 AM 10.63 51.134 0.798 7.77 5.33 9.87
11/4/2021 6:00:00 AM 10.57 51.026 0.792 7.77 5.06 9.9
11/4/2021 6:15:00 AM 10.52 50.936 0.788 7.77 4.81 9.91
11/4/2021 6:30:00 AM 10.47 50.846 0.785 7.77 5.1 9.93
11/4/2021 6:45:00 AM 10.43 50.774 0.782 7.77 4.49 9.95
11/4/2021 7:00:00 AM 10.39 50.702 0.78 7.78 4.42 9.97
11/4/2021 7:15:00 AM 10.35 50.63 0.778 7.78 4.44 9.98
11/4/2021 7:30:00 AM 10.31 50.558 0.777 7.78 3.94 10
11/4/2021 7:45:00 AM 10.28 50.504 0.776 7.78 3.8 10.02
11/4/2021 8:00:00 AM 10.26 50.468 0.777 7.78 3.6 10.04
11/4/2021 8:15:00 AM 10.24 50.432 0.779 7.78 3.53 10.06
11/4/2021 8:30:00 AM 10.23 50.414 0.78 7.78 3.57 10.09
11/4/2021 8:45:00 AM 10.22 50.396 0.782 7.79 3.24 10.13
11/4/2021 9:00:00 AM 10.23 50.414 0.783 7.79 3.2 10.17
11/4/2021 9:15:00 AM 10.24 50.432 0.785 7.8 3.17 10.21
11/4/2021 9:30:00 AM 10.26 50.468 0.786 7.8 3.21 10.26
11/4/2021 9:45:00 AM 10.29 50.522 0.786 7.8 3.14 10.32
11/4/2021 10:00:00 AM 10.34 50.612 0.787 7.81 3.01 10.4
11/4/2021 10:15:00 AM 10.4 50.72 0.788 7.82 3 10.47
11/4/2021 10:30:00 AM 10.47 50.846 0.79 7.82 2.99 10.53
11/4/2021 10:45:00 AM 10.56 51.008 0.794 7.83 2.99 10.61
11/4/2021 11:00:00 AM 10.66 51.188 0.799 7.84 2.89 10.67
11/4/2021 11:15:00 AM 10.78 51.404 0.808 7.84 3.07 10.71
11/4/2021 11:30:00 AM 10.93 51.674 0.818 7.84 2.98 10.73
11/4/2021 11:45:00 AM 11.08 51.944 0.828 7.84 2.84 10.76
11/4/2021 12:00:00 PM 11.25 52.25 0.838 7.85 2.9 10.8
11/4/2021 12:15:00 PM 11.4 52.52 0.846 7.85 2.77 10.83
11/4/2021 12:30:00 PM 11.54 52.772 0.851 7.86 2.8 10.87
11/4/2021 12:45:00 PM 11.67 53.006 0.853 7.87 2.81 10.92
11/4/2021 1:00:00 PM 11.78 53.204 0.852 7.87 2.81 10.95
11/4/2021 1:15:00 PM 11.89 53.402 0.852 7.88 2.85 11.01
11/4/2021 1:30:00 PM 12 53.6 0.852 7.89 2.95 11.04
11/4/2021 1:45:00 PM 12.12 53.816 0.852 7.89 3.03 11.06
11/4/2021 2:00:00 PM 12.25 54.05 0.852 7.9 3.04 11.09
11/4/2021 2:15:00 PM 12.35 54.23 0.849 7.9 3.05 11.1
11/4/2021 2:30:00 PM 12.43 54.374 0.847 7.91 2.99 11.09
11/4/2021 2:45:00 PM 12.51 54.518 0.846 7.92 2.83 11.09
11/4/2021 3:00:00 PM 12.57 54.626 0.847 7.92 2.99 11.07
11/4/2021 3:15:00 PM 12.62 54.716 0.849 7.92 2.84 11.01
11/4/2021 3:30:00 PM 12.69 54.842 0.853 7.91 3.02 10.97
11/4/2021 3:45:00 PM 12.75 54.95 0.858 7.91 3.1 10.91
11/4/2021 4:00:00 PM 12.77 54.986 0.862 7.9 2.81 10.75
11/4/2021 4:15:00 PM 12.84 55.112 0.865 7.9 2.82 10.68
11/4/2021 4:30:00 PM 12.9 55.22 0.867 7.9 2.93 10.65
11/4/2021 4:45:00 PM 12.93 55.274 0.867 7.9 3 10.58
11/4/2021 5:00:00 PM 12.95 55.31 0.867 7.89 2.88 10.52
11/4/2021 5:15:00 PM 12.97 55.346 0.867 7.89 2.69 10.44
11/4/2021 5:30:00 PM 12.97 55.346 0.868 7.88 2.81 10.36
11/4/2021 5:45:00 PM 12.97 55.346 0.871 7.87 2.75 10.27
11/4/2021 6:00:00 PM 12.96 55.328 0.872 7.87 2.91 10.17
11/4/2021 6:15:00 PM 12.93 55.274 0.87 7.86 2.91 10.09
11/4/2021 6:30:00 PM 12.89 55.202 0.867 7.86 2.99 10.03
11/4/2021 6:45:00 PM 12.83 55.094 0.861 7.85 3.28 9.99
11/4/2021 7:00:00 PM 12.76 54.968 0.856 7.85 3.26 9.96
11/4/2021 7:15:00 PM 12.7 54.86 0.851 7.84 3.5 9.93
11/4/2021 7:30:00 PM 12.62 54.716 0.847 7.84 3.57 9.9
11/4/2021 7:45:00 PM 12.55 54.59 0.844 7.84 3.63 9.86
11/4/2021 8:00:00 PM 12.48 54.464 0.841 7.83 3.65 9.83
11/4/2021 8:15:00 PM 12.4 54.32 0.84 7.83 3.68 9.79
11/4/2021 8:30:00 PM 12.33 54.194 0.839 7.82 3.44 9.74
11/4/2021 8:45:00 PM 12.25 54.05 0.84 7.81 3.63 9.71
11/4/2021 9:00:00 PM 12.18 53.924 0.842 7.81 3.74 9.67
11/4/2021 9:15:00 PM 12.12 53.816 0.845 7.8 3.71 9.63
11/4/2021 9:30:00 PM 12.05 53.69 0.849 7.8 3.53 9.61
11/4/2021 9:45:00 PM 11.99 53.582 0.851 7.79 3.88 9.58
11/4/2021 10:00:00 PM 11.92 53.456 0.852 7.79 3.65 9.56
11/4/2021 10:15:00 PM 11.86 53.348 0.854 7.78 3.95 9.55
11/4/2021 10:30:00 PM 11.8 53.24 0.855 7.78 3.85 9.55
11/4/2021 10:45:00 PM 11.75 53.15 0.859 7.78 3.82 9.54
11/4/2021 11:00:00 PM 11.7 53.06 0.863 7.77 4.28 9.54
11/4/2021 11:15:00 PM 11.65 52.97 0.866 7.77 4.32 9.54
11/4/2021 11:30:00 PM 11.6 52.88 0.869 7.77 3.91 9.55
11/4/2021 11:45:00 PM 11.56 52.808 0.872 7.77 4.41 9.55
11/5/2021 12:00:00 AM 11.52 52.736 0.874 7.77 4.26 9.55
11/5/2021 12:15:00 AM 11.48 52.664 0.877 7.77 3.89 9.56
11/5/2021 12:30:00 AM 11.44 52.592 0.878 7.77 3.86 9.56
11/5/2021 12:45:00 AM 11.4 52.52 0.877 7.76 4.57 9.57
11/5/2021 1:00:00 AM 11.35 52.43 0.876 7.76 4.48 9.58
11/5/2021 1:15:00 AM 11.31 52.358 0.875 7.76 4.23 9.59
11/5/2021 1:30:00 AM 11.26 52.268 0.874 7.76 4.17 9.6
11/5/2021 1:45:00 AM 11.22 52.196 0.872 7.76 4.8 9.61
11/5/2021 2:00:00 AM 11.17 52.106 0.87 7.76 4.31 9.62
11/5/2021 2:15:00 AM 11.12 52.016 0.868 7.76 4.35 9.63
11/5/2021 2:30:00 AM 11.07 51.926 0.864 7.77 4.13 9.65
11/5/2021 2:45:00 AM 11.01 51.818 0.861 7.76 4.1 9.67
11/5/2021 3:00:00 AM 10.96 51.728 0.858 7.76 4.25 9.69
11/5/2021 3:15:00 AM 10.9 51.62 0.854 7.77 4.08 9.71
11/5/2021 3:30:00 AM 10.85 51.53 0.85 7.77 4.18 9.72
11/5/2021 3:45:00 AM 10.8 51.44 0.845 7.77 4.57 9.74
11/5/2021 4:00:00 AM 10.74 51.332 0.84 7.77 4.48 9.76
11/5/2021 4:15:00 AM 10.68 51.224 0.835 7.77 5.05 9.78
11/5/2021 4:30:00 AM 10.62 51.116 0.83 7.77 4.74 9.81
11/5/2021 4:45:00 AM 10.56 51.008 0.825 7.78 4.82 9.83
11/5/2021 5:00:00 AM 10.51 50.918 0.822 7.78 4.69 9.85
11/5/2021 5:15:00 AM 10.45 50.81 0.819 7.77 3.94 9.87
11/5/2021 5:30:00 AM 10.41 50.738 0.816 7.77 4.01 9.89
11/5/2021 5:45:00 AM 10.36 50.648 0.812 7.77 4.63 9.91
11/5/2021 6:00:00 AM 10.3 50.54 0.807 7.78 4.81 9.93
11/5/2021 6:15:00 AM 10.25 50.45 0.802 7.77 5.24 9.95
11/5/2021 6:30:00 AM 10.2 50.36 0.797 7.78 4.72 9.98
11/5/2021 6:45:00 AM 10.15 50.27 0.793 7.78 4.64 10
11/5/2021 7:00:00 AM 10.1 50.18 0.791 7.78 4.31 10.02
11/5/2021 7:15:00 AM 10.06 50.108 0.789 7.78 4.13 10.04
11/5/2021 7:30:00 AM 10.03 50.054 0.788 7.79 3.93 10.05
11/5/2021 7:45:00 AM 9.99 49.982 0.787 7.79 3.79 10.07
11/5/2021 8:00:00 AM 9.97 49.946 0.787 7.78 3.58 10.1
11/5/2021 8:15:00 AM 9.95 49.91 0.787 7.79 3.68 10.14
11/5/2021 8:30:00 AM 9.94 49.892 0.788 7.79 3.42 10.18
11/5/2021 8:45:00 AM 9.94 49.892 0.789 7.8 3.35 10.22
11/5/2021 9:00:00 AM 9.94 49.892 0.789 7.8 3.4 10.27
11/5/2021 9:15:00 AM 9.96 49.928 0.788 7.8 3.33 10.33
11/5/2021 9:30:00 AM 9.98 49.964 0.788 7.81 3.78 10.39
11/5/2021 9:45:00 AM 10.02 50.036 0.787 7.82 3.61 10.47
11/5/2021 10:00:00 AM 10.08 50.144 0.787 7.83 3.43 10.55
11/5/2021 10:15:00 AM 10.15 50.27 0.787 7.84 4.87 10.63
11/5/2021 10:30:00 AM 10.24 50.432 0.789 7.84 3.26 10.71
11/5/2021 10:45:00 AM 10.34 50.612 0.792 7.85 3.11 10.77
11/5/2021 11:00:00 AM 10.46 50.828 0.798 7.85 3 10.81
11/5/2021 11:15:00 AM 10.59 51.062 0.807 7.86 2.98 10.85
11/5/2021 11:30:00 AM 10.74 51.332 0.817 7.86 3.06 10.86
11/5/2021 11:45:00 AM 10.9 51.62 0.828 7.86 2.98 10.88
11/5/2021 12:00:00 PM 11.07 51.926 0.841 7.87 3.01 10.9
11/5/2021 12:15:00 PM 11.25 52.25 0.853 7.87 2.84 10.93
11/5/2021 12:30:00 PM 11.42 52.556 0.861 7.87 2.86 10.96
11/5/2021 12:45:00 PM 11.57 52.826 0.865 7.88 2.93 10.99
11/5/2021 1:00:00 PM 11.71 53.078 0.867 7.89 3.13 11.02
11/5/2021 1:15:00 PM 11.84 53.312 0.869 7.89 3.05 11.03
11/5/2021 1:30:00 PM 11.96 53.528 0.872 7.9 3.03 11.02
11/5/2021 1:45:00 PM 12.07 53.726 0.873 7.9 2.92 11.03
11/5/2021 2:00:00 PM 12.15 53.87 0.874 7.9 3.06 10.97
11/5/2021 2:15:00 PM 12.26 54.068 0.87 7.91 3.13 11.07
11/5/2021 2:30:00 PM 12.25 54.05 0.865 7.91 3.21 10.94
11/5/2021 2:45:00 PM 12.31 54.158 0.861 7.91 3.17 10.95
11/5/2021 3:00:00 PM 12.4 54.32 0.859 7.92 2.95 10.99
11/5/2021 3:15:00 PM 12.45 54.41 0.858 7.92 3.09 10.97
11/5/2021 3:30:00 PM 12.49 54.482 0.859 7.92 3.04 10.93
11/5/2021 3:45:00 PM 12.55 54.59 0.859 7.92 3 10.88
11/5/2021 4:00:00 PM 12.6 54.68 0.858 7.92 2.98 10.8
11/5/2021 4:15:00 PM 12.61 54.698 0.855 7.92 3 10.71
11/5/2021 4:30:00 PM 12.61 54.698 0.853 7.91 2.93 10.65
11/5/2021 4:45:00 PM 12.6 54.68 0.852 7.9 2.98 10.57
11/5/2021 5:00:00 PM 12.57 54.626 0.852 7.9 2.94 10.47
11/5/2021 5:15:00 PM 12.55 54.59 0.853 7.88 2.95 10.39
11/5/2021 5:30:00 PM 12.53 54.554 0.854 7.88 3.1 10.31
11/5/2021 5:45:00 PM 12.51 54.518 0.855 7.87 2.88 10.24
11/5/2021 6:00:00 PM 12.5 54.5 0.856 7.87 3.01 10.17
11/5/2021 6:15:00 PM 12.48 54.464 0.857 7.86 3.05 10.11
11/5/2021 6:30:00 PM 12.46 54.428 0.857 7.86 3.16 10.06
11/5/2021 6:45:00 PM 12.43 54.374 0.857 7.86 3.52 10.02
11/5/2021 7:00:00 PM 12.4 54.32 0.857 7.85 3.55 9.98
11/5/2021 7:15:00 PM 12.36 54.248 0.858 7.85 3.73 9.95
11/5/2021 7:30:00 PM 12.3 54.14 0.857 7.84 4.17 9.92
11/5/2021 7:45:00 PM 12.24 54.032 0.857 7.84 3.7 9.88
11/5/2021 8:00:00 PM 12.18 53.924 0.856 7.83 3.74 9.85
11/5/2021 8:15:00 PM 12.1 53.78 0.855 7.83 3.75 9.81
11/5/2021 8:30:00 PM 12.03 53.654 0.854 7.82 4.1 9.78
11/5/2021 8:45:00 PM 11.95 53.51 0.855 7.82 4.62 9.76
11/5/2021 9:00:00 PM 11.88 53.384 0.856 7.81 4.16 9.73
11/5/2021 9:15:00 PM 11.81 53.258 0.859 7.81 4.05 9.7
11/5/2021 9:30:00 PM 11.75 53.15 0.862 7.8 4.15 9.68
11/5/2021 9:45:00 PM 11.69 53.042 0.865 7.8 4.07 9.67
11/5/2021 10:00:00 PM 11.63 52.934 0.867 7.79 4.15 9.65
11/5/2021 10:15:00 PM 11.57 52.826 0.869 7.79 4.31 9.65
11/5/2021 10:30:00 PM 11.51 52.718 0.871 7.79 4.24 9.65
11/5/2021 10:45:00 PM 11.45 52.61 0.873 7.78 5 9.65
11/5/2021 11:00:00 PM 11.39 52.502 0.874 7.78 4.6 9.65
11/5/2021 11:15:00 PM 11.34 52.412 0.876 7.78 4.32 9.66
11/5/2021 11:30:00 PM 11.29 52.322 0.877 7.78 4.47 9.66
11/5/2021 11:45:00 PM 11.24 52.232 0.877 7.78 4.21 9.67
11/6/2021 12:00:00 AM 11.18 52.124 0.877 7.78 4.16 9.68
11/6/2021 12:15:00 AM 11.13 52.034 0.875 7.78 4.32 9.69
11/6/2021 12:30:00 AM 11.07 51.926 0.873 7.78 4.14 9.7
11/6/2021 12:45:00 AM 11.02 51.836 0.872 7.78 4.25 9.71
11/6/2021 1:00:00 AM 10.97 51.746 0.871 7.78 4.39 9.73
11/6/2021 1:15:00 AM 10.93 51.674 0.87 7.78 4.89 9.74
11/6/2021 1:30:00 AM 10.88 51.584 0.869 7.78 4.88 9.75
11/6/2021 1:45:00 AM 10.84 51.512 0.867 7.78 4.7 9.76
11/6/2021 2:00:00 AM 10.79 51.422 0.865 7.78 4.19 9.77
11/6/2021 2:15:00 AM 10.74 51.332 0.863 7.78 4.08 9.79
11/6/2021 2:30:00 AM 10.7 51.26 0.86 7.78 4.13 9.8
11/6/2021 2:45:00 AM 10.65 51.17 0.858 7.78 4.29 9.81
11/6/2021 3:00:00 AM 10.61 51.098 0.856 7.78 4.33 9.83
11/6/2021 3:15:00 AM 10.56 51.008 0.854 7.78 4.32 9.84
11/6/2021 3:30:00 AM 10.52 50.936 0.851 7.78 4.78 9.86
11/6/2021 3:45:00 AM 10.47 50.846 0.848 7.78 5.39 9.86
11/6/2021 4:00:00 AM 10.42 50.756 0.845 7.77 4.59 9.89
11/6/2021 4:15:00 AM 10.37 50.666 0.841 7.78 4.26 9.91
11/6/2021 4:30:00 AM 10.32 50.576 0.837 7.78 4.39 9.93
11/6/2021 4:45:00 AM 10.28 50.504 0.834 7.78 4.37 9.94
11/6/2021 5:00:00 AM 10.23 50.414 0.83 7.78 4.03 9.96
11/6/2021 5:15:00 AM 10.18 50.324 0.826 7.78 4.2 9.98
11/6/2021 5:30:00 AM 10.13 50.234 0.821 7.78 4.23 10
11/6/2021 5:45:00 AM 10.08 50.144 0.816 7.79 4.61 10.02
11/6/2021 6:00:00 AM 10.03 50.054 0.811 7.78 4.25 10.04
11/6/2021 6:15:00 AM 9.98 49.964 0.806 7.79 4.63 10.06
11/6/2021 6:30:00 AM 9.93 49.874 0.802 7.79 4.94 10.08
11/6/2021 6:45:00 AM 9.88 49.784 0.798 7.79 5.16 10.11
11/6/2021 7:00:00 AM 9.83 49.694 0.794 7.79 5.03 10.12
11/6/2021 7:15:00 AM 9.79 49.622 0.791 7.79 4.65 10.14
11/6/2021 7:30:00 AM 9.76 49.568 0.79 7.8 4.36 10.16
11/6/2021 7:45:00 AM 9.73 49.514 0.789 7.8 3.89 10.18
11/6/2021 8:00:00 AM 9.71 49.478 0.79 7.8 3.97 10.19
11/6/2021 8:15:00 AM 9.69 49.442 0.793 7.8 3.87 10.23
11/6/2021 8:30:00 AM 9.68 49.424 0.795 7.81 3.43 10.27
11/6/2021 8:45:00 AM 9.68 49.424 0.797 7.81 3.48 10.31
11/6/2021 9:00:00 AM 9.69 49.442 0.798 7.81 3.25 10.36
11/6/2021 9:15:00 AM 9.7 49.46 0.797 7.81 3.28 10.42
11/6/2021 9:30:00 AM 9.73 49.514 0.797 7.82 3.44 10.48
11/6/2021 9:45:00 AM 9.77 49.586 0.797 7.83 3.26 10.56
11/6/2021 10:00:00 AM 9.82 49.676 0.796 7.84 3.3 10.64
11/6/2021 10:15:00 AM 9.88 49.784 0.795 7.84 3.2 10.72
11/6/2021 10:30:00 AM 9.95 49.91 0.794 7.85 3.23 10.8
11/6/2021 10:45:00 AM 10.05 50.09 0.794 7.86 2.99 10.87
11/6/2021 11:00:00 AM 10.16 50.288 0.795 7.86 3.14 10.93
11/6/2021 11:15:00 AM 10.27 50.486 0.797 7.87 3.37 10.98
11/6/2021 11:30:00 AM 10.4 50.72 0.8 7.87 3.39 11.01
11/6/2021 11:45:00 AM 10.53 50.954 0.807 7.88 3.21 11.03
11/6/2021 12:00:00 PM 10.68 51.224 0.815 7.88 3.2 11.06
11/6/2021 12:15:00 PM 10.85 51.53 0.823 7.89 3.25 11.1
11/6/2021 12:30:00 PM 11 51.8 0.827 7.89 3.12 11.12
11/6/2021 12:45:00 PM 11.17 52.106 0.831 7.9 3.1 11.16
11/6/2021 1:00:00 PM 11.32 52.376 0.835 7.91 3.3 11.18
11/6/2021 1:15:00 PM 11.48 52.664 0.842 7.91 3.3 11.2
11/6/2021 1:30:00 PM 11.63 52.934 0.849 7.92 3.18 11.2
11/6/2021 1:45:00 PM 11.79 53.222 0.856 7.92 3.35 11.2
11/6/2021 2:00:00 PM 11.93 53.474 0.863 7.92 3.16 11.19
11/6/2021 2:15:00 PM 12.06 53.708 0.868 7.92 3.23 11.18
11/6/2021 2:30:00 PM 12.19 53.942 0.873 7.93 3.25 11.17
11/6/2021 2:45:00 PM 12.29 54.122 0.876 7.93 3.16 11.13
11/6/2021 3:00:00 PM 12.38 54.284 0.877 7.93 3.1 11.09
11/6/2021 3:15:00 PM 12.45 54.41 0.876 7.93 3.17 11.05
11/6/2021 3:30:00 PM 12.49 54.482 0.875 7.93 3.23 10.98
11/6/2021 3:45:00 PM 12.53 54.554 0.873 7.93 2.98 10.91
11/6/2021 4:00:00 PM 12.56 54.608 0.872 7.92 3.13 10.81
11/6/2021 4:15:00 PM 12.59 54.662 0.871 7.92 3.15 10.72
11/6/2021 4:30:00 PM 12.62 54.716 0.869 7.91 3.14 10.64
11/6/2021 4:45:00 PM 12.64 54.752 0.868 7.91 3 10.57
11/6/2021 5:00:00 PM 12.64 54.752 0.868 7.9 3.04 10.48
11/6/2021 5:15:00 PM 12.63 54.734 0.868 7.9 2.98 10.4
11/6/2021 5:30:00 PM 12.62 54.716 0.867 7.89 2.94 10.32
11/6/2021 5:45:00 PM 12.61 54.698 0.867 7.89 3.04 10.24
11/6/2021 6:00:00 PM 12.6 54.68 0.867 7.88 3.01 10.17
11/6/2021 6:15:00 PM 12.59 54.662 0.868 7.87 2.9 10.09
11/6/2021 6:30:00 PM 12.57 54.626 0.869 7.87 3.37 10.04
11/6/2021 6:45:00 PM 12.54 54.572 0.869 7.86 3.44 9.99
11/6/2021 7:00:00 PM 12.5 54.5 0.869 7.86 3.54 9.95
11/6/2021 7:15:00 PM 12.46 54.428 0.868 7.86 3.69 9.91
11/6/2021 7:30:00 PM 12.41 54.338 0.868 7.85 3.81 9.86
11/6/2021 7:45:00 PM 12.36 54.248 0.868 7.84 3.92 9.82
11/6/2021 8:00:00 PM 12.29 54.122 0.867 7.84 3.96 9.78
11/6/2021 8:15:00 PM 12.23 54.014 0.867 7.83 3.9 9.75
11/6/2021 8:30:00 PM 12.16 53.888 0.866 7.83 4 9.71
11/6/2021 8:45:00 PM 12.09 53.762 0.866 7.82 3.99 9.68
11/6/2021 9:00:00 PM 12.02 53.636 0.866 7.82 3.66 9.65
11/6/2021 9:15:00 PM 11.94 53.492 0.866 7.81 3.62 9.63
11/6/2021 9:30:00 PM 11.87 53.366 0.867 7.81 4.17 9.6
11/6/2021 9:45:00 PM 11.81 53.258 0.867 7.8 3.88 9.59
11/6/2021 10:00:00 PM 11.74 53.132 0.866 7.8 3.92 9.57
11/6/2021 10:15:00 PM 11.67 53.006 0.867 7.79 4.23 9.57
11/6/2021 10:30:00 PM 11.61 52.898 0.868 7.79 4.14 9.57
11/6/2021 10:45:00 PM 11.56 52.808 0.87 7.79 4.16 9.56
11/6/2021 11:00:00 PM 11.5 52.7 0.871 7.79 4.08 9.57
11/6/2021 11:15:00 PM 11.44 52.592 0.871 7.79 4.48 9.57
11/6/2021 11:30:00 PM 11.39 52.502 0.87 7.78 4.73 9.58
11/6/2021 11:45:00 PM 11.33 52.394 0.87 7.78 4.52 9.59
11/7/2021 12:00:00 AM 11.28 52.304 0.87 7.78 4.41 9.59
11/7/2021 12:15:00 AM 11.22 52.196 0.869 7.78 4.37 9.61
11/7/2021 12:30:00 AM 11.17 52.106 0.868 7.78 4.22 9.61
11/7/2021 12:45:00 AM 11.12 52.016 0.867 7.78 4.21 9.63
11/7/2021 1:00:00 AM 11.07 51.926 0.867 7.78 4.08 9.64
11/7/2021 1:15:00 AM 11.03 51.854 0.867 7.78 3.94 9.65
11/7/2021 1:30:00 AM 10.99 51.782 0.867 7.78 4.11 9.66
11/7/2021 1:45:00 AM 10.94 51.692 0.866 7.78 3.86 9.67
11/7/2021 2:00:00 AM 10.9 51.62 0.863 7.78 4.04 9.68
11/7/2021 2:15:00 AM 10.85 51.53 0.861 7.78 3.87 9.7
11/7/2021 2:30:00 AM 10.8 51.44 0.858 7.78 4.06 9.71
11/7/2021 2:45:00 AM 10.75 51.35 0.856 7.78 4 9.73
11/7/2021 3:00:00 AM 10.7 51.26 0.854 7.78 3.88 9.74
11/7/2021 3:15:00 AM 10.66 51.188 0.853 7.78 4.16 9.75
11/7/2021 3:30:00 AM 10.62 51.116 0.851 7.78 4.12 9.76
11/7/2021 3:45:00 AM 10.57 51.026 0.849 7.79 3.83 9.78
11/7/2021 4:00:00 AM 10.52 50.936 0.845 7.79 4.11 9.79
11/7/2021 4:15:00 AM 10.47 50.846 0.842 7.79 4.74 9.81
11/7/2021 4:30:00 AM 10.42 50.756 0.84 7.79 5.26 9.83
11/7/2021 4:45:00 AM 10.38 50.684 0.837 7.79 5.47 9.84
11/7/2021 5:00:00 AM 10.33 50.594 0.835 7.79 5.25 9.86
11/7/2021 5:15:00 AM 10.29 50.522 0.832 7.79 4.76 9.88
11/7/2021 5:30:00 AM 10.24 50.432 0.829 7.79 4.57 9.89
11/7/2021 5:45:00 AM 10.19 50.342 0.824 7.79 4.74 9.91
11/7/2021 6:00:00 AM 10.15 50.27 0.819 7.8 4.27 9.93
11/7/2021 6:15:00 AM 10.1 50.18 0.814 7.8 4.8 9.95
11/7/2021 6:30:00 AM 10.05 50.09 0.81 7.8 5.14 9.97
11/7/2021 6:45:00 AM 10 50 0.807 7.8 4.46 9.99
11/7/2021 7:00:00 AM 9.96 49.928 0.805 7.8 4.4 10.01
11/7/2021 7:15:00 AM 9.93 49.874 0.803 7.8 4.35 10.02
11/7/2021 7:30:00 AM 9.89 49.802 0.801 7.8 4.3 10.04
11/7/2021 7:45:00 AM 9.85 49.73 0.8 7.8 3.8 10.05
11/7/2021 8:00:00 AM 9.82 49.676 0.8 7.8 3.82 10.08
11/7/2021 8:15:00 AM 9.8 49.64 0.801 7.8 3.82 10.11
11/7/2021 8:30:00 AM 9.79 49.622 0.802 7.81 3.54 10.14
11/7/2021 8:45:00 AM 9.77 49.586 0.804 7.8 3.75 10.17
11/7/2021 9:00:00 AM 9.76 49.568 0.805 7.81 3.79 10.21
11/7/2021 9:15:00 AM 9.76 49.568 0.806 7.81 3.64 10.25
11/7/2021 9:30:00 AM 9.75 49.55 0.806 7.82 3.46 10.3
11/7/2021 9:45:00 AM 9.77 49.586 0.805 7.82 3.52 10.4
11/7/2021 10:00:00 AM 9.8 49.64 0.803 7.83 3.31 10.51
11/7/2021 10:15:00 AM 9.85 49.73 0.802 7.84 3.3 10.62
11/7/2021 10:30:00 AM 9.92 49.856 0.8 7.85 3.35 10.72
11/7/2021 10:45:00 AM 10 50 0.798 7.86 3.35 10.8
11/7/2021 11:00:00 AM 10.08 50.144 0.797 7.87 3.5 10.87
11/7/2021 11:15:00 AM 10.18 50.324 0.796 7.87 3.32 10.93
11/7/2021 11:30:00 AM 10.29 50.522 0.796 7.88 3.34 10.99
11/7/2021 11:45:00 AM 10.41 50.738 0.797 7.88 3.38 11.02
11/7/2021 12:00:00 PM 10.56 51.008 0.8 7.89 3.29 11.06
11/7/2021 12:15:00 PM 10.71 51.278 0.806 7.9 3.3 11.1
11/7/2021 12:30:00 PM 10.87 51.566 0.816 7.9 3.19 11.13
11/7/2021 12:45:00 PM 11.04 51.872 0.827 7.9 3.27 11.15
11/7/2021 1:00:00 PM 11.2 52.16 0.836 7.91 3.35 11.17
11/7/2021 1:15:00 PM 11.36 52.448 0.844 7.91 3.23 11.19
11/7/2021 1:30:00 PM 11.5 52.7 0.852 7.92 3.18 11.2
11/7/2021 1:45:00 PM 11.65 52.97 0.86 7.93 3.24 11.21
11/7/2021 2:00:00 PM 11.79 53.222 0.868 7.93 2.78 11.22
11/7/2021 2:15:00 PM 11.94 53.492 0.876 7.93 2.96 11.23
11/7/2021 2:30:00 PM 12.08 53.744 0.883 7.93 2.98 11.21
11/7/2021 2:45:00 PM 12.2 53.96 0.889 7.94 2.89 11.17
11/7/2021 3:00:00 PM 12.32 54.176 0.893 7.94 2.86 11.12
11/7/2021 3:15:00 PM 12.42 54.356 0.895 7.93 2.82 11.07
11/7/2021 3:30:00 PM 12.49 54.482 0.894 7.94 2.98 11.01
11/7/2021 3:45:00 PM 12.54 54.572 0.893 7.93 3.02 10.94
11/7/2021 4:00:00 PM 12.58 54.644 0.892 7.93 2.93 10.84
11/7/2021 4:15:00 PM 12.61 54.698 0.89 7.92 2.83 10.74
11/7/2021 4:30:00 PM 12.65 54.77 0.888 7.92 2.93 10.69
11/7/2021 4:45:00 PM 12.67 54.806 0.885 7.92 2.88 10.61
11/7/2021 5:00:00 PM 12.68 54.824 0.882 7.92 2.79 10.55
11/7/2021 5:15:00 PM 12.69 54.842 0.88 7.91 2.91 10.48
11/7/2021 5:30:00 PM 12.69 54.842 0.878 7.91 3.16 10.4
11/7/2021 5:45:00 PM 12.69 54.842 0.877 7.9 2.79 10.3
11/7/2021 6:00:00 PM 12.69 54.842 0.875 7.9 2.87 10.2
11/7/2021 6:15:00 PM 12.69 54.842 0.873 7.89 2.91 10.12
11/7/2021 6:30:00 PM 12.68 54.824 0.872 7.88 2.96 10.05
11/7/2021 6:45:00 PM 12.67 54.806 0.873 7.87 3.22 9.99
11/7/2021 7:00:00 PM 12.65 54.77 0.873 7.87 3.41 9.93
11/7/2021 7:15:00 PM 12.63 54.734 0.874 7.86 3.52 9.88
11/7/2021 7:30:00 PM 12.6 54.68 0.874 7.86 3.72 9.82
11/7/2021 7:45:00 PM 12.56 54.608 0.874 7.84 3.57 9.77
11/7/2021 8:00:00 PM 12.51 54.518 0.874 7.84 3.73 9.73
11/7/2021 8:15:00 PM 12.46 54.428 0.872 7.84 3.63 9.68
11/7/2021 8:30:00 PM 12.4 54.32 0.871 7.83 3.53 9.65
11/7/2021 8:45:00 PM 12.34 54.212 0.871 7.82 3.77 9.61
11/7/2021 9:00:00 PM 12.29 54.122 0.87 7.82 4.29 9.57
11/7/2021 9:15:00 PM 12.23 54.014 0.869 7.81 3.88 9.54
11/7/2021 9:30:00 PM 12.17 53.906 0.867 7.81 4.28 9.51
11/7/2021 9:45:00 PM 12.1 53.78 0.865 7.8 4.04 9.48
11/7/2021 10:00:00 PM 12.03 53.654 0.863 7.8 4.06 9.47
11/7/2021 10:15:00 PM 11.97 53.546 0.862 7.79 4.14 9.46
11/7/2021 10:30:00 PM 11.91 53.438 0.861 7.79 4.79 9.45
11/7/2021 10:45:00 PM 11.86 53.348 0.86 7.79 4.09 9.45
11/7/2021 11:00:00 PM 11.8 53.24 0.86 7.79 3.91 9.44
11/7/2021 11:15:00 PM 11.75 53.15 0.861 7.78 4.03 9.45
11/7/2021 11:30:00 PM 11.7 53.06 0.863 7.78 4.17 9.45
11/7/2021 11:45:00 PM 11.66 52.988 0.865 7.78 4.33 9.45
11/8/2021 12:00:00 AM 11.62 52.916 0.868 7.77 4.67 9.45
11/8/2021 12:15:00 AM 11.59 52.862 0.871 7.77 4.33 9.45
11/8/2021 12:30:00 AM 11.55 52.79 0.872 7.77 4.1 9.45
11/8/2021 12:45:00 AM 11.51 52.718 0.873 7.77 3.82 9.46
11/8/2021 1:00:00 AM 11.48 52.664 0.875 7.77 3.89 9.47
11/8/2021 1:15:00 AM 11.44 52.592 0.876 7.77 3.94 9.47
11/8/2021 1:30:00 AM 11.39 52.502 0.877 7.77 4.09 9.48
11/8/2021 1:45:00 AM 11.36 52.448 0.878 7.77 4.36 9.49
11/8/2021 2:00:00 AM 11.33 52.394 0.878 7.77 4.57 9.49
11/8/2021 2:15:00 AM 11.29 52.322 0.878 7.77 4.66 9.5
11/8/2021 2:30:00 AM 11.25 52.25 0.877 7.77 4.39 9.51
11/8/2021 2:45:00 AM 11.21 52.178 0.874 7.77 4.59 9.52
11/8/2021 3:00:00 AM 11.17 52.106 0.871 7.77 4.22 9.54
11/8/2021 3:15:00 AM 11.12 52.016 0.867 7.77 3.89 9.55
11/8/2021 3:30:00 AM 11.07 51.926 0.863 7.78 3.87 9.57
11/8/2021 3:45:00 AM 11.02 51.836 0.858 7.78 4.04 9.59
11/8/2021 4:00:00 AM 10.96 51.728 0.853 7.78 4.32 9.61
11/8/2021 4:15:00 AM 10.91 51.638 0.849 7.78 4.02 9.63
11/8/2021 4:30:00 AM 10.86 51.548 0.846 7.78 4.17 9.64
11/8/2021 4:45:00 AM 10.81 51.458 0.843 7.78 4.18 9.66
11/8/2021 5:00:00 AM 10.77 51.386 0.84 7.78 4.71 9.67
11/8/2021 5:15:00 AM 10.72 51.296 0.836 7.79 4.33 9.69
11/8/2021 5:30:00 AM 10.67 51.206 0.831 7.79 4.83 9.71
11/8/2021 5:45:00 AM 10.63 51.134 0.827 7.79 4.51 9.73
11/8/2021 6:00:00 AM 10.58 51.044 0.822 7.79 4.09 9.75
11/8/2021 6:15:00 AM 10.54 50.972 0.818 7.79 4.37 9.77
11/8/2021 6:30:00 AM 10.5 50.9 0.814 7.79 4.97 9.79
11/8/2021 6:45:00 AM 10.46 50.828 0.811 7.79 5.18 9.8
11/8/2021 7:00:00 AM 10.43 50.774 0.807 7.8 5.3 9.82
11/8/2021 7:15:00 AM 10.4 50.72 0.804 7.8 5.01 9.84
11/8/2021 7:30:00 AM 10.37 50.666 0.801 7.8 4.46 9.85
11/8/2021 7:45:00 AM 10.34 50.612 0.799 7.8 4.05 9.88
11/8/2021 8:00:00 AM 10.32 50.576 0.798 7.8 3.96 9.91
11/8/2021 8:15:00 AM 10.3 50.54 0.797 7.8 3.84 9.94
11/8/2021 8:30:00 AM 10.29 50.522 0.798 7.81 3.64 9.99
11/8/2021 8:45:00 AM 10.29 50.522 0.799 7.81 3.65 10.03
11/8/2021 9:00:00 AM 10.31 50.558 0.8 7.82 3.47 10.08
11/8/2021 9:15:00 AM 10.32 50.576 0.8 7.82 3.3 10.14
11/8/2021 9:30:00 AM 10.36 50.648 0.801 7.82 3.25 10.21
11/8/2021 9:45:00 AM 10.41 50.738 0.801 7.83 3.47 10.29
11/8/2021 10:00:00 AM 10.47 50.846 0.8 7.84 3.44 10.38
11/8/2021 10:15:00 AM 10.55 50.99 0.8 7.84 3.1 10.46
11/8/2021 10:30:00 AM 10.64 51.152 0.798 7.85 3.02 10.56
11/8/2021 10:45:00 AM 10.74 51.332 0.797 7.86 3.14 10.64
11/8/2021 11:00:00 AM 10.85 51.53 0.796 7.87 3.11 10.72
11/8/2021 11:15:00 AM 10.96 51.728 0.796 7.88 3.17 10.77
11/8/2021 11:30:00 AM 11.08 51.944 0.797 7.88 3.12 10.82
11/8/2021 11:45:00 AM 11.22 52.196 0.8 7.89 3.11 10.86
11/8/2021 12:00:00 PM 11.37 52.466 0.807 7.89 3.09 10.9
11/8/2021 12:15:00 PM 11.54 52.772 0.817 7.9 3.02 10.93
11/8/2021 12:30:00 PM 11.73 53.114 0.83 7.9 3.01 10.95
11/8/2021 12:45:00 PM 11.92 53.456 0.843 7.91 3.13 10.98
11/8/2021 1:00:00 PM 12.12 53.816 0.855 7.91 3.01 11
11/8/2021 1:15:00 PM 12.31 54.158 0.865 7.92 3.04 11.02
11/8/2021 1:30:00 PM 12.5 54.5 0.874 7.92 2.99 11.03
11/8/2021 1:45:00 PM 12.69 54.842 0.879 7.93 3.02 11.03
11/8/2021 2:00:00 PM 12.85 55.13 0.881 7.93 3.72 11.03
11/8/2021 2:15:00 PM 12.99 55.382 0.882 7.94 3.1 11
11/8/2021 2:30:00 PM 13.12 55.616 0.882 7.94 3.15 10.99
11/8/2021 2:45:00 PM 13.23 55.814 0.882 7.94 3.11 10.96
11/8/2021 3:00:00 PM 13.31 55.958 0.883 7.95 3.07 10.92
11/8/2021 3:15:00 PM 13.38 56.084 0.887 7.94 3.12 10.86
11/8/2021 3:30:00 PM 13.44 56.192 0.89 7.94 3.06 10.8
11/8/2021 3:45:00 PM 13.48 56.264 0.891 7.94 3.08 10.71
11/8/2021 4:00:00 PM 13.52 56.336 0.889 7.93 3.03 10.59
11/8/2021 4:15:00 PM 13.55 56.39 0.887 7.92 3.14 10.46
11/8/2021 4:30:00 PM 13.59 56.462 0.884 7.92 2.98 10.36
11/8/2021 4:45:00 PM 13.61 56.498 0.881 7.91 2.98 10.26
11/8/2021 5:00:00 PM 13.62 56.516 0.879 7.9 2.98 10.17
11/8/2021 5:15:00 PM 13.63 56.534 0.875 7.9 2.96 10.09
11/8/2021 5:30:00 PM 13.63 56.534 0.871 7.89 3.03 10.02
11/8/2021 5:45:00 PM 13.62 56.516 0.867 7.89 3.02 9.94
11/8/2021 6:00:00 PM 13.61 56.498 0.865 7.88 3.01 9.87
11/8/2021 6:15:00 PM 13.6 56.48 0.864 7.88 3.01 9.79
11/8/2021 6:30:00 PM 13.59 56.462 0.864 7.87 3.11 9.73
11/8/2021 6:45:00 PM 13.57 56.426 0.864 7.86 3.53 9.68
11/8/2021 7:00:00 PM 13.54 56.372 0.864 7.86 3.64 9.62
11/8/2021 7:15:00 PM 13.51 56.318 0.865 7.85 3.74 9.58
11/8/2021 7:30:00 PM 13.48 56.264 0.867 7.85 4.6 9.53
11/8/2021 7:45:00 PM 13.43 56.174 0.868 7.84 4.74 9.48
11/8/2021 8:00:00 PM 13.39 56.102 0.869 7.83 4.42 9.44
11/8/2021 8:15:00 PM 13.34 56.012 0.87 7.83 4.22 9.39
11/8/2021 8:30:00 PM 13.28 55.904 0.87 7.82 4.25 9.35
11/8/2021 8:45:00 PM 13.22 55.796 0.87 7.81 5.08 9.32
11/8/2021 9:00:00 PM 13.15 55.67 0.869 7.81 4.75 9.29
11/8/2021 9:15:00 PM 13.08 55.544 0.867 7.81 4.73 9.26
11/8/2021 9:30:00 PM 13.01 55.418 0.865 7.8 4.34 9.24
11/8/2021 9:45:00 PM 12.94 55.292 0.862 7.8 4.48 9.23
11/8/2021 10:00:00 PM 12.87 55.166 0.861 7.8 4.76 9.21
11/8/2021 10:15:00 PM 12.8 55.04 0.861 7.79 4.67 9.21
11/8/2021 10:30:00 PM 12.72 54.896 0.862 7.79 4.52 9.21
11/8/2021 10:45:00 PM 12.66 54.788 0.863 7.78 5.02 9.21
11/8/2021 11:00:00 PM 12.6 54.68 0.866 7.78 4.74 9.21
11/8/2021 11:15:00 PM 12.54 54.572 0.868 7.78 4.63 9.22
11/8/2021 11:30:00 PM 12.49 54.482 0.872 7.78 4.73 9.22
11/8/2021 11:45:00 PM 12.44 54.392 0.875 7.77 5.31 9.23
11/9/2021 12:00:00 AM 12.39 54.302 0.879 7.77 4.36 9.23
11/9/2021 12:15:00 AM 12.34 54.212 0.883 7.77 4.64 9.24
11/9/2021 12:30:00 AM 12.3 54.14 0.886 7.77 4.62 9.24
11/9/2021 12:45:00 AM 12.27 54.086 0.889 7.77 5.12 9.25
11/9/2021 1:00:00 AM 12.22 53.996 0.891 7.77 5.08 9.26
11/9/2021 1:15:00 AM 12.18 53.924 0.892 7.77 4.81 9.26
11/9/2021 1:30:00 AM 12.15 53.87 0.893 7.77 4.65 9.27
11/9/2021 1:45:00 AM 12.1 53.78 0.892 7.77 4.73 9.28
11/9/2021 2:00:00 AM 12.06 53.708 0.892 7.77 4.62 9.29
11/9/2021 2:15:00 AM 12.02 53.636 0.891 7.77 4.63 9.31
11/9/2021 2:30:00 AM 11.97 53.546 0.89 7.77 4.69 9.31
11/9/2021 2:45:00 AM 11.93 53.474 0.889 7.77 5.22 9.32
11/9/2021 3:00:00 AM 11.89 53.402 0.888 7.77 5.41 9.34
11/9/2021 3:15:00 AM 11.84 53.312 0.885 7.77 5.42 9.34
11/9/2021 3:30:00 AM 11.79 53.222 0.882 7.77 5.97 9.35
11/9/2021 3:45:00 AM 11.74 53.132 0.878 7.77 6.08 9.37
11/9/2021 4:00:00 AM 11.69 53.042 0.874 7.77 5.54 9.38
11/9/2021 4:15:00 AM 11.64 52.952 0.87 7.77 5.29 9.4
11/9/2021 4:30:00 AM 11.59 52.862 0.866 7.77 5.6 9.42
11/9/2021 4:45:00 AM 11.55 52.79 0.862 7.77 5.03 9.43
11/9/2021 5:00:00 AM 11.5 52.7 0.859 7.77 5.06 9.45
11/9/2021 5:15:00 AM 11.46 52.628 0.855 7.77 4.63 9.46
11/9/2021 5:30:00 AM 11.4 52.52 0.851 7.78 4.31 9.48
11/9/2021 5:45:00 AM 11.35 52.43 0.845 7.78 4.43 9.5
11/9/2021 6:00:00 AM 11.3 52.34 0.84 7.78 4.44 9.52
11/9/2021 6:15:00 AM 11.25 52.25 0.834 7.78 4.67 9.54
11/9/2021 6:30:00 AM 11.2 52.16 0.829 7.78 4.31 9.56
11/9/2021 6:45:00 AM 11.15 52.07 0.824 7.78 4.44 9.58
11/9/2021 7:00:00 AM 11.11 51.998 0.82 7.78 4.76 9.6
11/9/2021 7:15:00 AM 11.06 51.908 0.816 7.78 4.49 9.62
11/9/2021 7:30:00 AM 11.02 51.836 0.814 7.79 4.59 9.64
11/9/2021 7:45:00 AM 10.98 51.764 0.812 7.79 4.78 9.66
11/9/2021 8:00:00 AM 10.95 51.71 0.811 7.79 4.37 9.69
11/9/2021 8:15:00 AM 10.92 51.656 0.809 7.79 3.95 9.73
11/9/2021 8:30:00 AM 10.9 51.62 0.808 7.79 3.78 9.78
11/9/2021 8:45:00 AM 10.9 51.62 0.808 7.8 3.65 9.83
11/9/2021 9:00:00 AM 10.9 51.62 0.808 7.8 3.52 9.9
11/9/2021 9:15:00 AM 10.91 51.638 0.809 7.81 3.68 9.96
11/9/2021 9:30:00 AM 10.93 51.674 0.809 7.81 3.66 10.03
11/9/2021 9:45:00 AM 10.96 51.728 0.808 7.82 3.53 10.12
11/9/2021 10:00:00 AM 11 51.8 0.807 7.82 3.53 10.21
11/9/2021 10:15:00 AM 11.06 51.908 0.806 7.83 3.27 10.3
11/9/2021 10:30:00 AM 11.13 52.034 0.804 7.84 3.4 10.4
11/9/2021 10:45:00 AM 11.22 52.196 0.803 7.85 3.31 10.49
11/9/2021 11:00:00 AM 11.31 52.358 0.801 7.86 3.41 10.57
11/9/2021 11:15:00 AM 11.42 52.556 0.801 7.87 3.26 10.63
11/9/2021 11:30:00 AM 11.53 52.754 0.802 7.87 3.3 10.69
11/9/2021 11:45:00 AM 11.66 52.988 0.806 7.88 3.32 10.74
11/9/2021 12:00:00 PM 11.8 53.24 0.813 7.88 3.4 10.78
11/9/2021 12:15:00 PM 11.97 53.546 0.823 7.89 3.29 10.82
11/9/2021 12:30:00 PM 12.15 53.87 0.835 7.89 3.12 10.85
11/9/2021 12:45:00 PM 12.33 54.194 0.846 7.9 3.17 10.88
11/9/2021 1:00:00 PM 12.52 54.536 0.857 7.9 3.18 10.91
11/9/2021 1:15:00 PM 12.71 54.878 0.867 7.91 3.17 10.93
11/9/2021 1:30:00 PM 12.89 55.202 0.876 7.91 3.35 10.94
11/9/2021 1:45:00 PM 13.07 55.526 0.882 7.92 3.2 10.93
11/9/2021 2:00:00 PM 13.23 55.814 0.887 7.92 3.15 10.92
11/9/2021 2:15:00 PM 13.38 56.084 0.892 7.92 3.21 10.9
11/9/2021 2:30:00 PM 13.51 56.318 0.895 7.92 3.31 10.88
11/9/2021 2:45:00 PM 13.61 56.498 0.896 7.93 3.32 10.84
11/9/2021 3:00:00 PM 13.69 56.642 0.896 7.93 3.16 10.8
11/9/2021 3:15:00 PM 13.75 56.75 0.896 7.93 3.21 10.75
11/9/2021 3:30:00 PM 13.8 56.84 0.897 7.93 3.2 10.69
11/9/2021 3:45:00 PM 13.83 56.894 0.896 7.92 3.32 10.62
11/9/2021 4:00:00 PM 13.87 56.966 0.894 7.92 3.16 10.51
11/9/2021 4:15:00 PM 13.9 57.02 0.891 7.91 3.17 10.4
11/9/2021 4:30:00 PM 13.94 57.092 0.889 7.91 3.33 10.3
11/9/2021 4:45:00 PM 13.97 57.146 0.89 7.9 3.27 10.2
11/9/2021 5:00:00 PM 13.99 57.182 0.892 7.89 3.41 10.1
11/9/2021 5:15:00 PM 14.01 57.218 0.894 7.89 3.09 10
11/9/2021 5:30:00 PM 14.02 57.236 0.896 7.88 3.18 9.91
11/9/2021 5:45:00 PM 14.03 57.254 0.896 7.87 3.01 9.81
11/9/2021 6:00:00 PM 14.03 57.254 0.896 7.86 3.19 9.72
11/9/2021 6:15:00 PM 14.02 57.236 0.895 7.86 3.2 9.64
11/9/2021 6:30:00 PM 14 57.2 0.894 7.85 3.42 9.58
11/9/2021 6:45:00 PM 13.98 57.164 0.892 7.84 3.69 9.52
11/9/2021 7:00:00 PM 13.95 57.11 0.889 7.84 3.88 9.47
11/9/2021 7:15:00 PM 13.91 57.038 0.886 7.84 3.86 9.42
11/9/2021 7:30:00 PM 13.87 56.966 0.883 7.83 4.02 9.38
11/9/2021 7:45:00 PM 13.82 56.876 0.879 7.83 4.32 9.33
11/9/2021 8:00:00 PM 13.77 56.786 0.874 7.82 4.28 9.29
11/9/2021 8:15:00 PM 13.72 56.696 0.872 7.82 4.21 9.24
11/9/2021 8:30:00 PM 13.67 56.606 0.87 7.81 3.93 9.21
11/9/2021 8:45:00 PM 13.62 56.516 0.869 7.81 4.07 9.16
11/9/2021 9:00:00 PM 13.57 56.426 0.867 7.8 4.52 9.12
11/9/2021 9:15:00 PM 13.51 56.318 0.864 7.79 4.14 9.1
11/9/2021 9:30:00 PM 13.45 56.21 0.862 7.79 4.16 9.07
11/9/2021 9:45:00 PM 13.38 56.084 0.861 7.79 4.19 9.04
11/9/2021 10:00:00 PM 13.32 55.976 0.862 7.78 4.25 9.03
11/9/2021 10:15:00 PM 13.25 55.85 0.863 7.77 4.37 9.02
11/9/2021 10:30:00 PM 13.19 55.742 0.865 7.77 4.59 9.01
11/9/2021 10:45:00 PM 13.15 55.67 0.868 7.76 4.87 9
11/9/2021 11:00:00 PM 13.11 55.598 0.871 7.76 4.91 9
11/9/2021 11:15:00 PM 13.08 55.544 0.876 7.76 4.65 8.99
11/9/2021 11:30:00 PM 13.05 55.49 0.88 7.76 4.58 8.99
11/9/2021 11:45:00 PM 13.03 55.454 0.884 7.75 4.47 8.99
11/10/2021 12:00:00 AM 13.01 55.418 0.888 7.75 4.42 8.99
11/10/2021 12:15:00 AM 12.99 55.382 0.893 7.75 4.56 8.99
11/10/2021 12:30:00 AM 12.98 55.364 0.899 7.75 4.3 8.98
11/10/2021 12:45:00 AM 12.96 55.328 0.904 7.75 4.32 8.98
11/10/2021 1:00:00 AM 12.95 55.31 0.907 7.75 4.24 8.98
11/10/2021 1:15:00 AM 12.93 55.274 0.908 7.75 4.38 8.98
11/10/2021 1:30:00 AM 12.91 55.238 0.909 7.74 4.29 8.99
11/10/2021 1:45:00 AM 12.89 55.202 0.909 7.74 4.17 8.98
11/10/2021 2:00:00 AM 12.88 55.184 0.909 7.74 4.16 8.99
11/10/2021 2:15:00 AM 12.85 55.13 0.908 7.74 3.99 8.99
11/10/2021 2:30:00 AM 12.83 55.094 0.906 7.74 4.02 9
11/10/2021 2:45:00 AM 12.81 55.058 0.904 7.74 4.18 9.01
11/10/2021 3:00:00 AM 12.8 55.04 0.901 7.75 4.2 9.01
11/10/2021 3:15:00 AM 12.78 55.004 0.898 7.75 4.03 9.01
11/10/2021 3:30:00 AM 12.77 54.986 0.896 7.75 4.08 9.01
11/10/2021 3:45:00 AM 12.76 54.968 0.892 7.74 4.04 9.02
11/10/2021 4:00:00 AM 12.75 54.95 0.888 7.75 4.43 9.03
11/10/2021 4:15:00 AM 12.73 54.914 0.885 7.75 4.87 9.03
11/10/2021 4:30:00 AM 12.71 54.878 0.88 7.75 4.69 9.03
11/10/2021 4:45:00 AM 12.69 54.842 0.876 7.75 4.47 9.05
11/10/2021 5:00:00 AM 12.67 54.806 0.871 7.75 4.58 9.05
11/10/2021 5:15:00 AM 12.64 54.752 0.865 7.75 4.34 9.07
11/10/2021 5:30:00 AM 12.62 54.716 0.859 7.75 4.1 9.08
11/10/2021 5:45:00 AM 12.59 54.662 0.852 7.76 4.6 9.09
11/10/2021 6:00:00 AM 12.56 54.608 0.846 7.76 5.02 9.11
11/10/2021 6:15:00 AM 12.53 54.554 0.84 7.76 4.69 9.13
11/10/2021 6:30:00 AM 12.5 54.5 0.834 7.76 4.69 9.14
11/10/2021 6:45:00 AM 12.47 54.446 0.829 7.76 4.45 9.16
11/10/2021 7:00:00 AM 12.44 54.392 0.825 7.76 4.59 9.17
11/10/2021 7:15:00 AM 12.41 54.338 0.821 7.76 4.61 9.18
11/10/2021 7:30:00 AM 12.38 54.284 0.818 7.76 4.83 9.19
11/10/2021 7:45:00 AM 12.35 54.23 0.816 7.76 4.62 9.21
11/10/2021 8:00:00 AM 12.32 54.176 0.815 7.76 4.29 9.23
11/10/2021 8:15:00 AM 12.3 54.14 0.813 7.77 4.25 9.26
11/10/2021 8:30:00 AM 12.28 54.104 0.812 7.77 4.21 9.32
11/10/2021 8:45:00 AM 12.28 54.104 0.812 7.78 3.99 9.39
11/10/2021 9:00:00 AM 12.28 54.104 0.811 7.78 3.89 9.47
11/10/2021 9:15:00 AM 12.28 54.104 0.811 7.78 3.94 9.55
11/10/2021 9:30:00 AM 12.3 54.14 0.811 7.79 3.69 9.63
11/10/2021 9:45:00 AM 12.33 54.194 0.81 7.8 3.51 9.73
11/10/2021 10:00:00 AM 12.37 54.266 0.808 7.81 3.42 9.83
11/10/2021 10:15:00 AM 12.42 54.356 0.807 7.82 3.26 9.93
11/10/2021 10:30:00 AM 12.46 54.428 0.804 7.83 3.38 10.03
11/10/2021 10:45:00 AM 12.49 54.482 0.803 7.83 3.37 10.07
11/10/2021 11:00:00 AM 12.56 54.608 0.802 7.84 3.56 10.18
11/10/2021 11:15:00 AM 12.63 54.734 0.801 7.85 3.7 10.29
11/10/2021 11:30:00 AM 12.71 54.878 0.802 7.86 3.35 10.38
11/10/2021 11:45:00 AM 12.81 55.058 0.806 7.87 3.44 10.45
11/10/2021 12:00:00 PM 12.92 55.256 0.811 7.88 3.55 10.51
11/10/2021 12:15:00 PM 13.03 55.454 0.811 7.89 3.47 10.58
11/10/2021 12:30:00 PM 13.13 55.634 0.805 7.9 3.47 10.66
11/10/2021 12:45:00 PM 13.24 55.832 0.806 7.9 3.51 10.73
11/10/2021 1:00:00 PM 13.37 56.066 0.822 7.91 3.46 10.76
11/10/2021 1:15:00 PM 13.54 56.372 0.848 7.91 3.47 10.75
11/10/2021 1:30:00 PM 13.72 56.696 0.875 7.91 3.45 10.74
11/10/2021 1:45:00 PM 13.91 57.038 0.897 7.91 3.51 10.72
11/10/2021 2:00:00 PM 14.05 57.29 0.909 7.91 3.47 10.71
11/10/2021 2:15:00 PM 14.16 57.488 0.911 7.92 3.63 10.71
11/10/2021 2:30:00 PM 14.24 57.632 0.908 7.93 3.48 10.71
11/10/2021 2:45:00 PM 14.29 57.722 0.904 7.93 3.54 10.7
11/10/2021 3:00:00 PM 14.32 57.776 0.906 7.93 3.49 10.66
11/10/2021 3:15:00 PM 14.35 57.83 0.913 7.93 3.56 10.61
11/10/2021 3:30:00 PM 14.38 57.884 0.918 7.93 3.75 10.53
11/10/2021 3:45:00 PM 14.39 57.902 0.917 7.92 3.44 10.46
11/10/2021 4:00:00 PM 14.38 57.884 0.912 7.92 3.73 10.36
11/10/2021 4:15:00 PM 14.38 57.884 0.907 7.91 3.38 10.26
11/10/2021 4:30:00 PM 14.37 57.866 0.903 7.91 3.38 10.16
11/10/2021 4:45:00 PM 14.36 57.848 0.902 7.9 3.73 10.07
11/10/2021 5:00:00 PM 14.35 57.83 0.903 7.89 3.35 9.97
11/10/2021 5:15:00 PM 14.34 57.812 0.905 7.88 3.59 9.88
11/10/2021 5:30:00 PM 14.32 57.776 0.908 7.88 3.18 9.8
11/10/2021 5:45:00 PM 14.31 57.758 0.911 7.87 3.41 9.71
11/10/2021 6:00:00 PM 14.29 57.722 0.913 7.86 3.14 9.62
11/10/2021 6:15:00 PM 14.26 57.668 0.915 7.85 3.37 9.54
11/10/2021 6:30:00 PM 14.23 57.614 0.915 7.84 3.96 9.48
11/10/2021 6:45:00 PM 14.18 57.524 0.914 7.84 4.02 9.44
11/10/2021 7:00:00 PM 14.13 57.434 0.911 7.84 3.96 9.39
11/10/2021 7:15:00 PM 14.07 57.326 0.905 7.83 4.01 9.35
11/10/2021 7:30:00 PM 13.99 57.182 0.896 7.83 4.57 9.32
11/10/2021 7:45:00 PM 13.9 57.02 0.886 7.83 4.33 9.28
11/10/2021 8:00:00 PM 13.8 56.84 0.88 7.82 4.16 9.25
11/10/2021 8:15:00 PM 13.71 56.678 0.877 7.82 4.29 9.21
11/10/2021 8:30:00 PM 13.62 56.516 0.875 7.81 4.4 9.17
11/10/2021 8:45:00 PM 13.53 56.354 0.873 7.8 4.41 9.14
11/10/2021 9:00:00 PM 13.45 56.21 0.873 7.8 4.36 9.12
11/10/2021 9:15:00 PM 13.36 56.048 0.873 7.79 4.41 9.09
11/10/2021 9:30:00 PM 13.27 55.886 0.872 7.79 4.33 9.08
11/10/2021 9:45:00 PM 13.18 55.724 0.87 7.78 4.19 9.07
11/10/2021 10:00:00 PM 13.09 55.562 0.869 7.78 4.52 9.06
11/10/2021 10:15:00 PM 13 55.4 0.87 7.78 4.4 9.06
11/10/2021 10:30:00 PM 12.92 55.256 0.872 7.78 4.46 9.07
11/10/2021 10:45:00 PM 12.84 55.112 0.875 7.77 4.45 9.07
11/10/2021 11:00:00 PM 12.76 54.968 0.879 7.77 4.75 9.08
11/10/2021 11:15:00 PM 12.7 54.86 0.883 7.77 4.62 9.08
11/10/2021 11:30:00 PM 12.63 54.734 0.887 7.77 4.58 9.09
11/10/2021 11:45:00 PM 12.56 54.608 0.891 7.76 4.84 9.09
11/11/2021 12:00:00 AM 12.51 54.518 0.895 7.76 4.48 9.1
11/11/2021 12:15:00 AM 12.45 54.41 0.899 7.76 4.61 9.11
11/11/2021 12:30:00 AM 12.4 54.32 0.903 7.76 4.51 9.12
11/11/2021 12:45:00 AM 12.36 54.248 0.907 7.76 4.47 9.12
11/11/2021 1:00:00 AM 12.32 54.176 0.911 7.76 4.24 9.14
11/11/2021 1:15:00 AM 12.27 54.086 0.915 7.76 4.6 9.14
11/11/2021 1:30:00 AM 12.24 54.032 0.917 7.76 4.73 9.15
11/11/2021 1:45:00 AM 12.2 53.96 0.92 7.76 4.51 9.16
11/11/2021 2:00:00 AM 12.17 53.906 0.922 7.76 4.55 9.17
11/11/2021 2:15:00 AM 12.14 53.852 0.922 7.76 5.08 9.18
11/11/2021 2:30:00 AM 12.12 53.816 0.922 7.76 4.26 9.19
11/11/2021 2:45:00 AM 12.11 53.798 0.921 7.76 4.23 9.2
11/11/2021 3:00:00 AM 12.09 53.762 0.918 7.76 3.94 9.21
11/11/2021 3:15:00 AM 12.07 53.726 0.915 7.76 3.88 9.23
11/11/2021 3:30:00 AM 12.04 53.672 0.912 7.76 4.2 9.23
11/11/2021 3:45:00 AM 12.02 53.636 0.907 7.76 3.87 9.25
11/11/2021 4:00:00 AM 12 53.6 0.903 7.76 4.4 9.27
11/11/2021 4:15:00 AM 11.97 53.546 0.898 7.77 3.85 9.27
11/11/2021 4:30:00 AM 11.93 53.474 0.893 7.77 4.23 9.29
11/11/2021 4:45:00 AM 11.89 53.402 0.888 7.77 4.27 9.3
11/11/2021 5:00:00 AM 11.85 53.33 0.882 7.77 4.5 9.32
11/11/2021 5:15:00 AM 11.8 53.24 0.877 7.77 4.49 9.34
11/11/2021 5:30:00 AM 11.75 53.15 0.872 7.77 4.22 9.36
11/11/2021 5:45:00 AM 11.71 53.078 0.866 7.77 4.17 9.38
11/11/2021 6:00:00 AM 11.68 53.024 0.861 7.78 4.12 9.39
11/11/2021 6:15:00 AM 11.65 52.97 0.856 7.78 3.81 9.41
11/11/2021 6:30:00 AM 11.62 52.916 0.85 7.78 4.02 9.42
11/11/2021 6:45:00 AM 11.59 52.862 0.845 7.78 4.55 9.44
11/11/2021 7:00:00 AM 11.55 52.79 0.84 7.78 4.54 9.46
11/11/2021 7:15:00 AM 11.52 52.736 0.835 7.78 4.61 9.47
11/11/2021 7:30:00 AM 11.49 52.682 0.833 7.79 4.6 9.48
11/11/2021 7:45:00 AM 11.47 52.646 0.831 7.79 4.22 9.49
11/11/2021 8:00:00 AM 11.44 52.592 0.829 7.79 4.24 9.51
11/11/2021 8:15:00 AM 11.42 52.556 0.828 7.79 4.04 9.55
11/11/2021 8:30:00 AM 11.4 52.52 0.826 7.8 3.78 9.6
11/11/2021 8:45:00 AM 11.39 52.502 0.826 7.8 3.42 9.68
11/11/2021 9:00:00 AM 11.39 52.502 0.827 7.81 3.5 9.75
11/11/2021 9:15:00 AM 11.4 52.52 0.828 7.81 3.42 9.83
11/11/2021 9:30:00 AM 11.43 52.574 0.829 7.82 3.33 9.95
11/11/2021 9:45:00 AM 11.47 52.646 0.829 7.83 3.58 10.08
11/11/2021 10:00:00 AM 11.51 52.718 0.828 7.84 3.4 10.16
11/11/2021 10:15:00 AM 11.55 52.79 0.827 7.85 3.15 10.24
11/11/2021 10:30:00 AM 11.61 52.898 0.824 7.86 3.19 10.34
11/11/2021 10:45:00 AM 11.67 53.006 0.822 7.86 3.25 10.42
11/11/2021 11:00:00 AM 11.74 53.132 0.821 7.87 3.21 10.51
11/11/2021 11:15:00 AM 11.82 53.276 0.819 7.88 3.47 10.64
11/11/2021 11:30:00 AM 11.91 53.438 0.818 7.9 3.38 10.74
11/11/2021 11:45:00 AM 12.01 53.618 0.82 7.9 3.34 10.83
11/11/2021 12:00:00 PM 12.11 53.798 0.825 7.91 3.27 10.9
11/11/2021 12:15:00 PM 12.21 53.978 0.833 7.92 3.13 10.95
11/11/2021 12:30:00 PM 12.32 54.176 0.843 7.93 3.3 10.99
11/11/2021 12:45:00 PM 12.44 54.392 0.855 7.93 3.31 11.04
11/11/2021 1:00:00 PM 12.58 54.644 0.869 7.94 3.1 11.1
11/11/2021 1:15:00 PM 12.73 54.914 0.883 7.94 3.12 11.12
11/11/2021 1:30:00 PM 12.87 55.166 0.899 7.94 3.17 11.11
11/11/2021 1:45:00 PM 12.99 55.382 0.915 7.94 3.18 11.05
11/11/2021 2:00:00 PM 13.11 55.598 0.93 7.94 3.28 11.04
11/11/2021 2:15:00 PM 13.23 55.814 0.939 7.95 3.54 11.08
11/11/2021 2:30:00 PM 13.33 55.994 0.942 7.95 3.31 11.09
11/11/2021 2:45:00 PM 13.41 56.138 0.94 7.96 3.3 11.04
11/11/2021 3:00:00 PM 13.49 56.282 0.937 7.96 3.16 11.01
11/11/2021 3:15:00 PM 13.57 56.426 0.934 7.96 3.08 11.03
11/11/2021 3:30:00 PM 13.64 56.552 0.93 7.97 4.37 11
11/11/2021 3:45:00 PM 13.7 56.66 0.927 7.97 3.35 10.99
11/11/2021 4:00:00 PM 13.76 56.768 0.927 7.97 3.19 10.94
11/11/2021 4:15:00 PM 13.8 56.84 0.931 7.96 3.22 10.84
11/11/2021 4:30:00 PM 13.86 56.948 0.938 7.96 3.1 10.76
11/11/2021 4:45:00 PM 13.9 57.02 0.946 7.95 3.07 10.62
11/11/2021 5:00:00 PM 13.93 57.074 0.952 7.94 3.06 10.49
11/11/2021 5:15:00 PM 13.95 57.11 0.958 7.93 3.14 10.37
11/11/2021 5:30:00 PM 13.97 57.146 0.963 7.92 3.74 10.21
11/11/2021 5:45:00 PM 13.98 57.164 0.965 7.9 2.97 10.09
11/11/2021 6:00:00 PM 13.98 57.164 0.964 7.89 3.07 9.97
11/11/2021 6:15:00 PM 13.97 57.146 0.962 7.88 3.24 9.86
11/11/2021 6:30:00 PM 13.95 57.11 0.959 7.88 3.43 9.77
11/11/2021 6:45:00 PM 13.93 57.074 0.956 7.87 3.68 9.69
11/11/2021 7:00:00 PM 13.9 57.02 0.952 7.86 3.82 9.63
11/11/2021 7:15:00 PM 13.88 56.984 0.945 7.86 3.69 9.58
11/11/2021 7:30:00 PM 13.87 56.966 0.937 7.85 4.27 9.53
11/11/2021 7:45:00 PM 13.84 56.912 0.928 7.85 3.95 9.48
11/11/2021 8:00:00 PM 13.82 56.876 0.92 7.85 3.97 9.44
11/11/2021 8:15:00 PM 13.79 56.822 0.915 7.84 4.1 9.38
11/11/2021 8:30:00 PM 13.77 56.786 0.912 7.84 3.96 9.32
11/11/2021 8:45:00 PM 13.74 56.732 0.909 7.83 4.18 9.26
11/11/2021 9:00:00 PM 13.69 56.642 0.907 7.82 4.02 9.21
11/11/2021 9:15:00 PM 13.65 56.57 0.904 7.82 4.62 9.15
11/11/2021 9:30:00 PM 13.61 56.498 0.902 7.81 5.49 9.11
11/11/2021 9:45:00 PM 13.57 56.426 0.9 7.8 4.34 9.07
11/11/2021 10:00:00 PM 13.54 56.372 0.9 7.8 4.44 9.04
11/11/2021 10:15:00 PM 13.52 56.336 0.901 7.79 5.06 9
11/11/2021 10:30:00 PM 13.51 56.318 0.904 7.79 4.43 8.98
11/11/2021 10:45:00 PM 13.5 56.3 0.906 7.79 4.43 8.95
11/11/2021 11:00:00 PM 13.5 56.3 0.908 7.78 4.18 8.94
11/11/2021 11:15:00 PM 13.5 56.3 0.911 7.78 4.9 8.91
11/11/2021 11:30:00 PM 13.49 56.282 0.914 7.78 5.05 8.91
11/11/2021 11:45:00 PM 13.49 56.282 0.919 7.77 5.18 8.89
11/12/2021 12:00:00 AM 13.48 56.264 0.923 7.77 4.59 8.88
11/12/2021 12:15:00 AM 13.48 56.264 0.927 7.77 4.6 8.88
11/12/2021 12:30:00 AM 13.48 56.264 0.93 7.77 4.22 8.86
11/12/2021 12:45:00 AM 13.48 56.264 0.932 7.76 4.9 8.86
11/12/2021 1:00:00 AM 13.49 56.282 0.934 7.76 4.56 8.85
11/12/2021 1:15:00 AM 13.48 56.264 0.936 7.76 4.37 8.84
11/12/2021 1:30:00 AM 13.48 56.264 0.938 7.76 4.1 8.84
11/12/2021 1:45:00 AM 13.47 56.246 0.939 7.76 3.84 8.83
11/12/2021 2:00:00 AM 13.47 56.246 0.94 7.76 3.93 8.83
11/12/2021 2:15:00 AM 13.47 56.246 0.939 7.76 4.21 8.82
11/12/2021 2:30:00 AM 13.48 56.264 0.938 7.76 4.01 8.82
11/12/2021 2:45:00 AM 13.49 56.282 0.936 7.75 4.14 8.81
11/12/2021 3:00:00 AM 13.51 56.318 0.932 7.76 3.98 8.8
11/12/2021 3:15:00 AM 13.51 56.318 0.928 7.76 4.12 8.81
11/12/2021 3:30:00 AM 13.51 56.318 0.924 7.76 4.37 8.8
11/12/2021 3:45:00 AM 13.51 56.318 0.921 7.76 4.31 8.8
11/12/2021 4:00:00 AM 13.52 56.336 0.916 7.76 3.94 8.8
11/12/2021 4:15:00 AM 13.52 56.336 0.912 7.76 3.91 8.8
11/12/2021 4:30:00 AM 13.53 56.354 0.908 7.77 4.47 8.8
11/12/2021 4:45:00 AM 13.54 56.372 0.903 7.76 4.3 8.79
11/12/2021 5:00:00 AM 13.55 56.39 0.898 7.77 4.47 8.79
11/12/2021 5:15:00 AM 13.57 56.426 0.889 7.77 4.19 8.8
11/12/2021 5:30:00 AM 13.58 56.444 0.88 7.77 4.63 8.81
11/12/2021 5:45:00 AM 13.58 56.444 0.87 7.77 5.77 8.8
11/12/2021 6:00:00 AM 13.59 56.462 0.861 7.78 5.32 8.8
11/12/2021 6:15:00 AM 13.61 56.498 0.847 7.78 5.17 8.82
11/12/2021 6:30:00 AM 13.61 56.498 0.833 7.78 6.5 8.82
11/12/2021 6:45:00 AM 13.63 56.534 0.81 7.78 7.61 8.87
11/12/2021 7:00:00 AM 13.64 56.552 0.774 7.78 10.22 8.89
11/12/2021 7:15:00 AM 13.62 56.516 0.771 7.77 10.94 8.88
11/12/2021 7:30:00 AM 13.59 56.462 0.771 7.76 13.44 8.87
11/12/2021 7:45:00 AM 13.6 56.48 0.768 7.76 12.71 8.87
11/12/2021 8:00:00 AM 13.61 56.498 0.761 7.76 13.47 8.9
11/12/2021 8:15:00 AM 13.64 56.552 0.744 7.76 25.26 8.97
11/12/2021 8:30:00 AM 13.63 56.534 0.717 7.75 37.79 9.02
11/12/2021 8:45:00 AM 13.57 56.426 0.708 7.72 38.34 9.02
11/12/2021 9:00:00 AM 13.57 56.426 0.701 7.7 37.12 9
11/12/2021 9:15:00 AM 13.59 56.462 0.678 7.66 35.11 8.93
11/12/2021 9:30:00 AM 13.65 56.57 0.631 7.61 35.01 8.8
11/12/2021 9:45:00 AM 13.69 56.642 0.548 7.55 45.1 8.7
11/12/2021 10:00:00 AM 13.78 56.804 0.471 7.51 50.75 8.67
11/12/2021 10:15:00 AM 13.94 57.092 0.441 7.5 50.52 8.75
11/12/2021 10:30:00 AM 14.09 57.362 0.416 7.49 52.08 8.8
11/12/2021 10:45:00 AM 14.1 57.38 0.387 7.48 43.21 8.81
11/12/2021 11:00:00 AM 14.1 57.38 0.37 7.46 34.59 8.79
11/12/2021 11:15:00 AM 14.12 57.416 0.363 7.45 31.35 8.78
11/12/2021 11:30:00 AM 14.15 57.47 0.362 7.45 27.06 8.76
11/12/2021 11:45:00 AM 14.21 57.578 0.37 7.45 25.58 8.78
11/12/2021 12:00:00 PM 14.24 57.632 0.389 7.45 22.45 8.78
11/12/2021 12:15:00 PM 14.26 57.668 0.408 7.46 19.62 8.76
11/12/2021 12:30:00 PM 14.27 57.686 0.426 7.46 18.99 8.76
11/12/2021 12:45:00 PM 14.26 57.668 0.446 7.46 18.62 8.73
11/12/2021 1:00:00 PM 14.29 57.722 0.463 7.46 18.4 8.73
11/12/2021 1:15:00 PM 14.32 57.776 0.477 7.46 17.87 8.73
11/12/2021 1:30:00 PM 14.36 57.848 0.49 7.47 17.36 8.74
11/12/2021 1:45:00 PM 14.4 57.92 0.507 7.47 16 8.74
11/12/2021 2:00:00 PM 14.43 57.974 0.523 7.48 15.24 8.75
11/12/2021 2:15:00 PM 14.44 57.992 0.537 7.49 13.99 8.79
11/12/2021 2:30:00 PM 14.46 58.028 0.551 7.5 13.46 8.81
11/12/2021 2:45:00 PM 14.48 58.064 0.565 7.5 12.66 8.84
11/12/2021 3:00:00 PM 14.49 58.082 0.58 7.51 12.36 8.85
11/12/2021 3:15:00 PM 14.48 58.064 0.594 7.51 11.37 8.86
11/12/2021 3:30:00 PM 14.45 58.01 0.609 7.52 11.12 8.85
11/12/2021 3:45:00 PM 14.42 57.956 0.623 7.53 10.79 8.86
11/12/2021 4:00:00 PM 14.38 57.884 0.634 7.54 10.29 8.85
11/12/2021 4:15:00 PM 14.35 57.83 0.645 7.54 9.91 8.85
11/12/2021 4:30:00 PM 14.32 57.776 0.658 7.55 9.72 8.84
11/12/2021 4:45:00 PM 14.26 57.668 0.67 7.56 9.11 8.84
11/12/2021 5:00:00 PM 14.22 57.596 0.679 7.56 8.42 8.84
11/12/2021 5:15:00 PM 14.19 57.542 0.687 7.57 8.23 8.84
11/12/2021 5:30:00 PM 14.15 57.47 0.693 7.58 7.97 8.83
11/12/2021 5:45:00 PM 14.11 57.398 0.698 7.58 7.29 8.83
11/12/2021 6:00:00 PM 14.07 57.326 0.7 7.59 7.38 8.81
11/12/2021 6:15:00 PM 14.01 57.218 0.701 7.59 6.89 8.8
11/12/2021 6:30:00 PM 13.95 57.11 0.702 7.59 7.07 8.79
11/12/2021 6:45:00 PM 13.88 56.984 0.701 7.6 7.38 8.78
11/12/2021 7:00:00 PM 13.81 56.858 0.7 7.6 7.45 8.78
11/12/2021 7:15:00 PM 13.73 56.714 0.7 7.6 7.59 8.78
11/12/2021 7:30:00 PM 13.65 56.57 0.702 7.6 8.8 8.77
11/12/2021 7:45:00 PM 13.57 56.426 0.705 7.6 7.17 8.77
11/12/2021 8:00:00 PM 13.49 56.282 0.709 7.6 7.25 8.77
11/12/2021 8:15:00 PM 13.42 56.156 0.714 7.6 7.02 8.77
11/12/2021 8:30:00 PM 13.35 56.03 0.717 7.6 6.72 8.77
11/12/2021 8:45:00 PM 13.27 55.886 0.719 7.6 6.62 8.77
11/12/2021 9:00:00 PM 13.2 55.76 0.721 7.6 6.27 8.78
11/12/2021 9:15:00 PM 13.13 55.634 0.725 7.6 6.78 8.79
11/12/2021 9:30:00 PM 13.07 55.526 0.729 7.61 7.35 8.79
11/12/2021 9:45:00 PM 13.01 55.418 0.734 7.61 6.5 8.8
11/12/2021 10:00:00 PM 12.95 55.31 0.738 7.6 6.72 8.81
11/12/2021 10:15:00 PM 12.89 55.202 0.742 7.61 6.12 8.82
11/12/2021 10:30:00 PM 12.83 55.094 0.746 7.61 5.5 8.85
11/12/2021 10:45:00 PM 12.77 54.986 0.75 7.61 6.2 8.86
11/12/2021 11:00:00 PM 12.71 54.878 0.755 7.61 5.89 8.88
11/12/2021 11:15:00 PM 12.66 54.788 0.76 7.62 5.73 8.9
11/12/2021 11:30:00 PM 12.61 54.698 0.764 7.62 5.18 8.91
11/12/2021 11:45:00 PM 12.56 54.608 0.767 7.62 5.6 8.93
11/13/2021 12:00:00 AM 12.51 54.518 0.769 7.62 5.39 8.94
11/13/2021 12:15:00 AM 12.45 54.41 0.772 7.63 5.31 8.97
11/13/2021 12:30:00 AM 12.4 54.32 0.775 7.63 5.47 8.98
11/13/2021 12:45:00 AM 12.35 54.23 0.777 7.63 5.78 9
11/13/2021 1:00:00 AM 12.29 54.122 0.777 7.63 5.32 9.02
11/13/2021 1:15:00 AM 12.24 54.032 0.778 7.64 5.56 9.04
11/13/2021 1:30:00 AM 12.18 53.924 0.779 7.64 5.65 9.06
11/13/2021 1:45:00 AM 12.13 53.834 0.781 7.64 5.37 9.08
11/13/2021 2:00:00 AM 12.09 53.762 0.783 7.64 5.13 9.09
11/13/2021 2:15:00 AM 12.04 53.672 0.784 7.65 5.12 9.11
11/13/2021 2:30:00 AM 11.99 53.582 0.785 7.65 5.1 9.12
11/13/2021 2:45:00 AM 11.95 53.51 0.786 7.65 5.06 9.14
11/13/2021 3:00:00 AM 11.9 53.42 0.786 7.66 4.88 9.16
11/13/2021 3:15:00 AM 11.86 53.348 0.787 7.66 5.4 9.18
11/13/2021 3:30:00 AM 11.82 53.276 0.787 7.66 4.85 9.19
11/13/2021 3:45:00 AM 11.78 53.204 0.786 7.66 4.63 9.2
11/13/2021 4:00:00 AM 11.73 53.114 0.785 7.67 4.67 9.22
11/13/2021 4:15:00 AM 11.69 53.042 0.783 7.67 4.69 9.24
11/13/2021 4:30:00 AM 11.65 52.97 0.782 7.67 4.86 9.25
11/13/2021 4:45:00 AM 11.61 52.898 0.78 7.67 4.78 9.27
11/13/2021 5:00:00 AM 11.56 52.808 0.779 7.68 5 9.28
11/13/2021 5:15:00 AM 11.52 52.736 0.777 7.68 4.51 9.3
11/13/2021 5:30:00 AM 11.49 52.682 0.777 7.68 4.65 9.32
11/13/2021 5:45:00 AM 11.45 52.61 0.776 7.68 5.22 9.32
11/13/2021 6:00:00 AM 11.42 52.556 0.776 7.69 4.56 9.33
11/13/2021 6:15:00 AM 11.39 52.502 0.776 7.69 4.71 9.35
11/13/2021 6:30:00 AM 11.36 52.448 0.774 7.69 4.72 9.36
11/13/2021 6:45:00 AM 11.34 52.412 0.773 7.69 4.93 9.37
11/13/2021 7:00:00 AM 11.32 52.376 0.772 7.7 5.19 9.38
11/13/2021 7:15:00 AM 11.3 52.34 0.771 7.7 4.81 9.39
11/13/2021 7:30:00 AM 11.28 52.304 0.77 7.7 4.68 9.4
11/13/2021 7:45:00 AM 11.27 52.286 0.769 7.7 4.81 9.4
11/13/2021 8:00:00 AM 11.27 52.286 0.769 7.7 4.37 9.42
11/13/2021 8:15:00 AM 11.27 52.286 0.77 7.71 4.45 9.44
11/13/2021 8:30:00 AM 11.27 52.286 0.771 7.71 4.3 9.48
11/13/2021 8:45:00 AM 11.28 52.304 0.772 7.71 3.98 9.53
11/13/2021 9:00:00 AM 11.3 52.34 0.772 7.72 3.85 9.55
11/13/2021 9:15:00 AM 11.31 52.358 0.772 7.72 3.97 9.58
11/13/2021 9:30:00 AM 11.33 52.394 0.77 7.72 3.74 9.63
11/13/2021 9:45:00 AM 11.35 52.43 0.768 7.73 3.57 9.69
11/13/2021 10:00:00 AM 11.38 52.484 0.766 7.74 3.56 9.74
11/13/2021 10:15:00 AM 11.42 52.556 0.763 7.74 3.46 9.82
11/13/2021 10:30:00 AM 11.46 52.628 0.761 7.75 3.29 9.92
11/13/2021 10:45:00 AM 11.51 52.718 0.76 7.76 3.83 9.95
11/13/2021 11:00:00 AM 11.56 52.808 0.758 7.76 3.3 9.94
11/13/2021 11:15:00 AM 11.61 52.898 0.758 7.76 3.3 9.95
11/13/2021 11:30:00 AM 11.66 52.988 0.759 7.77 3.46 9.96
11/13/2021 11:45:00 AM 11.72 53.096 0.761 7.77 3.26 10.04
11/13/2021 12:00:00 PM 11.78 53.204 0.766 7.77 3.55 9.97
11/13/2021 12:15:00 PM 11.85 53.33 0.773 7.77 3.12 9.92
11/13/2021 12:30:00 PM 11.92 53.456 0.779 7.77 3.18 9.89
11/13/2021 12:45:00 PM 12 53.6 0.786 7.77 3.16 9.95
11/13/2021 1:00:00 PM 12.08 53.744 0.794 7.78 3.14 9.98
11/13/2021 1:15:00 PM 12.14 53.852 0.801 7.78 3.07 9.91
11/13/2021 1:30:00 PM 12.18 53.924 0.808 7.78 2.95 9.89
11/13/2021 1:45:00 PM 12.21 53.978 0.814 7.78 3.22 9.88
11/13/2021 2:00:00 PM 12.23 54.014 0.819 7.78 3.11 9.87
11/13/2021 2:15:00 PM 12.27 54.086 0.824 7.78 3.27 9.88
11/13/2021 2:30:00 PM 12.32 54.176 0.829 7.79 3.41 9.97
11/13/2021 2:45:00 PM 12.39 54.302 0.832 7.8 3.31 10.1
11/13/2021 3:00:00 PM 12.45 54.41 0.833 7.81 3.44 10.18
11/13/2021 3:15:00 PM 12.5 54.5 0.834 7.81 3.32 10.17
11/13/2021 3:30:00 PM 12.49 54.482 0.834 7.81 3.67 10.07
11/13/2021 3:45:00 PM 12.48 54.464 0.834 7.8 3.28 9.99
11/13/2021 4:00:00 PM 12.49 54.482 0.834 7.8 3.28 10.02
11/13/2021 4:15:00 PM 12.45 54.41 0.833 7.8 3.23 9.97
11/13/2021 4:30:00 PM 12.38 54.284 0.834 7.79 3.29 9.91
11/13/2021 4:45:00 PM 12.32 54.176 0.835 7.79 3.56 9.88
11/13/2021 5:00:00 PM 12.26 54.068 0.835 7.79 3.95 9.84
11/13/2021 5:15:00 PM 12.2 53.96 0.835 7.78 3.44 9.82
11/13/2021 5:30:00 PM 12.15 53.87 0.835 7.78 3.28 9.8
11/13/2021 5:45:00 PM 12.12 53.816 0.836 7.78 3.86 9.8
11/13/2021 6:00:00 PM 12.1 53.78 0.835 7.78 3.54 9.79
11/13/2021 6:15:00 PM 12.07 53.726 0.834 7.78 4.28 9.77
11/13/2021 6:30:00 PM 12.03 53.654 0.83 7.78 3.78 9.76
11/13/2021 6:45:00 PM 11.98 53.564 0.825 7.78 3.7 9.75
11/13/2021 7:00:00 PM 11.92 53.456 0.821 7.77 4.06 9.73
11/13/2021 7:15:00 PM 11.86 53.348 0.82 7.77 4.11 9.7
11/13/2021 7:30:00 PM 11.8 53.24 0.819 7.76 4.16 9.68
11/13/2021 7:45:00 PM 11.75 53.15 0.818 7.76 4.13 9.64
11/13/2021 8:00:00 PM 11.69 53.042 0.82 7.75 3.95 9.59
11/13/2021 8:15:00 PM 11.64 52.952 0.822 7.73 4.19 9.53
11/13/2021 8:30:00 PM 11.58 52.844 0.826 7.72 4.34 9.46
11/13/2021 8:45:00 PM 11.53 52.754 0.826 7.7 4.79 9.4
11/13/2021 9:00:00 PM 11.47 52.646 0.824 7.69 4.84 9.36
11/13/2021 9:15:00 PM 11.42 52.556 0.82 7.69 4.67 9.32
11/13/2021 9:30:00 PM 11.37 52.466 0.818 7.68 4.58 9.3
11/13/2021 9:45:00 PM 11.33 52.394 0.819 7.68 4.89 9.3
11/13/2021 10:00:00 PM 11.29 52.322 0.821 7.68 5.19 9.31
11/13/2021 10:15:00 PM 11.27 52.286 0.822 7.69 4.48 9.32
11/13/2021 10:30:00 PM 11.23 52.214 0.822 7.69 4.57 9.35
11/13/2021 10:45:00 PM 11.19 52.142 0.822 7.7 4.75 9.37
11/13/2021 11:00:00 PM 11.14 52.052 0.822 7.7 4.56 9.4
11/13/2021 11:15:00 PM 11.1 51.98 0.822 7.7 4.74 9.42
11/13/2021 11:30:00 PM 11.06 51.908 0.823 7.71 4.29 9.44
11/13/2021 11:45:00 PM 11.02 51.836 0.825 7.71 4.89 9.47
11/14/2021 12:00:00 AM 10.98 51.764 0.826 7.71 5.33 9.49
11/14/2021 12:15:00 AM 10.95 51.71 0.826 7.72 4.6 9.49
11/14/2021 12:30:00 AM 10.92 51.656 0.827 7.71 4.35 9.5
11/14/2021 12:45:00 AM 10.89 51.602 0.828 7.71 4.71 9.51
11/14/2021 1:00:00 AM 10.86 51.548 0.827 7.72 4.65 9.52
11/14/2021 1:15:00 AM 10.83 51.494 0.826 7.72 3.91 9.54
11/14/2021 1:30:00 AM 10.81 51.458 0.824 7.72 4.06 9.54
11/14/2021 1:45:00 AM 10.79 51.422 0.823 7.72 4.51 9.55
11/14/2021 2:00:00 AM 10.76 51.368 0.822 7.73 4.09 9.56
11/14/2021 2:15:00 AM 10.73 51.314 0.821 7.73 4.09 9.58
11/14/2021 2:30:00 AM 10.7 51.26 0.818 7.73 4.05 9.58
11/14/2021 2:45:00 AM 10.67 51.206 0.816 7.73 4.22 9.59
11/14/2021 3:00:00 AM 10.64 51.152 0.813 7.73 4.44 9.61
11/14/2021 3:15:00 AM 10.61 51.098 0.811 7.73 4.32 9.61
11/14/2021 3:30:00 AM 10.58 51.044 0.808 7.74 4.19 9.63
11/14/2021 3:45:00 AM 10.55 50.99 0.807 7.74 4.65 9.64
11/14/2021 4:00:00 AM 10.53 50.954 0.805 7.74 4.66 9.64
11/14/2021 4:15:00 AM 10.51 50.918 0.804 7.74 5 9.65
11/14/2021 4:30:00 AM 10.48 50.864 0.802 7.74 4.94 9.66
11/14/2021 4:45:00 AM 10.45 50.81 0.8 7.74 4.61 9.67
11/14/2021 5:00:00 AM 10.42 50.756 0.798 7.75 5.66 9.68
11/14/2021 5:15:00 AM 10.38 50.684 0.795 7.75 5.92 9.7
11/14/2021 5:30:00 AM 10.34 50.612 0.792 7.75 5.58 9.71
11/14/2021 5:45:00 AM 10.3 50.54 0.789 7.75 6.2 9.73
11/14/2021 6:00:00 AM 10.26 50.468 0.785 7.75 5.12 9.74
11/14/2021 6:15:00 AM 10.22 50.396 0.782 7.75 5.43 9.76
11/14/2021 6:30:00 AM 10.18 50.324 0.779 7.76 5.3 9.78
11/14/2021 6:45:00 AM 10.15 50.27 0.776 7.76 4.83 9.79
11/14/2021 7:00:00 AM 10.11 50.198 0.774 7.76 5.27 9.8
11/14/2021 7:15:00 AM 10.08 50.144 0.772 7.76 5.77 9.81
11/14/2021 7:30:00 AM 10.06 50.108 0.77 7.76 4.91 9.83
11/14/2021 7:45:00 AM 10.03 50.054 0.77 7.76 5.05 9.84
11/14/2021 8:00:00 AM 10.01 50.018 0.771 7.77 4.63 9.85
11/14/2021 8:15:00 AM 9.99 49.982 0.772 7.77 4.54 9.88
11/14/2021 8:30:00 AM 9.98 49.964 0.772 7.77 4.17 9.92
11/14/2021 8:45:00 AM 9.98 49.964 0.773 7.78 3.83 10
11/14/2021 9:00:00 AM 9.98 49.964 0.774 7.78 3.79 10.04
11/14/2021 9:15:00 AM 9.97 49.946 0.774 7.78 3.68 10.05
11/14/2021 9:30:00 AM 9.97 49.946 0.773 7.78 3.75 10.09
11/14/2021 9:45:00 AM 9.98 49.964 0.771 7.79 3.65 10.17
11/14/2021 10:00:00 AM 10.01 50.018 0.77 7.8 3.66 10.27
11/14/2021 10:15:00 AM 10.05 50.09 0.769 7.81 3.38 10.37
11/14/2021 10:30:00 AM 10.08 50.144 0.768 7.81 3.5 10.38
11/14/2021 10:45:00 AM 10.11 50.198 0.766 7.82 3.41 10.42
11/14/2021 11:00:00 AM 10.17 50.306 0.765 7.83 3.76 10.53
11/14/2021 11:15:00 AM 10.23 50.414 0.766 7.83 3.5 10.62
11/14/2021 11:30:00 AM 10.3 50.54 0.768 7.84 3.6 10.67
11/14/2021 11:45:00 AM 10.38 50.684 0.772 7.85 3.26 10.72
11/14/2021 12:00:00 PM 10.48 50.864 0.778 7.86 3.45 10.8
11/14/2021 12:15:00 PM 10.59 51.062 0.786 7.86 3.59 10.86
11/14/2021 12:30:00 PM 10.71 51.278 0.792 7.87 3.48 10.93
11/14/2021 12:45:00 PM 10.81 51.458 0.795 7.87 3.22 10.94
11/14/2021 1:00:00 PM 10.9 51.62 0.797 7.88 3.48 10.95
11/14/2021 1:15:00 PM 10.98 51.764 0.8 7.88 3.35 10.97
11/14/2021 1:30:00 PM 11.08 51.944 0.804 7.88 3.27 11.02
11/14/2021 1:45:00 PM 11.2 52.16 0.809 7.89 3.3 11.08
11/14/2021 2:00:00 PM 11.31 52.358 0.813 7.9 3.37 11.08
11/14/2021 2:15:00 PM 11.41 52.538 0.817 7.9 3.17 11.05
11/14/2021 2:30:00 PM 11.52 52.736 0.82 7.91 3.18 11.08
11/14/2021 2:45:00 PM 11.61 52.898 0.822 7.91 3.28 11.05
11/14/2021 3:00:00 PM 11.69 53.042 0.825 7.91 3.22 11.04
11/14/2021 3:15:00 PM 11.76 53.168 0.828 7.91 3.16 11.03
11/14/2021 3:30:00 PM 11.82 53.276 0.829 7.91 3.54 11
11/14/2021 3:45:00 PM 11.88 53.384 0.83 7.91 3.28 10.94
11/14/2021 4:00:00 PM 11.93 53.474 0.83 7.91 3.1 10.89
11/14/2021 4:15:00 PM 11.98 53.564 0.831 7.91 3.04 10.88
11/14/2021 4:30:00 PM 12.01 53.618 0.831 7.91 3.25 10.82
11/14/2021 4:45:00 PM 12.03 53.654 0.831 7.91 3.45 10.73
11/14/2021 5:00:00 PM 12.05 53.69 0.831 7.9 3.26 10.63
11/14/2021 5:15:00 PM 12.06 53.708 0.831 7.89 3.01 10.52
11/14/2021 5:30:00 PM 12.06 53.708 0.831 7.89 3.11 10.4
11/14/2021 5:45:00 PM 12.05 53.69 0.83 7.88 3.19 10.3
11/14/2021 6:00:00 PM 12.03 53.654 0.829 7.87 3.13 10.22
11/14/2021 6:15:00 PM 12.02 53.636 0.828 7.86 3.32 10.15
11/14/2021 6:30:00 PM 12 53.6 0.827 7.86 3.23 10.08
11/14/2021 6:45:00 PM 11.99 53.582 0.827 7.85 3.71 10.03
11/14/2021 7:00:00 PM 11.98 53.564 0.827 7.84 3.73 9.97
11/14/2021 7:15:00 PM 11.97 53.546 0.828 7.83 3.65 9.91
11/14/2021 7:30:00 PM 11.95 53.51 0.828 7.83 3.85 9.86
11/14/2021 7:45:00 PM 11.93 53.474 0.827 7.83 3.97 9.81
11/14/2021 8:00:00 PM 11.89 53.402 0.826 7.82 4.56 9.76
11/14/2021 8:15:00 PM 11.86 53.348 0.825 7.82 4.43 9.7
11/14/2021 8:30:00 PM 11.81 53.258 0.823 7.81 3.69 9.66
11/14/2021 8:45:00 PM 11.76 53.168 0.821 7.8 3.54 9.61
11/14/2021 9:00:00 PM 11.73 53.114 0.82 7.8 3.98 9.56
11/14/2021 9:15:00 PM 11.71 53.078 0.819 7.79 3.85 9.52
11/14/2021 9:30:00 PM 11.69 53.042 0.82 7.79 4.04 9.49
11/14/2021 9:45:00 PM 11.67 53.006 0.822 7.78 4.05 9.46
11/14/2021 10:00:00 PM 11.65 52.97 0.823 7.78 3.98 9.44
11/14/2021 10:15:00 PM 11.63 52.934 0.823 7.78 4 9.43
11/14/2021 10:30:00 PM 11.6 52.88 0.822 7.77 3.92 9.42
11/14/2021 10:45:00 PM 11.57 52.826 0.821 7.76 4.08 9.42
11/14/2021 11:00:00 PM 11.55 52.79 0.82 7.77 4.95 9.41
11/14/2021 11:15:00 PM 11.53 52.754 0.82 7.77 4.05 9.4
11/14/2021 11:30:00 PM 11.5 52.7 0.82 7.76 4.07 9.4
11/14/2021 11:45:00 PM 11.48 52.664 0.819 7.76 3.88 9.4
11/15/2021 12:00:00 AM 11.45 52.61 0.818 7.76 3.9 9.41
11/15/2021 12:15:00 AM 11.43 52.574 0.818 7.76 3.96 9.41
11/15/2021 12:30:00 AM 11.41 52.538 0.819 7.76 4.28 9.41
11/15/2021 12:45:00 AM 11.41 52.538 0.82 7.75 4.2 9.4
11/15/2021 1:00:00 AM 11.39 52.502 0.821 7.75 4.08 9.39
11/15/2021 1:15:00 AM 11.37 52.466 0.821 7.75 3.87 9.39
11/15/2021 1:30:00 AM 11.34 52.412 0.821 7.75 3.98 9.38
11/15/2021 1:45:00 AM 11.31 52.358 0.82 7.75 4.2 9.39
11/15/2021 2:00:00 AM 11.28 52.304 0.82 7.75 3.77 9.39
11/15/2021 2:15:00 AM 11.26 52.268 0.819 7.75 4.01 9.39
11/15/2021 2:30:00 AM 11.25 52.25 0.818 7.75 3.84 9.39
11/15/2021 2:45:00 AM 11.24 52.232 0.816 7.75 3.65 9.4
11/15/2021 3:00:00 AM 11.23 52.214 0.813 7.75 3.83 9.39
11/15/2021 3:15:00 AM 11.21 52.178 0.81 7.75 4.11 9.4
11/15/2021 3:30:00 AM 11.19 52.142 0.807 7.75 4.01 9.4
11/15/2021 3:45:00 AM 11.17 52.106 0.804 7.74 4.34 9.4
11/15/2021 4:00:00 AM 11.15 52.07 0.801 7.75 4.52 9.4
11/15/2021 4:15:00 AM 11.12 52.016 0.798 7.74 4.03 9.4
11/15/2021 4:30:00 AM 11.1 51.98 0.794 7.74 4.26 9.4
11/15/2021 4:45:00 AM 11.07 51.926 0.791 7.74 4.78 9.41
11/15/2021 5:00:00 AM 11.04 51.872 0.788 7.74 4.35 9.42
11/15/2021 5:15:00 AM 11.01 51.818 0.785 7.74 4.59 9.43
11/15/2021 5:30:00 AM 10.98 51.764 0.783 7.74 4.37 9.45
11/15/2021 5:45:00 AM 10.95 51.71 0.781 7.74 4.64 9.46
11/15/2021 6:00:00 AM 10.93 51.674 0.779 7.75 4.45 9.48
11/15/2021 6:15:00 AM 10.9 51.62 0.777 7.75 4.52 9.49
11/15/2021 6:30:00 AM 10.87 51.566 0.774 7.75 4.53 9.51
11/15/2021 6:45:00 AM 10.83 51.494 0.772 7.76 4.48 9.53
11/15/2021 7:00:00 AM 10.79 51.422 0.77 7.76 4.62 9.54
11/15/2021 7:15:00 AM 10.76 51.368 0.768 7.76 5.69 9.56
11/15/2021 7:30:00 AM 10.74 51.332 0.766 7.76 5.01 9.57
11/15/2021 7:45:00 AM 10.73 51.314 0.765 7.76 4.73 9.58
11/15/2021 8:00:00 AM 10.72 51.296 0.764 7.77 4.56 9.6
11/15/2021 8:15:00 AM 10.72 51.296 0.764 7.77 3.97 9.62
11/15/2021 8:30:00 AM 10.71 51.278 0.764 7.77 3.9 9.65
11/15/2021 8:45:00 AM 10.72 51.296 0.765 7.78 3.75 9.69
11/15/2021 9:00:00 AM 10.72 51.296 0.766 7.78 3.63 9.74
11/15/2021 9:15:00 AM 10.73 51.314 0.766